<?xml version="1.0" encoding="UTF-8" standalone="no" ?>
<gpx xmlns="http://www.topografix.com/GPX/1/1" xmlns:xsi="http://www.w3.org/2001/XMLSchema-instance" xsi:schemaLocation="http://www.topografix.com/GPX/1/1 http://www.topografix.com/GPX/1/1/gpx.xsd" version="1.1" creator="VisuGPX - https://www.visugpx.com">
  <metadata>
    <name>Lac des Vaches, col de la Vanoise, cirque de l'Arcellin</name>
    <desc><![CDATA[Parking des Fontanettes, piste du Génépi, pont de la Glière, lac des Vaches, col de la Vanoise ; descente par le lac des Assiettes, cirque des Arcellin.]]></desc>
  </metadata>
  <trk>
    <name><![CDATA[2019-09-10 15:53:50]]></name>
    <trkseg>
      <trkpt lat="45.38188" lon="6.73591">
        <ele>1663.22</ele>
        <time>2019-09-10T06:53:25Z</time>
      </trkpt>
      <trkpt lat="45.38188" lon="6.73591">
        <ele>1663.22</ele>
        <time>2019-09-10T06:53:26Z</time>
      </trkpt>
      <trkpt lat="45.38191" lon="6.7359">
        <ele>1662.74</ele>
        <time>2019-09-10T06:53:41Z</time>
      </trkpt>
      <trkpt lat="45.38193" lon="6.73587">
        <ele>1662.74</ele>
        <time>2019-09-10T06:53:55Z</time>
      </trkpt>
      <trkpt lat="45.38193" lon="6.73577">
        <ele>1662.26</ele>
        <time>2019-09-10T06:54:10Z</time>
      </trkpt>
      <trkpt lat="45.38199" lon="6.73577">
        <ele>1662.26</ele>
        <time>2019-09-10T06:54:25Z</time>
      </trkpt>
      <trkpt lat="45.38205" lon="6.73586">
        <ele>1663.22</ele>
        <time>2019-09-10T06:54:42Z</time>
      </trkpt>
      <trkpt lat="45.38207" lon="6.73601">
        <ele>1665.14</ele>
        <time>2019-09-10T06:54:56Z</time>
      </trkpt>
      <trkpt lat="45.38212" lon="6.73609">
        <ele>1667.54</ele>
        <time>2019-09-10T06:55:11Z</time>
      </trkpt>
      <trkpt lat="45.3822" lon="6.73615">
        <ele>1669.95</ele>
        <time>2019-09-10T06:55:27Z</time>
      </trkpt>
      <trkpt lat="45.38225" lon="6.73625">
        <ele>1672.35</ele>
        <time>2019-09-10T06:55:42Z</time>
      </trkpt>
      <trkpt lat="45.38232" lon="6.73633">
        <ele>1674.75</ele>
        <time>2019-09-10T06:55:58Z</time>
      </trkpt>
      <trkpt lat="45.38235" lon="6.73639">
        <ele>1676.68</ele>
        <time>2019-09-10T06:56:11Z</time>
      </trkpt>
      <trkpt lat="45.38239" lon="6.73648">
        <ele>1677.64</ele>
        <time>2019-09-10T06:56:28Z</time>
      </trkpt>
      <trkpt lat="45.38244" lon="6.73655">
        <ele>1679.56</ele>
        <time>2019-09-10T06:56:43Z</time>
      </trkpt>
      <trkpt lat="45.38249" lon="6.73665">
        <ele>1681</ele>
        <time>2019-09-10T06:56:58Z</time>
      </trkpt>
      <trkpt lat="45.38254" lon="6.73672">
        <ele>1682.93</ele>
        <time>2019-09-10T06:57:14Z</time>
      </trkpt>
      <trkpt lat="45.38259" lon="6.73684">
        <ele>1684.85</ele>
        <time>2019-09-10T06:57:31Z</time>
      </trkpt>
      <trkpt lat="45.38265" lon="6.73699">
        <ele>1687.25</ele>
        <time>2019-09-10T06:57:47Z</time>
      </trkpt>
      <trkpt lat="45.38275" lon="6.73709">
        <ele>1689.17</ele>
        <time>2019-09-10T06:58:05Z</time>
      </trkpt>
      <trkpt lat="45.38282" lon="6.73719">
        <ele>1691.58</ele>
        <time>2019-09-10T06:58:23Z</time>
      </trkpt>
      <trkpt lat="45.38288" lon="6.73729">
        <ele>1693.02</ele>
        <time>2019-09-10T06:58:36Z</time>
      </trkpt>
      <trkpt lat="45.38295" lon="6.73745">
        <ele>1693.98</ele>
        <time>2019-09-10T06:58:52Z</time>
      </trkpt>
      <trkpt lat="45.38303" lon="6.73758">
        <ele>1696.38</ele>
        <time>2019-09-10T06:59:08Z</time>
      </trkpt>
      <trkpt lat="45.38308" lon="6.73767">
        <ele>1698.79</ele>
        <time>2019-09-10T06:59:23Z</time>
      </trkpt>
      <trkpt lat="45.38317" lon="6.73779">
        <ele>1699.75</ele>
        <time>2019-09-10T06:59:37Z</time>
      </trkpt>
      <trkpt lat="45.38323" lon="6.73791">
        <ele>1702.15</ele>
        <time>2019-09-10T06:59:55Z</time>
      </trkpt>
      <trkpt lat="45.38334" lon="6.73806">
        <ele>1705.04</ele>
        <time>2019-09-10T07:00:13Z</time>
      </trkpt>
      <trkpt lat="45.38343" lon="6.73824">
        <ele>1706</ele>
        <time>2019-09-10T07:00:30Z</time>
      </trkpt>
      <trkpt lat="45.38348" lon="6.73839">
        <ele>1708.88</ele>
        <time>2019-09-10T07:00:45Z</time>
      </trkpt>
      <trkpt lat="45.38352" lon="6.73851">
        <ele>1711.28</ele>
        <time>2019-09-10T07:01:01Z</time>
      </trkpt>
      <trkpt lat="45.38357" lon="6.73859">
        <ele>1713.69</ele>
        <time>2019-09-10T07:01:15Z</time>
      </trkpt>
      <trkpt lat="45.38366" lon="6.73871">
        <ele>1716.57</ele>
        <time>2019-09-10T07:01:32Z</time>
      </trkpt>
      <trkpt lat="45.38372" lon="6.7388">
        <ele>1718.97</ele>
        <time>2019-09-10T07:01:47Z</time>
      </trkpt>
      <trkpt lat="45.38377" lon="6.7389">
        <ele>1719.94</ele>
        <time>2019-09-10T07:02:03Z</time>
      </trkpt>
      <trkpt lat="45.38379" lon="6.73891">
        <ele>1718.97</ele>
        <time>2019-09-10T07:02:06Z</time>
      </trkpt>
      <trkpt lat="45.38383" lon="6.73899">
        <ele>1721.86</ele>
        <time>2019-09-10T07:02:18Z</time>
      </trkpt>
      <trkpt lat="45.38387" lon="6.73911">
        <ele>1723.3</ele>
        <time>2019-09-10T07:02:33Z</time>
      </trkpt>
      <trkpt lat="45.38391" lon="6.73921">
        <ele>1724.74</ele>
        <time>2019-09-10T07:02:47Z</time>
      </trkpt>
      <trkpt lat="45.38394" lon="6.73933">
        <ele>1727.15</ele>
        <time>2019-09-10T07:03:04Z</time>
      </trkpt>
      <trkpt lat="45.38401" lon="6.73951">
        <ele>1730.03</ele>
        <time>2019-09-10T07:03:20Z</time>
      </trkpt>
      <trkpt lat="45.38405" lon="6.73964">
        <ele>1731.47</ele>
        <time>2019-09-10T07:03:37Z</time>
      </trkpt>
      <trkpt lat="45.38409" lon="6.73978">
        <ele>1733.39</ele>
        <time>2019-09-10T07:03:52Z</time>
      </trkpt>
      <trkpt lat="45.38416" lon="6.73989">
        <ele>1735.8</ele>
        <time>2019-09-10T07:04:08Z</time>
      </trkpt>
      <trkpt lat="45.38423" lon="6.74001">
        <ele>1737.72</ele>
        <time>2019-09-10T07:04:24Z</time>
      </trkpt>
      <trkpt lat="45.38428" lon="6.7401">
        <ele>1740.12</ele>
        <time>2019-09-10T07:04:40Z</time>
      </trkpt>
      <trkpt lat="45.38436" lon="6.7402">
        <ele>1743.49</ele>
        <time>2019-09-10T07:04:55Z</time>
      </trkpt>
      <trkpt lat="45.38444" lon="6.74032">
        <ele>1744.93</ele>
        <time>2019-09-10T07:05:11Z</time>
      </trkpt>
      <trkpt lat="45.38453" lon="6.74039">
        <ele>1746.37</ele>
        <time>2019-09-10T07:05:26Z</time>
      </trkpt>
      <trkpt lat="45.38461" lon="6.74041">
        <ele>1748.29</ele>
        <time>2019-09-10T07:05:42Z</time>
      </trkpt>
      <trkpt lat="45.38468" lon="6.74044">
        <ele>1751.18</ele>
        <time>2019-09-10T07:05:57Z</time>
      </trkpt>
      <trkpt lat="45.38478" lon="6.74046">
        <ele>1753.1</ele>
        <time>2019-09-10T07:06:14Z</time>
      </trkpt>
      <trkpt lat="45.38487" lon="6.74056">
        <ele>1755.5</ele>
        <time>2019-09-10T07:06:30Z</time>
      </trkpt>
      <trkpt lat="45.38489" lon="6.74061">
        <ele>1756.95</ele>
        <time>2019-09-10T07:06:39Z</time>
      </trkpt>
      <trkpt lat="45.38488" lon="6.74068">
        <ele>1758.39</ele>
        <time>2019-09-10T07:06:55Z</time>
      </trkpt>
      <trkpt lat="45.38489" lon="6.74082">
        <ele>1760.79</ele>
        <time>2019-09-10T07:07:11Z</time>
      </trkpt>
      <trkpt lat="45.38501" lon="6.74083">
        <ele>1762.71</ele>
        <time>2019-09-10T07:07:28Z</time>
      </trkpt>
      <trkpt lat="45.38509" lon="6.74091">
        <ele>1765.12</ele>
        <time>2019-09-10T07:07:45Z</time>
      </trkpt>
      <trkpt lat="45.38515" lon="6.74097">
        <ele>1767.04</ele>
        <time>2019-09-10T07:08:03Z</time>
      </trkpt>
      <trkpt lat="45.38518" lon="6.74104">
        <ele>1770.41</ele>
        <time>2019-09-10T07:08:20Z</time>
      </trkpt>
      <trkpt lat="45.38524" lon="6.7412">
        <ele>1771.37</ele>
        <time>2019-09-10T07:08:35Z</time>
      </trkpt>
      <trkpt lat="45.38535" lon="6.7413">
        <ele>1772.81</ele>
        <time>2019-09-10T07:08:52Z</time>
      </trkpt>
      <trkpt lat="45.38543" lon="6.74139">
        <ele>1772.81</ele>
        <time>2019-09-10T07:09:08Z</time>
      </trkpt>
      <trkpt lat="45.38548" lon="6.7415">
        <ele>1776.17</ele>
        <time>2019-09-10T07:09:20Z</time>
      </trkpt>
      <trkpt lat="45.38548" lon="6.74152">
        <ele>1777.13</ele>
        <time>2019-09-10T07:09:22Z</time>
      </trkpt>
      <trkpt lat="45.38547" lon="6.74167">
        <ele>1779.54</ele>
        <time>2019-09-10T07:09:38Z</time>
      </trkpt>
      <trkpt lat="45.38552" lon="6.74178">
        <ele>1780.5</ele>
        <time>2019-09-10T07:09:50Z</time>
      </trkpt>
      <trkpt lat="45.38558" lon="6.74194">
        <ele>1781.46</ele>
        <time>2019-09-10T07:10:06Z</time>
      </trkpt>
      <trkpt lat="45.38561" lon="6.74202">
        <ele>1783.38</ele>
        <time>2019-09-10T07:10:20Z</time>
      </trkpt>
      <trkpt lat="45.38567" lon="6.74213">
        <ele>1785.79</ele>
        <time>2019-09-10T07:10:39Z</time>
      </trkpt>
      <trkpt lat="45.38573" lon="6.74219">
        <ele>1786.75</ele>
        <time>2019-09-10T07:10:53Z</time>
      </trkpt>
      <trkpt lat="45.3858" lon="6.74228">
        <ele>1787.71</ele>
        <time>2019-09-10T07:11:07Z</time>
      </trkpt>
      <trkpt lat="45.38585" lon="6.74237">
        <ele>1789.15</ele>
        <time>2019-09-10T07:11:24Z</time>
      </trkpt>
      <trkpt lat="45.38588" lon="6.74249">
        <ele>1790.11</ele>
        <time>2019-09-10T07:11:42Z</time>
      </trkpt>
      <trkpt lat="45.38589" lon="6.74253">
        <ele>1788.67</ele>
        <time>2019-09-10T07:11:46Z</time>
      </trkpt>
      <trkpt lat="45.38592" lon="6.74258">
        <ele>1790.11</ele>
        <time>2019-09-10T07:11:50Z</time>
      </trkpt>
      <trkpt lat="45.38594" lon="6.74265">
        <ele>1792.03</ele>
        <time>2019-09-10T07:11:57Z</time>
      </trkpt>
      <trkpt lat="45.38594" lon="6.74279">
        <ele>1793.96</ele>
        <time>2019-09-10T07:12:12Z</time>
      </trkpt>
      <trkpt lat="45.38601" lon="6.7428">
        <ele>1794.92</ele>
        <time>2019-09-10T07:12:25Z</time>
      </trkpt>
      <trkpt lat="45.38607" lon="6.74269">
        <ele>1797.32</ele>
        <time>2019-09-10T07:12:41Z</time>
      </trkpt>
      <trkpt lat="45.38613" lon="6.7426">
        <ele>1798.28</ele>
        <time>2019-09-10T07:12:57Z</time>
      </trkpt>
      <trkpt lat="45.38622" lon="6.74259">
        <ele>1801.17</ele>
        <time>2019-09-10T07:13:13Z</time>
      </trkpt>
      <trkpt lat="45.38625" lon="6.74267">
        <ele>1802.61</ele>
        <time>2019-09-10T07:13:26Z</time>
      </trkpt>
      <trkpt lat="45.38628" lon="6.74277">
        <ele>1805.01</ele>
        <time>2019-09-10T07:13:41Z</time>
      </trkpt>
      <trkpt lat="45.38631" lon="6.74279">
        <ele>1805.97</ele>
        <time>2019-09-10T07:13:55Z</time>
      </trkpt>
      <trkpt lat="45.38635" lon="6.74274">
        <ele>1808.86</ele>
        <time>2019-09-10T07:14:10Z</time>
      </trkpt>
      <trkpt lat="45.3864" lon="6.74285">
        <ele>1811.26</ele>
        <time>2019-09-10T07:14:28Z</time>
      </trkpt>
      <trkpt lat="45.38651" lon="6.74289">
        <ele>1812.22</ele>
        <time>2019-09-10T07:14:45Z</time>
      </trkpt>
      <trkpt lat="45.38649" lon="6.74298">
        <ele>1814.63</ele>
        <time>2019-09-10T07:15:00Z</time>
      </trkpt>
      <trkpt lat="45.38652" lon="6.74311">
        <ele>1816.55</ele>
        <time>2019-09-10T07:15:15Z</time>
      </trkpt>
      <trkpt lat="45.38657" lon="6.74311">
        <ele>1817.51</ele>
        <time>2019-09-10T07:15:29Z</time>
      </trkpt>
      <trkpt lat="45.38661" lon="6.74308">
        <ele>1818.47</ele>
        <time>2019-09-10T07:15:44Z</time>
      </trkpt>
      <trkpt lat="45.38662" lon="6.74309">
        <ele>1819.43</ele>
        <time>2019-09-10T07:15:47Z</time>
      </trkpt>
      <trkpt lat="45.38662" lon="6.7432">
        <ele>1822.32</ele>
        <time>2019-09-10T07:16:04Z</time>
      </trkpt>
      <trkpt lat="45.38663" lon="6.74322">
        <ele>1821.35</ele>
        <time>2019-09-10T07:16:07Z</time>
      </trkpt>
      <trkpt lat="45.38663" lon="6.74329">
        <ele>1822.8</ele>
        <time>2019-09-10T07:16:17Z</time>
      </trkpt>
      <trkpt lat="45.38669" lon="6.74337">
        <ele>1824.72</ele>
        <time>2019-09-10T07:16:33Z</time>
      </trkpt>
      <trkpt lat="45.38674" lon="6.7435">
        <ele>1827.12</ele>
        <time>2019-09-10T07:16:49Z</time>
      </trkpt>
      <trkpt lat="45.38681" lon="6.74358">
        <ele>1830.49</ele>
        <time>2019-09-10T07:17:06Z</time>
      </trkpt>
      <trkpt lat="45.38682" lon="6.74372">
        <ele>1832.41</ele>
        <time>2019-09-10T07:17:24Z</time>
      </trkpt>
      <trkpt lat="45.38682" lon="6.74386">
        <ele>1834.33</ele>
        <time>2019-09-10T07:17:42Z</time>
      </trkpt>
      <trkpt lat="45.38684" lon="6.74395">
        <ele>1836.74</ele>
        <time>2019-09-10T07:17:55Z</time>
      </trkpt>
      <trkpt lat="45.38684" lon="6.74408">
        <ele>1839.14</ele>
        <time>2019-09-10T07:18:11Z</time>
      </trkpt>
      <trkpt lat="45.38685" lon="6.74423">
        <ele>1841.54</ele>
        <time>2019-09-10T07:18:27Z</time>
      </trkpt>
      <trkpt lat="45.38687" lon="6.74436">
        <ele>1842.98</ele>
        <time>2019-09-10T07:18:42Z</time>
      </trkpt>
      <trkpt lat="45.38688" lon="6.74455">
        <ele>1844.91</ele>
        <time>2019-09-10T07:19:00Z</time>
      </trkpt>
      <trkpt lat="45.3869" lon="6.7447">
        <ele>1848.75</ele>
        <time>2019-09-10T07:19:16Z</time>
      </trkpt>
      <trkpt lat="45.38691" lon="6.74484">
        <ele>1848.27</ele>
        <time>2019-09-10T07:19:29Z</time>
      </trkpt>
      <trkpt lat="45.38691" lon="6.74492">
        <ele>1848.75</ele>
        <time>2019-09-10T07:19:37Z</time>
      </trkpt>
      <trkpt lat="45.38694" lon="6.74507">
        <ele>1850.68</ele>
        <time>2019-09-10T07:19:53Z</time>
      </trkpt>
      <trkpt lat="45.38693" lon="6.74514">
        <ele>1851.64</ele>
        <time>2019-09-10T07:20:01Z</time>
      </trkpt>
      <trkpt lat="45.38693" lon="6.74528">
        <ele>1853.56</ele>
        <time>2019-09-10T07:20:17Z</time>
      </trkpt>
      <trkpt lat="45.38692" lon="6.74542">
        <ele>1855.96</ele>
        <time>2019-09-10T07:20:34Z</time>
      </trkpt>
      <trkpt lat="45.38693" lon="6.74557">
        <ele>1858.37</ele>
        <time>2019-09-10T07:20:53Z</time>
      </trkpt>
      <trkpt lat="45.38697" lon="6.74566">
        <ele>1861.73</ele>
        <time>2019-09-10T07:21:07Z</time>
      </trkpt>
      <trkpt lat="45.38696" lon="6.74575">
        <ele>1863.17</ele>
        <time>2019-09-10T07:21:24Z</time>
      </trkpt>
      <trkpt lat="45.38695" lon="6.74584">
        <ele>1866.06</ele>
        <time>2019-09-10T07:21:40Z</time>
      </trkpt>
      <trkpt lat="45.38694" lon="6.74594">
        <ele>1868.94</ele>
        <time>2019-09-10T07:21:57Z</time>
      </trkpt>
      <trkpt lat="45.38693" lon="6.74603">
        <ele>1870.38</ele>
        <time>2019-09-10T07:22:12Z</time>
      </trkpt>
      <trkpt lat="45.38691" lon="6.74615">
        <ele>1872.79</ele>
        <time>2019-09-10T07:22:29Z</time>
      </trkpt>
      <trkpt lat="45.3869" lon="6.74631">
        <ele>1875.67</ele>
        <time>2019-09-10T07:22:50Z</time>
      </trkpt>
      <trkpt lat="45.38689" lon="6.74643">
        <ele>1878.55</ele>
        <time>2019-09-10T07:23:10Z</time>
      </trkpt>
      <trkpt lat="45.38688" lon="6.74656">
        <ele>1880.48</ele>
        <time>2019-09-10T07:23:27Z</time>
      </trkpt>
      <trkpt lat="45.38687" lon="6.74666">
        <ele>1882.88</ele>
        <time>2019-09-10T07:23:44Z</time>
      </trkpt>
      <trkpt lat="45.38686" lon="6.74678">
        <ele>1885.28</ele>
        <time>2019-09-10T07:24:00Z</time>
      </trkpt>
      <trkpt lat="45.38686" lon="6.74691">
        <ele>1886.72</ele>
        <time>2019-09-10T07:24:16Z</time>
      </trkpt>
      <trkpt lat="45.38688" lon="6.74703">
        <ele>1888.65</ele>
        <time>2019-09-10T07:24:34Z</time>
      </trkpt>
      <trkpt lat="45.38691" lon="6.74714">
        <ele>1891.05</ele>
        <time>2019-09-10T07:24:51Z</time>
      </trkpt>
      <trkpt lat="45.38695" lon="6.74724">
        <ele>1892.97</ele>
        <time>2019-09-10T07:25:07Z</time>
      </trkpt>
      <trkpt lat="45.38702" lon="6.74736">
        <ele>1895.38</ele>
        <time>2019-09-10T07:25:26Z</time>
      </trkpt>
      <trkpt lat="45.38708" lon="6.74745">
        <ele>1898.74</ele>
        <time>2019-09-10T07:25:42Z</time>
      </trkpt>
      <trkpt lat="45.38714" lon="6.74753">
        <ele>1900.18</ele>
        <time>2019-09-10T07:25:57Z</time>
      </trkpt>
      <trkpt lat="45.38721" lon="6.74759">
        <ele>1903.07</ele>
        <time>2019-09-10T07:26:14Z</time>
      </trkpt>
      <trkpt lat="45.38724" lon="6.74765">
        <ele>1905.47</ele>
        <time>2019-09-10T07:26:26Z</time>
      </trkpt>
      <trkpt lat="45.38728" lon="6.7477">
        <ele>1906.91</ele>
        <time>2019-09-10T07:26:41Z</time>
      </trkpt>
      <trkpt lat="45.38728" lon="6.74772">
        <ele>1905.47</ele>
        <time>2019-09-10T07:26:43Z</time>
      </trkpt>
      <trkpt lat="45.38729" lon="6.74773">
        <ele>1906.91</ele>
        <time>2019-09-10T07:26:46Z</time>
      </trkpt>
      <trkpt lat="45.38731" lon="6.7478">
        <ele>1909.8</ele>
        <time>2019-09-10T07:27:01Z</time>
      </trkpt>
      <trkpt lat="45.38735" lon="6.74786">
        <ele>1911.72</ele>
        <time>2019-09-10T07:27:18Z</time>
      </trkpt>
      <trkpt lat="45.38739" lon="6.74795">
        <ele>1913.64</ele>
        <time>2019-09-10T07:27:36Z</time>
      </trkpt>
      <trkpt lat="45.3874" lon="6.74798">
        <ele>1913.16</ele>
        <time>2019-09-10T07:27:43Z</time>
      </trkpt>
      <trkpt lat="45.38741" lon="6.74799">
        <ele>1915.08</ele>
        <time>2019-09-10T07:27:46Z</time>
      </trkpt>
      <trkpt lat="45.38744" lon="6.74808">
        <ele>1917.01</ele>
        <time>2019-09-10T07:28:02Z</time>
      </trkpt>
      <trkpt lat="45.38746" lon="6.74816">
        <ele>1919.41</ele>
        <time>2019-09-10T07:28:17Z</time>
      </trkpt>
      <trkpt lat="45.3875" lon="6.74824">
        <ele>1921.33</ele>
        <time>2019-09-10T07:28:34Z</time>
      </trkpt>
      <trkpt lat="45.38755" lon="6.74833">
        <ele>1923.74</ele>
        <time>2019-09-10T07:28:51Z</time>
      </trkpt>
      <trkpt lat="45.38758" lon="6.74837">
        <ele>1924.7</ele>
        <time>2019-09-10T07:29:04Z</time>
      </trkpt>
      <trkpt lat="45.38763" lon="6.74848">
        <ele>1928.06</ele>
        <time>2019-09-10T07:29:20Z</time>
      </trkpt>
      <trkpt lat="45.38768" lon="6.74859">
        <ele>1929.98</ele>
        <time>2019-09-10T07:29:36Z</time>
      </trkpt>
      <trkpt lat="45.38772" lon="6.74867">
        <ele>1931.91</ele>
        <time>2019-09-10T07:29:52Z</time>
      </trkpt>
      <trkpt lat="45.38776" lon="6.74876">
        <ele>1933.35</ele>
        <time>2019-09-10T07:30:07Z</time>
      </trkpt>
      <trkpt lat="45.38782" lon="6.74885">
        <ele>1934.31</ele>
        <time>2019-09-10T07:30:23Z</time>
      </trkpt>
      <trkpt lat="45.38783" lon="6.74888">
        <ele>1932.87</ele>
        <time>2019-09-10T07:30:27Z</time>
      </trkpt>
      <trkpt lat="45.38784" lon="6.7489">
        <ele>1934.79</ele>
        <time>2019-09-10T07:30:30Z</time>
      </trkpt>
      <trkpt lat="45.3879" lon="6.74901">
        <ele>1938.16</ele>
        <time>2019-09-10T07:30:49Z</time>
      </trkpt>
      <trkpt lat="45.38791" lon="6.74906">
        <ele>1939.6</ele>
        <time>2019-09-10T07:30:55Z</time>
      </trkpt>
      <trkpt lat="45.38796" lon="6.74915">
        <ele>1941.52</ele>
        <time>2019-09-10T07:31:11Z</time>
      </trkpt>
      <trkpt lat="45.388" lon="6.74926">
        <ele>1943.44</ele>
        <time>2019-09-10T07:31:28Z</time>
      </trkpt>
      <trkpt lat="45.38805" lon="6.74938">
        <ele>1946.81</ele>
        <time>2019-09-10T07:31:46Z</time>
      </trkpt>
      <trkpt lat="45.38809" lon="6.74949">
        <ele>1948.25</ele>
        <time>2019-09-10T07:32:06Z</time>
      </trkpt>
      <trkpt lat="45.38815" lon="6.74962">
        <ele>1950.17</ele>
        <time>2019-09-10T07:32:24Z</time>
      </trkpt>
      <trkpt lat="45.3882" lon="6.74973">
        <ele>1953.06</ele>
        <time>2019-09-10T07:32:41Z</time>
      </trkpt>
      <trkpt lat="45.38825" lon="6.74982">
        <ele>1954.5</ele>
        <time>2019-09-10T07:32:58Z</time>
      </trkpt>
      <trkpt lat="45.38834" lon="6.74991">
        <ele>1955.94</ele>
        <time>2019-09-10T07:33:14Z</time>
      </trkpt>
      <trkpt lat="45.38843" lon="6.74998">
        <ele>1957.86</ele>
        <time>2019-09-10T07:33:32Z</time>
      </trkpt>
      <trkpt lat="45.38852" lon="6.75006">
        <ele>1960.75</ele>
        <time>2019-09-10T07:33:51Z</time>
      </trkpt>
      <trkpt lat="45.3886" lon="6.75014">
        <ele>1962.67</ele>
        <time>2019-09-10T07:34:08Z</time>
      </trkpt>
      <trkpt lat="45.38867" lon="6.75023">
        <ele>1964.59</ele>
        <time>2019-09-10T07:34:26Z</time>
      </trkpt>
      <trkpt lat="45.38874" lon="6.75033">
        <ele>1966.51</ele>
        <time>2019-09-10T07:34:43Z</time>
      </trkpt>
      <trkpt lat="45.38878" lon="6.75045">
        <ele>1968.44</ele>
        <time>2019-09-10T07:35:01Z</time>
      </trkpt>
      <trkpt lat="45.38883" lon="6.75052">
        <ele>1971.32</ele>
        <time>2019-09-10T07:35:19Z</time>
      </trkpt>
      <trkpt lat="45.38887" lon="6.75057">
        <ele>1973.24</ele>
        <time>2019-09-10T07:35:33Z</time>
      </trkpt>
      <trkpt lat="45.38894" lon="6.75065">
        <ele>1974.69</ele>
        <time>2019-09-10T07:35:49Z</time>
      </trkpt>
      <trkpt lat="45.38896" lon="6.75074">
        <ele>1977.57</ele>
        <time>2019-09-10T07:36:04Z</time>
      </trkpt>
      <trkpt lat="45.38896" lon="6.75074">
        <ele>1977.57</ele>
        <time>2019-09-10T07:36:05Z</time>
      </trkpt>
      <trkpt lat="45.38896" lon="6.75072">
        <ele>1977.57</ele>
        <time>2019-09-10T07:36:27Z</time>
      </trkpt>
      <trkpt lat="45.38895" lon="6.75077">
        <ele>1977.57</ele>
        <time>2019-09-10T07:36:46Z</time>
      </trkpt>
      <trkpt lat="45.38893" lon="6.75079">
        <ele>1976.13</ele>
        <time>2019-09-10T07:36:58Z</time>
      </trkpt>
      <trkpt lat="45.38892" lon="6.7508">
        <ele>1977.57</ele>
        <time>2019-09-10T07:37:07Z</time>
      </trkpt>
      <trkpt lat="45.38894" lon="6.75078">
        <ele>1975.65</ele>
        <time>2019-09-10T07:37:24Z</time>
      </trkpt>
      <trkpt lat="45.38893" lon="6.75079">
        <ele>1975.17</ele>
        <time>2019-09-10T07:37:29Z</time>
      </trkpt>
      <trkpt lat="45.38894" lon="6.75078">
        <ele>1978.05</ele>
        <time>2019-09-10T07:37:40Z</time>
      </trkpt>
      <trkpt lat="45.38894" lon="6.7508">
        <ele>1979.01</ele>
        <time>2019-09-10T07:37:42Z</time>
      </trkpt>
      <trkpt lat="45.38893" lon="6.75086">
        <ele>1979.01</ele>
        <time>2019-09-10T07:37:47Z</time>
      </trkpt>
      <trkpt lat="45.38892" lon="6.75108">
        <ele>1979.49</ele>
        <time>2019-09-10T07:38:06Z</time>
      </trkpt>
      <trkpt lat="45.38896" lon="6.75122">
        <ele>1980.93</ele>
        <time>2019-09-10T07:38:20Z</time>
      </trkpt>
      <trkpt lat="45.389" lon="6.75139">
        <ele>1982.86</ele>
        <time>2019-09-10T07:38:36Z</time>
      </trkpt>
      <trkpt lat="45.38907" lon="6.75152">
        <ele>1985.26</ele>
        <time>2019-09-10T07:38:53Z</time>
      </trkpt>
      <trkpt lat="45.38913" lon="6.75165">
        <ele>1985.74</ele>
        <time>2019-09-10T07:39:07Z</time>
      </trkpt>
      <trkpt lat="45.3892" lon="6.7518">
        <ele>1988.62</ele>
        <time>2019-09-10T07:39:23Z</time>
      </trkpt>
      <trkpt lat="45.38924" lon="6.75188">
        <ele>1988.14</ele>
        <time>2019-09-10T07:39:33Z</time>
      </trkpt>
      <trkpt lat="45.38928" lon="6.75195">
        <ele>1988.62</ele>
        <time>2019-09-10T07:39:43Z</time>
      </trkpt>
      <trkpt lat="45.38933" lon="6.75205">
        <ele>1991.51</ele>
        <time>2019-09-10T07:40:00Z</time>
      </trkpt>
      <trkpt lat="45.38939" lon="6.75219">
        <ele>1992.47</ele>
        <time>2019-09-10T07:40:15Z</time>
      </trkpt>
      <trkpt lat="45.3894" lon="6.75221">
        <ele>1993.91</ele>
        <time>2019-09-10T07:40:17Z</time>
      </trkpt>
      <trkpt lat="45.38944" lon="6.75235">
        <ele>1995.83</ele>
        <time>2019-09-10T07:40:33Z</time>
      </trkpt>
      <trkpt lat="45.38949" lon="6.75245">
        <ele>1997.28</ele>
        <time>2019-09-10T07:40:47Z</time>
      </trkpt>
      <trkpt lat="45.38954" lon="6.75255">
        <ele>1997.28</ele>
        <time>2019-09-10T07:41:00Z</time>
      </trkpt>
      <trkpt lat="45.38955" lon="6.75256">
        <ele>1997.28</ele>
        <time>2019-09-10T07:41:01Z</time>
      </trkpt>
      <trkpt lat="45.38956" lon="6.75259">
        <ele>1998.72</ele>
        <time>2019-09-10T07:41:04Z</time>
      </trkpt>
      <trkpt lat="45.38961" lon="6.75267">
        <ele>2000.64</ele>
        <time>2019-09-10T07:41:14Z</time>
      </trkpt>
      <trkpt lat="45.38964" lon="6.75272">
        <ele>2000.16</ele>
        <time>2019-09-10T07:41:20Z</time>
      </trkpt>
      <trkpt lat="45.38968" lon="6.75284">
        <ele>2000.16</ele>
        <time>2019-09-10T07:41:31Z</time>
      </trkpt>
      <trkpt lat="45.38971" lon="6.7529">
        <ele>2001.12</ele>
        <time>2019-09-10T07:41:39Z</time>
      </trkpt>
      <trkpt lat="45.38977" lon="6.753">
        <ele>2002.08</ele>
        <time>2019-09-10T07:41:54Z</time>
      </trkpt>
      <trkpt lat="45.38979" lon="6.753">
        <ele>2002.08</ele>
        <time>2019-09-10T07:42:06Z</time>
      </trkpt>
      <trkpt lat="45.38978" lon="6.75297">
        <ele>2002.56</ele>
        <time>2019-09-10T07:42:28Z</time>
      </trkpt>
      <trkpt lat="45.38976" lon="6.75294">
        <ele>2002.56</ele>
        <time>2019-09-10T07:42:56Z</time>
      </trkpt>
      <trkpt lat="45.38975" lon="6.75298">
        <ele>2002.56</ele>
        <time>2019-09-10T07:43:26Z</time>
      </trkpt>
      <trkpt lat="45.38978" lon="6.75296">
        <ele>2002.56</ele>
        <time>2019-09-10T07:43:54Z</time>
      </trkpt>
      <trkpt lat="45.38973" lon="6.75296">
        <ele>2002.08</ele>
        <time>2019-09-10T07:44:25Z</time>
      </trkpt>
      <trkpt lat="45.38974" lon="6.75295">
        <ele>2002.08</ele>
        <time>2019-09-10T07:44:56Z</time>
      </trkpt>
      <trkpt lat="45.38972" lon="6.75298">
        <ele>2002.56</ele>
        <time>2019-09-10T07:45:32Z</time>
      </trkpt>
      <trkpt lat="45.38973" lon="6.75298">
        <ele>2002.56</ele>
        <time>2019-09-10T07:46:08Z</time>
      </trkpt>
      <trkpt lat="45.38972" lon="6.753">
        <ele>2003.04</ele>
        <time>2019-09-10T07:46:29Z</time>
      </trkpt>
      <trkpt lat="45.38974" lon="6.75301">
        <ele>2003.04</ele>
        <time>2019-09-10T07:47:00Z</time>
      </trkpt>
      <trkpt lat="45.38974" lon="6.75298">
        <ele>2003.04</ele>
        <time>2019-09-10T07:47:23Z</time>
      </trkpt>
      <trkpt lat="45.38975" lon="6.75299">
        <ele>2003.04</ele>
        <time>2019-09-10T07:47:43Z</time>
      </trkpt>
      <trkpt lat="45.38974" lon="6.75298">
        <ele>2003.04</ele>
        <time>2019-09-10T07:48:11Z</time>
      </trkpt>
      <trkpt lat="45.38976" lon="6.75298">
        <ele>2004.01</ele>
        <time>2019-09-10T07:48:25Z</time>
      </trkpt>
      <trkpt lat="45.38976" lon="6.75307">
        <ele>2004.01</ele>
        <time>2019-09-10T07:48:42Z</time>
      </trkpt>
      <trkpt lat="45.38976" lon="6.75309">
        <ele>2004.01</ele>
        <time>2019-09-10T07:48:43Z</time>
      </trkpt>
      <trkpt lat="45.38978" lon="6.75325">
        <ele>2002.56</ele>
        <time>2019-09-10T07:48:55Z</time>
      </trkpt>
      <trkpt lat="45.38984" lon="6.7535">
        <ele>2003.52</ele>
        <time>2019-09-10T07:49:11Z</time>
      </trkpt>
      <trkpt lat="45.38984" lon="6.7536">
        <ele>2002.08</ele>
        <time>2019-09-10T07:49:19Z</time>
      </trkpt>
      <trkpt lat="45.38986" lon="6.75367">
        <ele>2001.6</ele>
        <time>2019-09-10T07:49:23Z</time>
      </trkpt>
      <trkpt lat="45.38983" lon="6.75378">
        <ele>2003.04</ele>
        <time>2019-09-10T07:49:30Z</time>
      </trkpt>
      <trkpt lat="45.3897" lon="6.75373">
        <ele>2003.52</ele>
        <time>2019-09-10T07:49:44Z</time>
      </trkpt>
      <trkpt lat="45.38968" lon="6.7537">
        <ele>2004.01</ele>
        <time>2019-09-10T07:49:59Z</time>
      </trkpt>
      <trkpt lat="45.38966" lon="6.7537">
        <ele>2004.49</ele>
        <time>2019-09-10T07:50:02Z</time>
      </trkpt>
      <trkpt lat="45.38953" lon="6.75373">
        <ele>2006.89</ele>
        <time>2019-09-10T07:50:15Z</time>
      </trkpt>
      <trkpt lat="45.3895" lon="6.75375">
        <ele>2006.41</ele>
        <time>2019-09-10T07:50:18Z</time>
      </trkpt>
      <trkpt lat="45.38951" lon="6.75393">
        <ele>2006.41</ele>
        <time>2019-09-10T07:50:33Z</time>
      </trkpt>
      <trkpt lat="45.38956" lon="6.7541">
        <ele>2007.37</ele>
        <time>2019-09-10T07:50:50Z</time>
      </trkpt>
      <trkpt lat="45.38964" lon="6.75424">
        <ele>2009.77</ele>
        <time>2019-09-10T07:51:08Z</time>
      </trkpt>
      <trkpt lat="45.38971" lon="6.75429">
        <ele>2011.22</ele>
        <time>2019-09-10T07:51:22Z</time>
      </trkpt>
      <trkpt lat="45.38979" lon="6.75443">
        <ele>2013.62</ele>
        <time>2019-09-10T07:51:40Z</time>
      </trkpt>
      <trkpt lat="45.38984" lon="6.75454">
        <ele>2014.58</ele>
        <time>2019-09-10T07:51:54Z</time>
      </trkpt>
      <trkpt lat="45.38987" lon="6.75465">
        <ele>2016.02</ele>
        <time>2019-09-10T07:52:11Z</time>
      </trkpt>
      <trkpt lat="45.38988" lon="6.75467">
        <ele>2016.98</ele>
        <time>2019-09-10T07:52:27Z</time>
      </trkpt>
      <trkpt lat="45.38984" lon="6.75465">
        <ele>2016.98</ele>
        <time>2019-09-10T07:52:45Z</time>
      </trkpt>
      <trkpt lat="45.38986" lon="6.75468">
        <ele>2016.02</ele>
        <time>2019-09-10T07:52:58Z</time>
      </trkpt>
      <trkpt lat="45.38993" lon="6.75486">
        <ele>2016.5</ele>
        <time>2019-09-10T07:53:11Z</time>
      </trkpt>
      <trkpt lat="45.38996" lon="6.75498">
        <ele>2016.5</ele>
        <time>2019-09-10T07:53:25Z</time>
      </trkpt>
      <trkpt lat="45.39" lon="6.75513">
        <ele>2016.98</ele>
        <time>2019-09-10T07:53:37Z</time>
      </trkpt>
      <trkpt lat="45.39009" lon="6.75529">
        <ele>2015.54</ele>
        <time>2019-09-10T07:53:51Z</time>
      </trkpt>
      <trkpt lat="45.39013" lon="6.75535">
        <ele>2016.98</ele>
        <time>2019-09-10T07:53:57Z</time>
      </trkpt>
      <trkpt lat="45.39023" lon="6.75548">
        <ele>2016.02</ele>
        <time>2019-09-10T07:54:12Z</time>
      </trkpt>
      <trkpt lat="45.39025" lon="6.7555">
        <ele>2017.46</ele>
        <time>2019-09-10T07:54:15Z</time>
      </trkpt>
      <trkpt lat="45.39035" lon="6.75567">
        <ele>2018.43</ele>
        <time>2019-09-10T07:54:32Z</time>
      </trkpt>
      <trkpt lat="45.39043" lon="6.75583">
        <ele>2019.39</ele>
        <time>2019-09-10T07:54:48Z</time>
      </trkpt>
      <trkpt lat="45.39052" lon="6.75599">
        <ele>2020.83</ele>
        <time>2019-09-10T07:55:03Z</time>
      </trkpt>
      <trkpt lat="45.39058" lon="6.75606">
        <ele>2019.39</ele>
        <time>2019-09-10T07:55:10Z</time>
      </trkpt>
      <trkpt lat="45.39061" lon="6.75611">
        <ele>2020.35</ele>
        <time>2019-09-10T07:55:16Z</time>
      </trkpt>
      <trkpt lat="45.39063" lon="6.75614">
        <ele>2019.39</ele>
        <time>2019-09-10T07:55:24Z</time>
      </trkpt>
      <trkpt lat="45.39063" lon="6.75614">
        <ele>2018.43</ele>
        <time>2019-09-10T07:55:28Z</time>
      </trkpt>
      <trkpt lat="45.39071" lon="6.75624">
        <ele>2018.43</ele>
        <time>2019-09-10T07:55:43Z</time>
      </trkpt>
      <trkpt lat="45.39082" lon="6.75639">
        <ele>2019.39</ele>
        <time>2019-09-10T07:55:59Z</time>
      </trkpt>
      <trkpt lat="45.39083" lon="6.7564">
        <ele>2019.39</ele>
        <time>2019-09-10T07:56:00Z</time>
      </trkpt>
      <trkpt lat="45.39092" lon="6.75656">
        <ele>2020.83</ele>
        <time>2019-09-10T07:56:15Z</time>
      </trkpt>
      <trkpt lat="45.39097" lon="6.75664">
        <ele>2021.31</ele>
        <time>2019-09-10T07:56:27Z</time>
      </trkpt>
      <trkpt lat="45.39102" lon="6.75678">
        <ele>2023.71</ele>
        <time>2019-09-10T07:56:43Z</time>
      </trkpt>
      <trkpt lat="45.39107" lon="6.75693">
        <ele>2024.19</ele>
        <time>2019-09-10T07:56:58Z</time>
      </trkpt>
      <trkpt lat="45.39114" lon="6.75708">
        <ele>2025.15</ele>
        <time>2019-09-10T07:57:15Z</time>
      </trkpt>
      <trkpt lat="45.39124" lon="6.75718">
        <ele>2027.08</ele>
        <time>2019-09-10T07:57:31Z</time>
      </trkpt>
      <trkpt lat="45.39133" lon="6.75734">
        <ele>2028.52</ele>
        <time>2019-09-10T07:57:46Z</time>
      </trkpt>
      <trkpt lat="45.39139" lon="6.75746">
        <ele>2029.48</ele>
        <time>2019-09-10T07:58:00Z</time>
      </trkpt>
      <trkpt lat="45.39148" lon="6.75761">
        <ele>2031.4</ele>
        <time>2019-09-10T07:58:15Z</time>
      </trkpt>
      <trkpt lat="45.39155" lon="6.75774">
        <ele>2034.77</ele>
        <time>2019-09-10T07:58:32Z</time>
      </trkpt>
      <trkpt lat="45.39155" lon="6.75776">
        <ele>2034.77</ele>
        <time>2019-09-10T07:58:33Z</time>
      </trkpt>
      <trkpt lat="45.39156" lon="6.75789">
        <ele>2036.69</ele>
        <time>2019-09-10T07:58:48Z</time>
      </trkpt>
      <trkpt lat="45.39159" lon="6.75808">
        <ele>2037.17</ele>
        <time>2019-09-10T07:59:04Z</time>
      </trkpt>
      <trkpt lat="45.39161" lon="6.75811">
        <ele>2035.73</ele>
        <time>2019-09-10T07:59:07Z</time>
      </trkpt>
      <trkpt lat="45.39163" lon="6.75817">
        <ele>2035.73</ele>
        <time>2019-09-10T07:59:12Z</time>
      </trkpt>
      <trkpt lat="45.39171" lon="6.7584">
        <ele>2035.73</ele>
        <time>2019-09-10T07:59:29Z</time>
      </trkpt>
      <trkpt lat="45.39178" lon="6.75862">
        <ele>2035.73</ele>
        <time>2019-09-10T07:59:46Z</time>
      </trkpt>
      <trkpt lat="45.39181" lon="6.75869">
        <ele>2035.25</ele>
        <time>2019-09-10T07:59:52Z</time>
      </trkpt>
      <trkpt lat="45.39193" lon="6.75887">
        <ele>2037.17</ele>
        <time>2019-09-10T08:00:11Z</time>
      </trkpt>
      <trkpt lat="45.39194" lon="6.75891">
        <ele>2036.69</ele>
        <time>2019-09-10T08:00:15Z</time>
      </trkpt>
      <trkpt lat="45.39197" lon="6.75911">
        <ele>2037.17</ele>
        <time>2019-09-10T08:00:32Z</time>
      </trkpt>
      <trkpt lat="45.39202" lon="6.75925">
        <ele>2038.13</ele>
        <time>2019-09-10T08:00:46Z</time>
      </trkpt>
      <trkpt lat="45.39208" lon="6.75942">
        <ele>2039.57</ele>
        <time>2019-09-10T08:01:00Z</time>
      </trkpt>
      <trkpt lat="45.39216" lon="6.75964">
        <ele>2040.05</ele>
        <time>2019-09-10T08:01:18Z</time>
      </trkpt>
      <trkpt lat="45.39221" lon="6.75984">
        <ele>2040.54</ele>
        <time>2019-09-10T08:01:35Z</time>
      </trkpt>
      <trkpt lat="45.39224" lon="6.76002">
        <ele>2041.02</ele>
        <time>2019-09-10T08:01:50Z</time>
      </trkpt>
      <trkpt lat="45.39229" lon="6.76018">
        <ele>2041.98</ele>
        <time>2019-09-10T08:02:05Z</time>
      </trkpt>
      <trkpt lat="45.39235" lon="6.76037">
        <ele>2043.42</ele>
        <time>2019-09-10T08:02:22Z</time>
      </trkpt>
      <trkpt lat="45.39241" lon="6.76051">
        <ele>2043.9</ele>
        <time>2019-09-10T08:02:36Z</time>
      </trkpt>
      <trkpt lat="45.39249" lon="6.76063">
        <ele>2046.3</ele>
        <time>2019-09-10T08:02:52Z</time>
      </trkpt>
      <trkpt lat="45.39254" lon="6.76073">
        <ele>2047.75</ele>
        <time>2019-09-10T08:03:06Z</time>
      </trkpt>
      <trkpt lat="45.3926" lon="6.76082">
        <ele>2049.19</ele>
        <time>2019-09-10T08:03:19Z</time>
      </trkpt>
      <trkpt lat="45.39267" lon="6.76092">
        <ele>2050.15</ele>
        <time>2019-09-10T08:03:33Z</time>
      </trkpt>
      <trkpt lat="45.39277" lon="6.76103">
        <ele>2051.59</ele>
        <time>2019-09-10T08:03:49Z</time>
      </trkpt>
      <trkpt lat="45.39284" lon="6.76113">
        <ele>2053.51</ele>
        <time>2019-09-10T08:04:05Z</time>
      </trkpt>
      <trkpt lat="45.39293" lon="6.76124">
        <ele>2054.96</ele>
        <time>2019-09-10T08:04:20Z</time>
      </trkpt>
      <trkpt lat="45.39303" lon="6.76135">
        <ele>2055.92</ele>
        <time>2019-09-10T08:04:36Z</time>
      </trkpt>
      <trkpt lat="45.39312" lon="6.76142">
        <ele>2057.36</ele>
        <time>2019-09-10T08:04:51Z</time>
      </trkpt>
      <trkpt lat="45.3932" lon="6.76154">
        <ele>2059.28</ele>
        <time>2019-09-10T08:05:07Z</time>
      </trkpt>
      <trkpt lat="45.39326" lon="6.76159">
        <ele>2060.72</ele>
        <time>2019-09-10T08:05:21Z</time>
      </trkpt>
      <trkpt lat="45.39333" lon="6.76172">
        <ele>2062.65</ele>
        <time>2019-09-10T08:05:38Z</time>
      </trkpt>
      <trkpt lat="45.39341" lon="6.76178">
        <ele>2064.57</ele>
        <time>2019-09-10T08:05:52Z</time>
      </trkpt>
      <trkpt lat="45.3935" lon="6.76188">
        <ele>2066.97</ele>
        <time>2019-09-10T08:06:09Z</time>
      </trkpt>
      <trkpt lat="45.39359" lon="6.76198">
        <ele>2067.93</ele>
        <time>2019-09-10T08:06:25Z</time>
      </trkpt>
      <trkpt lat="45.39367" lon="6.76206">
        <ele>2068.89</ele>
        <time>2019-09-10T08:06:39Z</time>
      </trkpt>
      <trkpt lat="45.39376" lon="6.76215">
        <ele>2071.78</ele>
        <time>2019-09-10T08:06:55Z</time>
      </trkpt>
      <trkpt lat="45.39383" lon="6.76218">
        <ele>2073.7</ele>
        <time>2019-09-10T08:07:10Z</time>
      </trkpt>
      <trkpt lat="45.39391" lon="6.76222">
        <ele>2075.14</ele>
        <time>2019-09-10T08:07:23Z</time>
      </trkpt>
      <trkpt lat="45.39398" lon="6.76225">
        <ele>2077.07</ele>
        <time>2019-09-10T08:07:36Z</time>
      </trkpt>
      <trkpt lat="45.39406" lon="6.7623">
        <ele>2078.03</ele>
        <time>2019-09-10T08:07:49Z</time>
      </trkpt>
      <trkpt lat="45.39411" lon="6.76239">
        <ele>2079.47</ele>
        <time>2019-09-10T08:08:03Z</time>
      </trkpt>
      <trkpt lat="45.39402" lon="6.76246">
        <ele>2081.87</ele>
        <time>2019-09-10T08:08:19Z</time>
      </trkpt>
      <trkpt lat="45.39399" lon="6.76252">
        <ele>2082.35</ele>
        <time>2019-09-10T08:08:29Z</time>
      </trkpt>
      <trkpt lat="45.39394" lon="6.76265">
        <ele>2082.83</ele>
        <time>2019-09-10T08:08:44Z</time>
      </trkpt>
      <trkpt lat="45.39401" lon="6.76267">
        <ele>2084.28</ele>
        <time>2019-09-10T08:08:58Z</time>
      </trkpt>
      <trkpt lat="45.39408" lon="6.76276">
        <ele>2086.2</ele>
        <time>2019-09-10T08:09:12Z</time>
      </trkpt>
      <trkpt lat="45.39415" lon="6.7628">
        <ele>2087.64</ele>
        <time>2019-09-10T08:09:26Z</time>
      </trkpt>
      <trkpt lat="45.39416" lon="6.7628">
        <ele>2087.64</ele>
        <time>2019-09-10T08:09:27Z</time>
      </trkpt>
      <trkpt lat="45.39421" lon="6.76293">
        <ele>2088.6</ele>
        <time>2019-09-10T08:09:40Z</time>
      </trkpt>
      <trkpt lat="45.39425" lon="6.76305">
        <ele>2090.04</ele>
        <time>2019-09-10T08:09:55Z</time>
      </trkpt>
      <trkpt lat="45.39424" lon="6.76312">
        <ele>2092.45</ele>
        <time>2019-09-10T08:10:05Z</time>
      </trkpt>
      <trkpt lat="45.39417" lon="6.76316">
        <ele>2093.89</ele>
        <time>2019-09-10T08:10:19Z</time>
      </trkpt>
      <trkpt lat="45.39411" lon="6.76318">
        <ele>2095.33</ele>
        <time>2019-09-10T08:10:32Z</time>
      </trkpt>
      <trkpt lat="45.39403" lon="6.76322">
        <ele>2096.29</ele>
        <time>2019-09-10T08:10:47Z</time>
      </trkpt>
      <trkpt lat="45.39399" lon="6.76329">
        <ele>2097.73</ele>
        <time>2019-09-10T08:10:59Z</time>
      </trkpt>
      <trkpt lat="45.39406" lon="6.76331">
        <ele>2099.18</ele>
        <time>2019-09-10T08:11:13Z</time>
      </trkpt>
      <trkpt lat="45.39412" lon="6.76341">
        <ele>2101.58</ele>
        <time>2019-09-10T08:11:28Z</time>
      </trkpt>
      <trkpt lat="45.3941" lon="6.76348">
        <ele>2103.02</ele>
        <time>2019-09-10T08:11:42Z</time>
      </trkpt>
      <trkpt lat="45.39404" lon="6.76353">
        <ele>2104.46</ele>
        <time>2019-09-10T08:11:56Z</time>
      </trkpt>
      <trkpt lat="45.39397" lon="6.76359">
        <ele>2105.42</ele>
        <time>2019-09-10T08:12:11Z</time>
      </trkpt>
      <trkpt lat="45.39404" lon="6.76368">
        <ele>2107.83</ele>
        <time>2019-09-10T08:12:27Z</time>
      </trkpt>
      <trkpt lat="45.3941" lon="6.76378">
        <ele>2109.75</ele>
        <time>2019-09-10T08:12:43Z</time>
      </trkpt>
      <trkpt lat="45.39414" lon="6.76386">
        <ele>2111.67</ele>
        <time>2019-09-10T08:12:57Z</time>
      </trkpt>
      <trkpt lat="45.39408" lon="6.76388">
        <ele>2113.12</ele>
        <time>2019-09-10T08:13:11Z</time>
      </trkpt>
      <trkpt lat="45.39399" lon="6.76392">
        <ele>2116</ele>
        <time>2019-09-10T08:13:27Z</time>
      </trkpt>
      <trkpt lat="45.39391" lon="6.76391">
        <ele>2116.48</ele>
        <time>2019-09-10T08:13:41Z</time>
      </trkpt>
      <trkpt lat="45.39393" lon="6.764">
        <ele>2117.92</ele>
        <time>2019-09-10T08:13:55Z</time>
      </trkpt>
      <trkpt lat="45.39392" lon="6.76413">
        <ele>2119.84</ele>
        <time>2019-09-10T08:14:11Z</time>
      </trkpt>
      <trkpt lat="45.39395" lon="6.76419">
        <ele>2122.73</ele>
        <time>2019-09-10T08:14:26Z</time>
      </trkpt>
      <trkpt lat="45.39398" lon="6.76425">
        <ele>2122.73</ele>
        <time>2019-09-10T08:14:40Z</time>
      </trkpt>
      <trkpt lat="45.39401" lon="6.76438">
        <ele>2125.61</ele>
        <time>2019-09-10T08:14:57Z</time>
      </trkpt>
      <trkpt lat="45.39402" lon="6.7645">
        <ele>2128.02</ele>
        <time>2019-09-10T08:15:14Z</time>
      </trkpt>
      <trkpt lat="45.39405" lon="6.76456">
        <ele>2130.42</ele>
        <time>2019-09-10T08:15:29Z</time>
      </trkpt>
      <trkpt lat="45.39406" lon="6.76466">
        <ele>2131.86</ele>
        <time>2019-09-10T08:15:42Z</time>
      </trkpt>
      <trkpt lat="45.39406" lon="6.76467">
        <ele>2132.82</ele>
        <time>2019-09-10T08:15:44Z</time>
      </trkpt>
      <trkpt lat="45.39405" lon="6.76475">
        <ele>2133.3</ele>
        <time>2019-09-10T08:15:58Z</time>
      </trkpt>
      <trkpt lat="45.3941" lon="6.76486">
        <ele>2135.71</ele>
        <time>2019-09-10T08:16:14Z</time>
      </trkpt>
      <trkpt lat="45.39416" lon="6.76493">
        <ele>2137.63</ele>
        <time>2019-09-10T08:16:29Z</time>
      </trkpt>
      <trkpt lat="45.39419" lon="6.76505">
        <ele>2139.07</ele>
        <time>2019-09-10T08:16:44Z</time>
      </trkpt>
      <trkpt lat="45.39419" lon="6.76506">
        <ele>2139.55</ele>
        <time>2019-09-10T08:16:46Z</time>
      </trkpt>
      <trkpt lat="45.39419" lon="6.76514">
        <ele>2141.47</ele>
        <time>2019-09-10T08:17:00Z</time>
      </trkpt>
      <trkpt lat="45.3942" lon="6.7652">
        <ele>2143.4</ele>
        <time>2019-09-10T08:17:14Z</time>
      </trkpt>
      <trkpt lat="45.39425" lon="6.76531">
        <ele>2145.32</ele>
        <time>2019-09-10T08:17:31Z</time>
      </trkpt>
      <trkpt lat="45.3943" lon="6.76539">
        <ele>2147.72</ele>
        <time>2019-09-10T08:17:48Z</time>
      </trkpt>
      <trkpt lat="45.39438" lon="6.76543">
        <ele>2149.16</ele>
        <time>2019-09-10T08:18:04Z</time>
      </trkpt>
      <trkpt lat="45.39444" lon="6.7655">
        <ele>2151.09</ele>
        <time>2019-09-10T08:18:21Z</time>
      </trkpt>
      <trkpt lat="45.39448" lon="6.76563">
        <ele>2152.53</ele>
        <time>2019-09-10T08:18:36Z</time>
      </trkpt>
      <trkpt lat="45.39453" lon="6.76572">
        <ele>2153.97</ele>
        <time>2019-09-10T08:18:49Z</time>
      </trkpt>
      <trkpt lat="45.39458" lon="6.76579">
        <ele>2154.45</ele>
        <time>2019-09-10T08:19:00Z</time>
      </trkpt>
      <trkpt lat="45.3946" lon="6.76581">
        <ele>2155.89</ele>
        <time>2019-09-10T08:19:03Z</time>
      </trkpt>
      <trkpt lat="45.39462" lon="6.76592">
        <ele>2158.3</ele>
        <time>2019-09-10T08:19:18Z</time>
      </trkpt>
      <trkpt lat="45.39456" lon="6.76595">
        <ele>2159.74</ele>
        <time>2019-09-10T08:19:32Z</time>
      </trkpt>
      <trkpt lat="45.39449" lon="6.76599">
        <ele>2161.66</ele>
        <time>2019-09-10T08:19:48Z</time>
      </trkpt>
      <trkpt lat="45.39446" lon="6.76602">
        <ele>2163.1</ele>
        <time>2019-09-10T08:20:01Z</time>
      </trkpt>
      <trkpt lat="45.39452" lon="6.76609">
        <ele>2164.55</ele>
        <time>2019-09-10T08:20:17Z</time>
      </trkpt>
      <trkpt lat="45.39456" lon="6.76619">
        <ele>2166.47</ele>
        <time>2019-09-10T08:20:32Z</time>
      </trkpt>
      <trkpt lat="45.39462" lon="6.76628">
        <ele>2167.91</ele>
        <time>2019-09-10T08:20:47Z</time>
      </trkpt>
      <trkpt lat="45.39466" lon="6.76638">
        <ele>2169.83</ele>
        <time>2019-09-10T08:21:02Z</time>
      </trkpt>
      <trkpt lat="45.3947" lon="6.76647">
        <ele>2171.27</ele>
        <time>2019-09-10T08:21:16Z</time>
      </trkpt>
      <trkpt lat="45.39472" lon="6.76656">
        <ele>2172.72</ele>
        <time>2019-09-10T08:21:29Z</time>
      </trkpt>
      <trkpt lat="45.39476" lon="6.76665">
        <ele>2175.12</ele>
        <time>2019-09-10T08:21:45Z</time>
      </trkpt>
      <trkpt lat="45.39478" lon="6.76673">
        <ele>2177.04</ele>
        <time>2019-09-10T08:21:59Z</time>
      </trkpt>
      <trkpt lat="45.39483" lon="6.76678">
        <ele>2178.48</ele>
        <time>2019-09-10T08:22:12Z</time>
      </trkpt>
      <trkpt lat="45.39491" lon="6.76686">
        <ele>2178.48</ele>
        <time>2019-09-10T08:22:26Z</time>
      </trkpt>
      <trkpt lat="45.39493" lon="6.76689">
        <ele>2178.97</ele>
        <time>2019-09-10T08:22:29Z</time>
      </trkpt>
      <trkpt lat="45.39501" lon="6.76704">
        <ele>2179.93</ele>
        <time>2019-09-10T08:22:44Z</time>
      </trkpt>
      <trkpt lat="45.39507" lon="6.7672">
        <ele>2182.33</ele>
        <time>2019-09-10T08:22:59Z</time>
      </trkpt>
      <trkpt lat="45.39508" lon="6.76722">
        <ele>2182.33</ele>
        <time>2019-09-10T08:23:01Z</time>
      </trkpt>
      <trkpt lat="45.39513" lon="6.76734">
        <ele>2183.77</ele>
        <time>2019-09-10T08:23:15Z</time>
      </trkpt>
      <trkpt lat="45.39519" lon="6.7675">
        <ele>2184.73</ele>
        <time>2019-09-10T08:23:32Z</time>
      </trkpt>
      <trkpt lat="45.39525" lon="6.76759">
        <ele>2187.14</ele>
        <time>2019-09-10T08:23:46Z</time>
      </trkpt>
      <trkpt lat="45.39526" lon="6.76759">
        <ele>2187.62</ele>
        <time>2019-09-10T08:24:03Z</time>
      </trkpt>
      <trkpt lat="45.39526" lon="6.76761">
        <ele>2187.62</ele>
        <time>2019-09-10T08:24:25Z</time>
      </trkpt>
      <trkpt lat="45.39528" lon="6.76759">
        <ele>2188.1</ele>
        <time>2019-09-10T08:24:50Z</time>
      </trkpt>
      <trkpt lat="45.39531" lon="6.7676">
        <ele>2187.14</ele>
        <time>2019-09-10T08:25:04Z</time>
      </trkpt>
      <trkpt lat="45.39539" lon="6.76757">
        <ele>2188.58</ele>
        <time>2019-09-10T08:25:18Z</time>
      </trkpt>
      <trkpt lat="45.3954" lon="6.76757">
        <ele>2188.58</ele>
        <time>2019-09-10T08:25:19Z</time>
      </trkpt>
      <trkpt lat="45.39545" lon="6.76749">
        <ele>2190.02</ele>
        <time>2019-09-10T08:25:34Z</time>
      </trkpt>
      <trkpt lat="45.39548" lon="6.76749">
        <ele>2190.5</ele>
        <time>2019-09-10T08:25:51Z</time>
      </trkpt>
      <trkpt lat="45.39549" lon="6.76745">
        <ele>2191.46</ele>
        <time>2019-09-10T08:26:07Z</time>
      </trkpt>
      <trkpt lat="45.39547" lon="6.76743">
        <ele>2191.94</ele>
        <time>2019-09-10T08:26:37Z</time>
      </trkpt>
      <trkpt lat="45.39548" lon="6.76743">
        <ele>2192.42</ele>
        <time>2019-09-10T08:27:03Z</time>
      </trkpt>
      <trkpt lat="45.39556" lon="6.76738">
        <ele>2193.87</ele>
        <time>2019-09-10T08:27:18Z</time>
      </trkpt>
      <trkpt lat="45.39564" lon="6.76735">
        <ele>2196.27</ele>
        <time>2019-09-10T08:27:35Z</time>
      </trkpt>
      <trkpt lat="45.39571" lon="6.76742">
        <ele>2198.67</ele>
        <time>2019-09-10T08:27:51Z</time>
      </trkpt>
      <trkpt lat="45.39578" lon="6.76748">
        <ele>2200.59</ele>
        <time>2019-09-10T08:28:07Z</time>
      </trkpt>
      <trkpt lat="45.39579" lon="6.76756">
        <ele>2203</ele>
        <time>2019-09-10T08:28:19Z</time>
      </trkpt>
      <trkpt lat="45.39578" lon="6.76765">
        <ele>2203.96</ele>
        <time>2019-09-10T08:28:32Z</time>
      </trkpt>
      <trkpt lat="45.39573" lon="6.76779">
        <ele>2205.88</ele>
        <time>2019-09-10T08:28:49Z</time>
      </trkpt>
      <trkpt lat="45.39564" lon="6.76786">
        <ele>2207.32</ele>
        <time>2019-09-10T08:29:04Z</time>
      </trkpt>
      <trkpt lat="45.39564" lon="6.76797">
        <ele>2209.25</ele>
        <time>2019-09-10T08:29:19Z</time>
      </trkpt>
      <trkpt lat="45.39573" lon="6.76799">
        <ele>2210.69</ele>
        <time>2019-09-10T08:29:33Z</time>
      </trkpt>
      <trkpt lat="45.39586" lon="6.76798">
        <ele>2213.09</ele>
        <time>2019-09-10T08:29:51Z</time>
      </trkpt>
      <trkpt lat="45.3959" lon="6.76798">
        <ele>2213.09</ele>
        <time>2019-09-10T08:29:57Z</time>
      </trkpt>
      <trkpt lat="45.39595" lon="6.76807">
        <ele>2214.53</ele>
        <time>2019-09-10T08:30:09Z</time>
      </trkpt>
      <trkpt lat="45.39602" lon="6.76815">
        <ele>2217.9</ele>
        <time>2019-09-10T08:30:25Z</time>
      </trkpt>
      <trkpt lat="45.39604" lon="6.76824">
        <ele>2217.42</ele>
        <time>2019-09-10T08:30:38Z</time>
      </trkpt>
      <trkpt lat="45.39605" lon="6.76833">
        <ele>2220.78</ele>
        <time>2019-09-10T08:30:49Z</time>
      </trkpt>
      <trkpt lat="45.39607" lon="6.76848">
        <ele>2222.22</ele>
        <time>2019-09-10T08:31:05Z</time>
      </trkpt>
      <trkpt lat="45.39611" lon="6.7686">
        <ele>2223.67</ele>
        <time>2019-09-10T08:31:19Z</time>
      </trkpt>
      <trkpt lat="45.39614" lon="6.76873">
        <ele>2226.55</ele>
        <time>2019-09-10T08:31:34Z</time>
      </trkpt>
      <trkpt lat="45.39617" lon="6.76886">
        <ele>2227.99</ele>
        <time>2019-09-10T08:31:50Z</time>
      </trkpt>
      <trkpt lat="45.39626" lon="6.76897">
        <ele>2229.92</ele>
        <time>2019-09-10T08:32:08Z</time>
      </trkpt>
      <trkpt lat="45.39629" lon="6.76909">
        <ele>2232.32</ele>
        <time>2019-09-10T08:32:21Z</time>
      </trkpt>
      <trkpt lat="45.39629" lon="6.76922">
        <ele>2234.24</ele>
        <time>2019-09-10T08:32:37Z</time>
      </trkpt>
      <trkpt lat="45.3963" lon="6.76926">
        <ele>2236.16</ele>
        <time>2019-09-10T08:32:42Z</time>
      </trkpt>
      <trkpt lat="45.3963" lon="6.76928">
        <ele>2234.72</ele>
        <time>2019-09-10T08:32:45Z</time>
      </trkpt>
      <trkpt lat="45.39634" lon="6.76933">
        <ele>2236.64</ele>
        <time>2019-09-10T08:32:54Z</time>
      </trkpt>
      <trkpt lat="45.39642" lon="6.76938">
        <ele>2239.05</ele>
        <time>2019-09-10T08:33:07Z</time>
      </trkpt>
      <trkpt lat="45.39648" lon="6.76948">
        <ele>2239.53</ele>
        <time>2019-09-10T08:33:21Z</time>
      </trkpt>
      <trkpt lat="45.39644" lon="6.7696">
        <ele>2241.93</ele>
        <time>2019-09-10T08:33:35Z</time>
      </trkpt>
      <trkpt lat="45.39635" lon="6.76963">
        <ele>2242.89</ele>
        <time>2019-09-10T08:33:50Z</time>
      </trkpt>
      <trkpt lat="45.39639" lon="6.76973">
        <ele>2244.33</ele>
        <time>2019-09-10T08:34:03Z</time>
      </trkpt>
      <trkpt lat="45.39646" lon="6.76981">
        <ele>2246.26</ele>
        <time>2019-09-10T08:34:18Z</time>
      </trkpt>
      <trkpt lat="45.39647" lon="6.7699">
        <ele>2248.66</ele>
        <time>2019-09-10T08:34:30Z</time>
      </trkpt>
      <trkpt lat="45.39644" lon="6.77">
        <ele>2250.1</ele>
        <time>2019-09-10T08:34:46Z</time>
      </trkpt>
      <trkpt lat="45.39653" lon="6.77003">
        <ele>2252.03</ele>
        <time>2019-09-10T08:35:01Z</time>
      </trkpt>
      <trkpt lat="45.3966" lon="6.77009">
        <ele>2253.95</ele>
        <time>2019-09-10T08:35:16Z</time>
      </trkpt>
      <trkpt lat="45.39656" lon="6.77017">
        <ele>2255.87</ele>
        <time>2019-09-10T08:35:31Z</time>
      </trkpt>
      <trkpt lat="45.39654" lon="6.77026">
        <ele>2257.31</ele>
        <time>2019-09-10T08:35:46Z</time>
      </trkpt>
      <trkpt lat="45.39655" lon="6.77035">
        <ele>2259.24</ele>
        <time>2019-09-10T08:36:02Z</time>
      </trkpt>
      <trkpt lat="45.39656" lon="6.77037">
        <ele>2257.31</ele>
        <time>2019-09-10T08:36:04Z</time>
      </trkpt>
      <trkpt lat="45.39657" lon="6.77038">
        <ele>2259.24</ele>
        <time>2019-09-10T08:36:07Z</time>
      </trkpt>
      <trkpt lat="45.39659" lon="6.77037">
        <ele>2260.68</ele>
        <time>2019-09-10T08:36:10Z</time>
      </trkpt>
      <trkpt lat="45.39665" lon="6.77041">
        <ele>2262.12</ele>
        <time>2019-09-10T08:36:24Z</time>
      </trkpt>
      <trkpt lat="45.39667" lon="6.77048">
        <ele>2263.08</ele>
        <time>2019-09-10T08:36:38Z</time>
      </trkpt>
      <trkpt lat="45.3967" lon="6.77059">
        <ele>2265.48</ele>
        <time>2019-09-10T08:36:54Z</time>
      </trkpt>
      <trkpt lat="45.39674" lon="6.77071">
        <ele>2267.41</ele>
        <time>2019-09-10T08:37:09Z</time>
      </trkpt>
      <trkpt lat="45.39677" lon="6.77077">
        <ele>2268.85</ele>
        <time>2019-09-10T08:37:19Z</time>
      </trkpt>
      <trkpt lat="45.39684" lon="6.77083">
        <ele>2269.33</ele>
        <time>2019-09-10T08:37:34Z</time>
      </trkpt>
      <trkpt lat="45.39686" lon="6.77084">
        <ele>2267.41</ele>
        <time>2019-09-10T08:37:38Z</time>
      </trkpt>
      <trkpt lat="45.39687" lon="6.77086">
        <ele>2269.33</ele>
        <time>2019-09-10T08:37:40Z</time>
      </trkpt>
      <trkpt lat="45.39691" lon="6.77097">
        <ele>2272.69</ele>
        <time>2019-09-10T08:37:52Z</time>
      </trkpt>
      <trkpt lat="45.39694" lon="6.77108">
        <ele>2273.66</ele>
        <time>2019-09-10T08:38:07Z</time>
      </trkpt>
      <trkpt lat="45.39699" lon="6.77121">
        <ele>2274.14</ele>
        <time>2019-09-10T08:38:22Z</time>
      </trkpt>
      <trkpt lat="45.39701" lon="6.77132">
        <ele>2276.54</ele>
        <time>2019-09-10T08:38:36Z</time>
      </trkpt>
      <trkpt lat="45.39702" lon="6.77145">
        <ele>2279.42</ele>
        <time>2019-09-10T08:38:53Z</time>
      </trkpt>
      <trkpt lat="45.39701" lon="6.77156">
        <ele>2280.87</ele>
        <time>2019-09-10T08:39:07Z</time>
      </trkpt>
      <trkpt lat="45.39704" lon="6.77168">
        <ele>2280.87</ele>
        <time>2019-09-10T08:39:21Z</time>
      </trkpt>
      <trkpt lat="45.39706" lon="6.77182">
        <ele>2283.75</ele>
        <time>2019-09-10T08:39:36Z</time>
      </trkpt>
      <trkpt lat="45.39708" lon="6.77192">
        <ele>2283.75</ele>
        <time>2019-09-10T08:39:48Z</time>
      </trkpt>
      <trkpt lat="45.39707" lon="6.77208">
        <ele>2287.11</ele>
        <time>2019-09-10T08:40:04Z</time>
      </trkpt>
      <trkpt lat="45.39701" lon="6.77221">
        <ele>2288.08</ele>
        <time>2019-09-10T08:40:19Z</time>
      </trkpt>
      <trkpt lat="45.397" lon="6.7723">
        <ele>2288.08</ele>
        <time>2019-09-10T08:40:28Z</time>
      </trkpt>
      <trkpt lat="45.39699" lon="6.77245">
        <ele>2289.04</ele>
        <time>2019-09-10T08:40:42Z</time>
      </trkpt>
      <trkpt lat="45.39695" lon="6.77255">
        <ele>2290</ele>
        <time>2019-09-10T08:40:57Z</time>
      </trkpt>
      <trkpt lat="45.39691" lon="6.77267">
        <ele>2291.44</ele>
        <time>2019-09-10T08:41:11Z</time>
      </trkpt>
      <trkpt lat="45.39686" lon="6.77275">
        <ele>2291.92</ele>
        <time>2019-09-10T08:41:22Z</time>
      </trkpt>
      <trkpt lat="45.39687" lon="6.77284">
        <ele>2290.48</ele>
        <time>2019-09-10T08:41:28Z</time>
      </trkpt>
      <trkpt lat="45.39689" lon="6.77294">
        <ele>2290.48</ele>
        <time>2019-09-10T08:41:38Z</time>
      </trkpt>
      <trkpt lat="45.39691" lon="6.77301">
        <ele>2291.92</ele>
        <time>2019-09-10T08:41:44Z</time>
      </trkpt>
      <trkpt lat="45.39695" lon="6.77312">
        <ele>2291.44</ele>
        <time>2019-09-10T08:41:54Z</time>
      </trkpt>
      <trkpt lat="45.39702" lon="6.77323">
        <ele>2292.88</ele>
        <time>2019-09-10T08:42:07Z</time>
      </trkpt>
      <trkpt lat="45.39706" lon="6.77345">
        <ele>2293.36</ele>
        <time>2019-09-10T08:42:24Z</time>
      </trkpt>
      <trkpt lat="45.39708" lon="6.77362">
        <ele>2293.84</ele>
        <time>2019-09-10T08:42:39Z</time>
      </trkpt>
      <trkpt lat="45.39711" lon="6.77378">
        <ele>2292.88</ele>
        <time>2019-09-10T08:42:51Z</time>
      </trkpt>
      <trkpt lat="45.39711" lon="6.77383">
        <ele>2294.32</ele>
        <time>2019-09-10T08:42:56Z</time>
      </trkpt>
      <trkpt lat="45.39716" lon="6.77398">
        <ele>2296.73</ele>
        <time>2019-09-10T08:43:11Z</time>
      </trkpt>
      <trkpt lat="45.39718" lon="6.77411">
        <ele>2298.17</ele>
        <time>2019-09-10T08:43:23Z</time>
      </trkpt>
      <trkpt lat="45.39714" lon="6.77425">
        <ele>2299.13</ele>
        <time>2019-09-10T08:43:36Z</time>
      </trkpt>
      <trkpt lat="45.39715" lon="6.77437">
        <ele>2299.13</ele>
        <time>2019-09-10T08:43:49Z</time>
      </trkpt>
      <trkpt lat="45.39719" lon="6.77441">
        <ele>2300.57</ele>
        <time>2019-09-10T08:44:03Z</time>
      </trkpt>
      <trkpt lat="45.39723" lon="6.77449">
        <ele>2302.01</ele>
        <time>2019-09-10T08:44:18Z</time>
      </trkpt>
      <trkpt lat="45.3973" lon="6.7746">
        <ele>2302.98</ele>
        <time>2019-09-10T08:44:32Z</time>
      </trkpt>
      <trkpt lat="45.39735" lon="6.77469">
        <ele>2303.94</ele>
        <time>2019-09-10T08:44:46Z</time>
      </trkpt>
      <trkpt lat="45.39734" lon="6.77471">
        <ele>2303.94</ele>
        <time>2019-09-10T08:44:59Z</time>
      </trkpt>
      <trkpt lat="45.39733" lon="6.77473">
        <ele>2303.94</ele>
        <time>2019-09-10T08:45:23Z</time>
      </trkpt>
      <trkpt lat="45.39736" lon="6.77475">
        <ele>2304.42</ele>
        <time>2019-09-10T08:45:44Z</time>
      </trkpt>
      <trkpt lat="45.39737" lon="6.77475">
        <ele>2304.42</ele>
        <time>2019-09-10T08:46:06Z</time>
      </trkpt>
      <trkpt lat="45.39739" lon="6.77467">
        <ele>2304.42</ele>
        <time>2019-09-10T08:46:23Z</time>
      </trkpt>
      <trkpt lat="45.39744" lon="6.77469">
        <ele>2304.9</ele>
        <time>2019-09-10T08:46:47Z</time>
      </trkpt>
      <trkpt lat="45.39744" lon="6.77472">
        <ele>2305.38</ele>
        <time>2019-09-10T08:47:16Z</time>
      </trkpt>
      <trkpt lat="45.39743" lon="6.7747">
        <ele>2303.94</ele>
        <time>2019-09-10T08:47:34Z</time>
      </trkpt>
      <trkpt lat="45.39741" lon="6.77467">
        <ele>2305.38</ele>
        <time>2019-09-10T08:47:53Z</time>
      </trkpt>
      <trkpt lat="45.39741" lon="6.77456">
        <ele>2303.94</ele>
        <time>2019-09-10T08:48:09Z</time>
      </trkpt>
      <trkpt lat="45.39738" lon="6.77454">
        <ele>2303.94</ele>
        <time>2019-09-10T08:48:23Z</time>
      </trkpt>
      <trkpt lat="45.39737" lon="6.77456">
        <ele>2303.46</ele>
        <time>2019-09-10T08:48:40Z</time>
      </trkpt>
      <trkpt lat="45.39738" lon="6.77456">
        <ele>2302.98</ele>
        <time>2019-09-10T08:49:03Z</time>
      </trkpt>
      <trkpt lat="45.39735" lon="6.77459">
        <ele>2303.46</ele>
        <time>2019-09-10T08:49:25Z</time>
      </trkpt>
      <trkpt lat="45.39735" lon="6.77462">
        <ele>2303.46</ele>
        <time>2019-09-10T08:49:48Z</time>
      </trkpt>
      <trkpt lat="45.39735" lon="6.77463">
        <ele>2303.94</ele>
        <time>2019-09-10T08:50:27Z</time>
      </trkpt>
      <trkpt lat="45.3974" lon="6.77462">
        <ele>2303.94</ele>
        <time>2019-09-10T08:50:36Z</time>
      </trkpt>
      <trkpt lat="45.39741" lon="6.77455">
        <ele>2305.86</ele>
        <time>2019-09-10T08:52:48Z</time>
      </trkpt>
      <trkpt lat="45.39742" lon="6.77455">
        <ele>2305.86</ele>
        <time>2019-09-10T08:52:49Z</time>
      </trkpt>
      <trkpt lat="45.39742" lon="6.77453">
        <ele>2304.9</ele>
        <time>2019-09-10T08:53:17Z</time>
      </trkpt>
      <trkpt lat="45.3974" lon="6.77453">
        <ele>2304.9</ele>
        <time>2019-09-10T08:53:30Z</time>
      </trkpt>
      <trkpt lat="45.39753" lon="6.77461">
        <ele>2314.99</ele>
        <time>2019-09-10T09:27:02Z</time>
      </trkpt>
      <trkpt lat="45.39744" lon="6.77462">
        <ele>2316.91</ele>
        <time>2019-09-10T09:27:43Z</time>
      </trkpt>
      <trkpt lat="45.39744" lon="6.77462">
        <ele>2317.88</ele>
        <time>2019-09-10T09:27:54Z</time>
      </trkpt>
      <trkpt lat="45.39745" lon="6.7747">
        <ele>2317.88</ele>
        <time>2019-09-10T09:28:11Z</time>
      </trkpt>
      <trkpt lat="45.39742" lon="6.77473">
        <ele>2318.36</ele>
        <time>2019-09-10T09:28:28Z</time>
      </trkpt>
      <trkpt lat="45.39744" lon="6.77483">
        <ele>2317.88</ele>
        <time>2019-09-10T09:28:42Z</time>
      </trkpt>
      <trkpt lat="45.39744" lon="6.77486">
        <ele>2317.88</ele>
        <time>2019-09-10T09:28:47Z</time>
      </trkpt>
      <trkpt lat="45.39742" lon="6.77489">
        <ele>2316.91</ele>
        <time>2019-09-10T09:28:50Z</time>
      </trkpt>
      <trkpt lat="45.39745" lon="6.77483">
        <ele>2315.95</ele>
        <time>2019-09-10T09:29:00Z</time>
      </trkpt>
      <trkpt lat="45.39749" lon="6.77486">
        <ele>2317.4</ele>
        <time>2019-09-10T09:29:04Z</time>
      </trkpt>
      <trkpt lat="45.39754" lon="6.77496">
        <ele>2317.4</ele>
        <time>2019-09-10T09:29:16Z</time>
      </trkpt>
      <trkpt lat="45.39755" lon="6.77499">
        <ele>2317.4</ele>
        <time>2019-09-10T09:29:26Z</time>
      </trkpt>
      <trkpt lat="45.39756" lon="6.77501">
        <ele>2318.84</ele>
        <time>2019-09-10T09:29:30Z</time>
      </trkpt>
      <trkpt lat="45.3975" lon="6.77507">
        <ele>2316.91</ele>
        <time>2019-09-10T09:29:46Z</time>
      </trkpt>
      <trkpt lat="45.39752" lon="6.77512">
        <ele>2316.43</ele>
        <time>2019-09-10T09:29:59Z</time>
      </trkpt>
      <trkpt lat="45.3975" lon="6.77521">
        <ele>2317.88</ele>
        <time>2019-09-10T09:30:07Z</time>
      </trkpt>
      <trkpt lat="45.39751" lon="6.77523">
        <ele>2316.43</ele>
        <time>2019-09-10T09:30:10Z</time>
      </trkpt>
      <trkpt lat="45.39759" lon="6.7753">
        <ele>2316.43</ele>
        <time>2019-09-10T09:30:22Z</time>
      </trkpt>
      <trkpt lat="45.39764" lon="6.7754">
        <ele>2315.47</ele>
        <time>2019-09-10T09:30:34Z</time>
      </trkpt>
      <trkpt lat="45.39774" lon="6.77553">
        <ele>2314.99</ele>
        <time>2019-09-10T09:30:47Z</time>
      </trkpt>
      <trkpt lat="45.39776" lon="6.77564">
        <ele>2314.51</ele>
        <time>2019-09-10T09:31:00Z</time>
      </trkpt>
      <trkpt lat="45.39781" lon="6.77567">
        <ele>2315.95</ele>
        <time>2019-09-10T09:31:06Z</time>
      </trkpt>
      <trkpt lat="45.39785" lon="6.77581">
        <ele>2316.91</ele>
        <time>2019-09-10T09:31:19Z</time>
      </trkpt>
      <trkpt lat="45.39787" lon="6.77584">
        <ele>2314.99</ele>
        <time>2019-09-10T09:31:22Z</time>
      </trkpt>
      <trkpt lat="45.39792" lon="6.77601">
        <ele>2314.51</ele>
        <time>2019-09-10T09:31:32Z</time>
      </trkpt>
      <trkpt lat="45.39794" lon="6.77616">
        <ele>2314.03</ele>
        <time>2019-09-10T09:31:43Z</time>
      </trkpt>
      <trkpt lat="45.39796" lon="6.7762">
        <ele>2315.47</ele>
        <time>2019-09-10T09:31:46Z</time>
      </trkpt>
      <trkpt lat="45.39796" lon="6.77623">
        <ele>2314.03</ele>
        <time>2019-09-10T09:31:48Z</time>
      </trkpt>
      <trkpt lat="45.39794" lon="6.77634">
        <ele>2314.03</ele>
        <time>2019-09-10T09:31:58Z</time>
      </trkpt>
      <trkpt lat="45.39797" lon="6.77646">
        <ele>2313.55</ele>
        <time>2019-09-10T09:32:07Z</time>
      </trkpt>
      <trkpt lat="45.39799" lon="6.77649">
        <ele>2314.99</ele>
        <time>2019-09-10T09:32:09Z</time>
      </trkpt>
      <trkpt lat="45.39798" lon="6.77655">
        <ele>2314.51</ele>
        <time>2019-09-10T09:32:14Z</time>
      </trkpt>
      <trkpt lat="45.398" lon="6.77659">
        <ele>2314.03</ele>
        <time>2019-09-10T09:32:16Z</time>
      </trkpt>
      <trkpt lat="45.39808" lon="6.77671">
        <ele>2312.59</ele>
        <time>2019-09-10T09:32:29Z</time>
      </trkpt>
      <trkpt lat="45.39815" lon="6.7769">
        <ele>2312.11</ele>
        <time>2019-09-10T09:32:44Z</time>
      </trkpt>
      <trkpt lat="45.39817" lon="6.77694">
        <ele>2313.55</ele>
        <time>2019-09-10T09:32:47Z</time>
      </trkpt>
      <trkpt lat="45.39824" lon="6.77708">
        <ele>2311.63</ele>
        <time>2019-09-10T09:33:01Z</time>
      </trkpt>
      <trkpt lat="45.39827" lon="6.77712">
        <ele>2312.59</ele>
        <time>2019-09-10T09:33:07Z</time>
      </trkpt>
      <trkpt lat="45.39832" lon="6.77723">
        <ele>2312.11</ele>
        <time>2019-09-10T09:33:20Z</time>
      </trkpt>
      <trkpt lat="45.39831" lon="6.77736">
        <ele>2311.63</ele>
        <time>2019-09-10T09:33:33Z</time>
      </trkpt>
      <trkpt lat="45.39833" lon="6.77736">
        <ele>2309.7</ele>
        <time>2019-09-10T09:33:37Z</time>
      </trkpt>
      <trkpt lat="45.39841" lon="6.77741">
        <ele>2309.22</ele>
        <time>2019-09-10T09:33:50Z</time>
      </trkpt>
      <trkpt lat="45.39842" lon="6.77746">
        <ele>2310.19</ele>
        <time>2019-09-10T09:34:05Z</time>
      </trkpt>
      <trkpt lat="45.39837" lon="6.7776">
        <ele>2309.7</ele>
        <time>2019-09-10T09:34:21Z</time>
      </trkpt>
      <trkpt lat="45.39842" lon="6.77757">
        <ele>2309.7</ele>
        <time>2019-09-10T09:34:38Z</time>
      </trkpt>
      <trkpt lat="45.39846" lon="6.77755">
        <ele>2309.7</ele>
        <time>2019-09-10T09:34:59Z</time>
      </trkpt>
      <trkpt lat="45.39851" lon="6.77754">
        <ele>2308.74</ele>
        <time>2019-09-10T09:35:12Z</time>
      </trkpt>
      <trkpt lat="45.39851" lon="6.77753">
        <ele>2308.74</ele>
        <time>2019-09-10T09:35:32Z</time>
      </trkpt>
      <trkpt lat="45.39856" lon="6.77768">
        <ele>2310.19</ele>
        <time>2019-09-10T09:35:48Z</time>
      </trkpt>
      <trkpt lat="45.39866" lon="6.77778">
        <ele>2312.11</ele>
        <time>2019-09-10T09:36:03Z</time>
      </trkpt>
      <trkpt lat="45.39874" lon="6.77786">
        <ele>2313.07</ele>
        <time>2019-09-10T09:36:16Z</time>
      </trkpt>
      <trkpt lat="45.39883" lon="6.77787">
        <ele>2313.07</ele>
        <time>2019-09-10T09:36:29Z</time>
      </trkpt>
      <trkpt lat="45.39889" lon="6.77786">
        <ele>2313.55</ele>
        <time>2019-09-10T09:36:39Z</time>
      </trkpt>
      <trkpt lat="45.39898" lon="6.77784">
        <ele>2314.51</ele>
        <time>2019-09-10T09:36:53Z</time>
      </trkpt>
      <trkpt lat="45.39904" lon="6.7778">
        <ele>2315.95</ele>
        <time>2019-09-10T09:37:07Z</time>
      </trkpt>
      <trkpt lat="45.39909" lon="6.77776">
        <ele>2318.84</ele>
        <time>2019-09-10T09:37:19Z</time>
      </trkpt>
      <trkpt lat="45.39914" lon="6.77771">
        <ele>2319.8</ele>
        <time>2019-09-10T09:37:32Z</time>
      </trkpt>
      <trkpt lat="45.39918" lon="6.77765">
        <ele>2321.72</ele>
        <time>2019-09-10T09:37:45Z</time>
      </trkpt>
      <trkpt lat="45.39925" lon="6.77759">
        <ele>2324.61</ele>
        <time>2019-09-10T09:37:59Z</time>
      </trkpt>
      <trkpt lat="45.39927" lon="6.77758">
        <ele>2323.16</ele>
        <time>2019-09-10T09:38:03Z</time>
      </trkpt>
      <trkpt lat="45.3993" lon="6.77755">
        <ele>2324.12</ele>
        <time>2019-09-10T09:38:08Z</time>
      </trkpt>
      <trkpt lat="45.39935" lon="6.7775">
        <ele>2325.09</ele>
        <time>2019-09-10T09:38:19Z</time>
      </trkpt>
      <trkpt lat="45.39942" lon="6.77745">
        <ele>2327.49</ele>
        <time>2019-09-10T09:38:36Z</time>
      </trkpt>
      <trkpt lat="45.39951" lon="6.77743">
        <ele>2328.93</ele>
        <time>2019-09-10T09:38:52Z</time>
      </trkpt>
      <trkpt lat="45.39948" lon="6.77752">
        <ele>2330.37</ele>
        <time>2019-09-10T09:39:05Z</time>
      </trkpt>
      <trkpt lat="45.39943" lon="6.77763">
        <ele>2331.81</ele>
        <time>2019-09-10T09:39:18Z</time>
      </trkpt>
      <trkpt lat="45.39938" lon="6.77777">
        <ele>2333.26</ele>
        <time>2019-09-10T09:39:33Z</time>
      </trkpt>
      <trkpt lat="45.39931" lon="6.77788">
        <ele>2334.22</ele>
        <time>2019-09-10T09:39:47Z</time>
      </trkpt>
      <trkpt lat="45.39925" lon="6.77798">
        <ele>2334.22</ele>
        <time>2019-09-10T09:40:02Z</time>
      </trkpt>
      <trkpt lat="45.39921" lon="6.77803">
        <ele>2335.18</ele>
        <time>2019-09-10T09:40:11Z</time>
      </trkpt>
      <trkpt lat="45.39912" lon="6.77816">
        <ele>2335.66</ele>
        <time>2019-09-10T09:40:27Z</time>
      </trkpt>
      <trkpt lat="45.39913" lon="6.77828">
        <ele>2336.62</ele>
        <time>2019-09-10T09:40:42Z</time>
      </trkpt>
      <trkpt lat="45.3992" lon="6.77837">
        <ele>2338.06</ele>
        <time>2019-09-10T09:40:56Z</time>
      </trkpt>
      <trkpt lat="45.39928" lon="6.77845">
        <ele>2339.99</ele>
        <time>2019-09-10T09:41:10Z</time>
      </trkpt>
      <trkpt lat="45.39939" lon="6.77852">
        <ele>2341.43</ele>
        <time>2019-09-10T09:41:25Z</time>
      </trkpt>
      <trkpt lat="45.39949" lon="6.7786">
        <ele>2341.91</ele>
        <time>2019-09-10T09:41:41Z</time>
      </trkpt>
      <trkpt lat="45.3995" lon="6.77861">
        <ele>2341.91</ele>
        <time>2019-09-10T09:41:42Z</time>
      </trkpt>
      <trkpt lat="45.39961" lon="6.77864">
        <ele>2342.87</ele>
        <time>2019-09-10T09:41:56Z</time>
      </trkpt>
      <trkpt lat="45.39968" lon="6.77866">
        <ele>2344.31</ele>
        <time>2019-09-10T09:42:09Z</time>
      </trkpt>
      <trkpt lat="45.3997" lon="6.77877">
        <ele>2345.75</ele>
        <time>2019-09-10T09:42:23Z</time>
      </trkpt>
      <trkpt lat="45.39967" lon="6.77891">
        <ele>2346.23</ele>
        <time>2019-09-10T09:42:37Z</time>
      </trkpt>
      <trkpt lat="45.39968" lon="6.77905">
        <ele>2348.16</ele>
        <time>2019-09-10T09:42:49Z</time>
      </trkpt>
      <trkpt lat="45.39966" lon="6.77918">
        <ele>2348.16</ele>
        <time>2019-09-10T09:43:00Z</time>
      </trkpt>
      <trkpt lat="45.39962" lon="6.77933">
        <ele>2349.12</ele>
        <time>2019-09-10T09:43:13Z</time>
      </trkpt>
      <trkpt lat="45.3996" lon="6.77953">
        <ele>2349.6</ele>
        <time>2019-09-10T09:43:28Z</time>
      </trkpt>
      <trkpt lat="45.39961" lon="6.7797">
        <ele>2350.56</ele>
        <time>2019-09-10T09:43:41Z</time>
      </trkpt>
      <trkpt lat="45.39957" lon="6.77987">
        <ele>2352.48</ele>
        <time>2019-09-10T09:43:56Z</time>
      </trkpt>
      <trkpt lat="45.39953" lon="6.78003">
        <ele>2352.48</ele>
        <time>2019-09-10T09:44:10Z</time>
      </trkpt>
      <trkpt lat="45.39951" lon="6.78018">
        <ele>2352.96</ele>
        <time>2019-09-10T09:44:25Z</time>
      </trkpt>
      <trkpt lat="45.39947" lon="6.78031">
        <ele>2353.44</ele>
        <time>2019-09-10T09:44:37Z</time>
      </trkpt>
      <trkpt lat="45.39947" lon="6.78036">
        <ele>2353.44</ele>
        <time>2019-09-10T09:44:41Z</time>
      </trkpt>
      <trkpt lat="45.39942" lon="6.78052">
        <ele>2353.93</ele>
        <time>2019-09-10T09:44:53Z</time>
      </trkpt>
      <trkpt lat="45.39936" lon="6.78067">
        <ele>2355.37</ele>
        <time>2019-09-10T09:45:07Z</time>
      </trkpt>
      <trkpt lat="45.3993" lon="6.78081">
        <ele>2357.77</ele>
        <time>2019-09-10T09:45:23Z</time>
      </trkpt>
      <trkpt lat="45.39931" lon="6.78091">
        <ele>2359.21</ele>
        <time>2019-09-10T09:45:36Z</time>
      </trkpt>
      <trkpt lat="45.39931" lon="6.78104">
        <ele>2361.14</ele>
        <time>2019-09-10T09:45:52Z</time>
      </trkpt>
      <trkpt lat="45.3993" lon="6.78118">
        <ele>2363.06</ele>
        <time>2019-09-10T09:46:09Z</time>
      </trkpt>
      <trkpt lat="45.39927" lon="6.78129">
        <ele>2364.98</ele>
        <time>2019-09-10T09:46:24Z</time>
      </trkpt>
      <trkpt lat="45.39924" lon="6.78142">
        <ele>2367.38</ele>
        <time>2019-09-10T09:46:42Z</time>
      </trkpt>
      <trkpt lat="45.39921" lon="6.78154">
        <ele>2368.83</ele>
        <time>2019-09-10T09:46:58Z</time>
      </trkpt>
      <trkpt lat="45.3992" lon="6.7817">
        <ele>2370.75</ele>
        <time>2019-09-10T09:47:17Z</time>
      </trkpt>
      <trkpt lat="45.39924" lon="6.78181">
        <ele>2372.67</ele>
        <time>2019-09-10T09:47:31Z</time>
      </trkpt>
      <trkpt lat="45.39928" lon="6.7819">
        <ele>2374.11</ele>
        <time>2019-09-10T09:47:44Z</time>
      </trkpt>
      <trkpt lat="45.39929" lon="6.78205">
        <ele>2376.04</ele>
        <time>2019-09-10T09:48:02Z</time>
      </trkpt>
      <trkpt lat="45.39926" lon="6.78221">
        <ele>2377.96</ele>
        <time>2019-09-10T09:48:17Z</time>
      </trkpt>
      <trkpt lat="45.39924" lon="6.78233">
        <ele>2380.36</ele>
        <time>2019-09-10T09:48:33Z</time>
      </trkpt>
      <trkpt lat="45.39918" lon="6.78244">
        <ele>2381.8</ele>
        <time>2019-09-10T09:48:49Z</time>
      </trkpt>
      <trkpt lat="45.39918" lon="6.78256">
        <ele>2384.21</ele>
        <time>2019-09-10T09:49:04Z</time>
      </trkpt>
      <trkpt lat="45.39917" lon="6.78269">
        <ele>2386.61</ele>
        <time>2019-09-10T09:49:21Z</time>
      </trkpt>
      <trkpt lat="45.39916" lon="6.78283">
        <ele>2388.53</ele>
        <time>2019-09-10T09:49:41Z</time>
      </trkpt>
      <trkpt lat="45.39913" lon="6.78295">
        <ele>2389.97</ele>
        <time>2019-09-10T09:49:58Z</time>
      </trkpt>
      <trkpt lat="45.39909" lon="6.78306">
        <ele>2392.38</ele>
        <time>2019-09-10T09:50:13Z</time>
      </trkpt>
      <trkpt lat="45.3991" lon="6.7832">
        <ele>2393.82</ele>
        <time>2019-09-10T09:50:32Z</time>
      </trkpt>
      <trkpt lat="45.39912" lon="6.78328">
        <ele>2395.26</ele>
        <time>2019-09-10T09:50:45Z</time>
      </trkpt>
      <trkpt lat="45.3991" lon="6.78336">
        <ele>2397.18</ele>
        <time>2019-09-10T09:50:59Z</time>
      </trkpt>
      <trkpt lat="45.39911" lon="6.78348">
        <ele>2398.63</ele>
        <time>2019-09-10T09:51:13Z</time>
      </trkpt>
      <trkpt lat="45.39912" lon="6.78358">
        <ele>2400.07</ele>
        <time>2019-09-10T09:51:27Z</time>
      </trkpt>
      <trkpt lat="45.39912" lon="6.78369">
        <ele>2401.51</ele>
        <time>2019-09-10T09:51:45Z</time>
      </trkpt>
      <trkpt lat="45.39913" lon="6.7838">
        <ele>2403.91</ele>
        <time>2019-09-10T09:52:02Z</time>
      </trkpt>
      <trkpt lat="45.39911" lon="6.78393">
        <ele>2404.88</ele>
        <time>2019-09-10T09:52:18Z</time>
      </trkpt>
      <trkpt lat="45.39911" lon="6.78406">
        <ele>2407.76</ele>
        <time>2019-09-10T09:52:36Z</time>
      </trkpt>
      <trkpt lat="45.39911" lon="6.78417">
        <ele>2409.2</ele>
        <time>2019-09-10T09:52:50Z</time>
      </trkpt>
      <trkpt lat="45.3991" lon="6.78429">
        <ele>2411.6</ele>
        <time>2019-09-10T09:53:08Z</time>
      </trkpt>
      <trkpt lat="45.39908" lon="6.7844">
        <ele>2414.01</ele>
        <time>2019-09-10T09:53:25Z</time>
      </trkpt>
      <trkpt lat="45.39903" lon="6.78452">
        <ele>2414.49</ele>
        <time>2019-09-10T09:53:42Z</time>
      </trkpt>
      <trkpt lat="45.39909" lon="6.78456">
        <ele>2416.41</ele>
        <time>2019-09-10T09:53:58Z</time>
      </trkpt>
      <trkpt lat="45.39917" lon="6.7845">
        <ele>2418.33</ele>
        <time>2019-09-10T09:54:13Z</time>
      </trkpt>
      <trkpt lat="45.39921" lon="6.78441">
        <ele>2419.3</ele>
        <time>2019-09-10T09:54:24Z</time>
      </trkpt>
      <trkpt lat="45.39926" lon="6.78432">
        <ele>2421.22</ele>
        <time>2019-09-10T09:54:39Z</time>
      </trkpt>
      <trkpt lat="45.39934" lon="6.78421">
        <ele>2422.66</ele>
        <time>2019-09-10T09:54:52Z</time>
      </trkpt>
      <trkpt lat="45.3994" lon="6.78411">
        <ele>2423.62</ele>
        <time>2019-09-10T09:55:08Z</time>
      </trkpt>
      <trkpt lat="45.39946" lon="6.78401">
        <ele>2424.58</ele>
        <time>2019-09-10T09:55:23Z</time>
      </trkpt>
      <trkpt lat="45.39954" lon="6.78391">
        <ele>2426.02</ele>
        <time>2019-09-10T09:55:39Z</time>
      </trkpt>
      <trkpt lat="45.3996" lon="6.78393">
        <ele>2427.95</ele>
        <time>2019-09-10T09:55:57Z</time>
      </trkpt>
      <trkpt lat="45.39959" lon="6.78407">
        <ele>2430.35</ele>
        <time>2019-09-10T09:56:12Z</time>
      </trkpt>
      <trkpt lat="45.39958" lon="6.78423">
        <ele>2432.27</ele>
        <time>2019-09-10T09:56:27Z</time>
      </trkpt>
      <trkpt lat="45.39956" lon="6.78437">
        <ele>2433.71</ele>
        <time>2019-09-10T09:56:43Z</time>
      </trkpt>
      <trkpt lat="45.39956" lon="6.78448">
        <ele>2435.64</ele>
        <time>2019-09-10T09:56:55Z</time>
      </trkpt>
      <trkpt lat="45.39953" lon="6.78462">
        <ele>2437.08</ele>
        <time>2019-09-10T09:57:12Z</time>
      </trkpt>
      <trkpt lat="45.39952" lon="6.78477">
        <ele>2439.48</ele>
        <time>2019-09-10T09:57:29Z</time>
      </trkpt>
      <trkpt lat="45.39948" lon="6.78491">
        <ele>2440.92</ele>
        <time>2019-09-10T09:57:45Z</time>
      </trkpt>
      <trkpt lat="45.39946" lon="6.78507">
        <ele>2442.37</ele>
        <time>2019-09-10T09:58:03Z</time>
      </trkpt>
      <trkpt lat="45.39942" lon="6.78519">
        <ele>2444.29</ele>
        <time>2019-09-10T09:58:19Z</time>
      </trkpt>
      <trkpt lat="45.3994" lon="6.7853">
        <ele>2446.21</ele>
        <time>2019-09-10T09:58:36Z</time>
      </trkpt>
      <trkpt lat="45.3994" lon="6.7854">
        <ele>2448.13</ele>
        <time>2019-09-10T09:58:50Z</time>
      </trkpt>
      <trkpt lat="45.39936" lon="6.78552">
        <ele>2450.06</ele>
        <time>2019-09-10T09:59:05Z</time>
      </trkpt>
      <trkpt lat="45.39935" lon="6.78566">
        <ele>2453.42</ele>
        <time>2019-09-10T09:59:22Z</time>
      </trkpt>
      <trkpt lat="45.39934" lon="6.78575">
        <ele>2453.9</ele>
        <time>2019-09-10T09:59:38Z</time>
      </trkpt>
      <trkpt lat="45.39931" lon="6.78589">
        <ele>2455.82</ele>
        <time>2019-09-10T09:59:53Z</time>
      </trkpt>
      <trkpt lat="45.3993" lon="6.78602">
        <ele>2457.27</ele>
        <time>2019-09-10T10:00:09Z</time>
      </trkpt>
      <trkpt lat="45.3993" lon="6.78605">
        <ele>2455.82</ele>
        <time>2019-09-10T10:00:12Z</time>
      </trkpt>
      <trkpt lat="45.3993" lon="6.78609">
        <ele>2457.27</ele>
        <time>2019-09-10T10:00:16Z</time>
      </trkpt>
      <trkpt lat="45.3993" lon="6.78613">
        <ele>2455.34</ele>
        <time>2019-09-10T10:00:21Z</time>
      </trkpt>
      <trkpt lat="45.39929" lon="6.78617">
        <ele>2458.23</ele>
        <time>2019-09-10T10:00:25Z</time>
      </trkpt>
      <trkpt lat="45.39928" lon="6.78619">
        <ele>2458.71</ele>
        <time>2019-09-10T10:00:27Z</time>
      </trkpt>
      <trkpt lat="45.39923" lon="6.78633">
        <ele>2459.67</ele>
        <time>2019-09-10T10:00:41Z</time>
      </trkpt>
      <trkpt lat="45.39922" lon="6.78636">
        <ele>2461.11</ele>
        <time>2019-09-10T10:00:44Z</time>
      </trkpt>
      <trkpt lat="45.39916" lon="6.78649">
        <ele>2461.11</ele>
        <time>2019-09-10T10:00:59Z</time>
      </trkpt>
      <trkpt lat="45.39914" lon="6.78658">
        <ele>2458.71</ele>
        <time>2019-09-10T10:01:08Z</time>
      </trkpt>
      <trkpt lat="45.3991" lon="6.78668">
        <ele>2462.07</ele>
        <time>2019-09-10T10:01:20Z</time>
      </trkpt>
      <trkpt lat="45.39904" lon="6.78677">
        <ele>2463.52</ele>
        <time>2019-09-10T10:01:30Z</time>
      </trkpt>
      <trkpt lat="45.39896" lon="6.78691">
        <ele>2463.04</ele>
        <time>2019-09-10T10:01:44Z</time>
      </trkpt>
      <trkpt lat="45.3989" lon="6.78704">
        <ele>2464.48</ele>
        <time>2019-09-10T10:01:57Z</time>
      </trkpt>
      <trkpt lat="45.39889" lon="6.78711">
        <ele>2463.04</ele>
        <time>2019-09-10T10:02:03Z</time>
      </trkpt>
      <trkpt lat="45.39885" lon="6.78726">
        <ele>2463.04</ele>
        <time>2019-09-10T10:02:16Z</time>
      </trkpt>
      <trkpt lat="45.3988" lon="6.78728">
        <ele>2461.59</ele>
        <time>2019-09-10T10:02:31Z</time>
      </trkpt>
      <trkpt lat="45.39872" lon="6.78738">
        <ele>2460.63</ele>
        <time>2019-09-10T10:02:45Z</time>
      </trkpt>
      <trkpt lat="45.3987" lon="6.78741">
        <ele>2462.07</ele>
        <time>2019-09-10T10:02:48Z</time>
      </trkpt>
      <trkpt lat="45.39865" lon="6.78754">
        <ele>2462.55</ele>
        <time>2019-09-10T10:03:01Z</time>
      </trkpt>
      <trkpt lat="45.39857" lon="6.78771">
        <ele>2464.96</ele>
        <time>2019-09-10T10:03:17Z</time>
      </trkpt>
      <trkpt lat="45.39854" lon="6.78781">
        <ele>2466.4</ele>
        <time>2019-09-10T10:03:28Z</time>
      </trkpt>
      <trkpt lat="45.39847" lon="6.78794">
        <ele>2466.88</ele>
        <time>2019-09-10T10:03:43Z</time>
      </trkpt>
      <trkpt lat="45.39845" lon="6.78795">
        <ele>2466.88</ele>
        <time>2019-09-10T10:03:45Z</time>
      </trkpt>
      <trkpt lat="45.39837" lon="6.78798">
        <ele>2468.8</ele>
        <time>2019-09-10T10:03:54Z</time>
      </trkpt>
      <trkpt lat="45.39827" lon="6.78801">
        <ele>2469.28</ele>
        <time>2019-09-10T10:04:10Z</time>
      </trkpt>
      <trkpt lat="45.39819" lon="6.78799">
        <ele>2470.73</ele>
        <time>2019-09-10T10:04:23Z</time>
      </trkpt>
      <trkpt lat="45.39809" lon="6.78792">
        <ele>2471.69</ele>
        <time>2019-09-10T10:04:39Z</time>
      </trkpt>
      <trkpt lat="45.39806" lon="6.78792">
        <ele>2470.24</ele>
        <time>2019-09-10T10:04:43Z</time>
      </trkpt>
      <trkpt lat="45.39797" lon="6.78799">
        <ele>2467.84</ele>
        <time>2019-09-10T10:04:59Z</time>
      </trkpt>
      <trkpt lat="45.39796" lon="6.78801">
        <ele>2467.36</ele>
        <time>2019-09-10T10:05:01Z</time>
      </trkpt>
      <trkpt lat="45.39789" lon="6.78813">
        <ele>2465.92</ele>
        <time>2019-09-10T10:05:16Z</time>
      </trkpt>
      <trkpt lat="45.39786" lon="6.78818">
        <ele>2465.44</ele>
        <time>2019-09-10T10:05:21Z</time>
      </trkpt>
      <trkpt lat="45.39773" lon="6.78829">
        <ele>2467.36</ele>
        <time>2019-09-10T10:05:37Z</time>
      </trkpt>
      <trkpt lat="45.39765" lon="6.7884">
        <ele>2468.32</ele>
        <time>2019-09-10T10:05:52Z</time>
      </trkpt>
      <trkpt lat="45.39761" lon="6.78848">
        <ele>2470.24</ele>
        <time>2019-09-10T10:06:05Z</time>
      </trkpt>
      <trkpt lat="45.39753" lon="6.78848">
        <ele>2472.17</ele>
        <time>2019-09-10T10:06:19Z</time>
      </trkpt>
      <trkpt lat="45.39744" lon="6.78852">
        <ele>2474.09</ele>
        <time>2019-09-10T10:06:36Z</time>
      </trkpt>
      <trkpt lat="45.39735" lon="6.78856">
        <ele>2475.53</ele>
        <time>2019-09-10T10:06:51Z</time>
      </trkpt>
      <trkpt lat="45.39725" lon="6.78858">
        <ele>2475.53</ele>
        <time>2019-09-10T10:07:05Z</time>
      </trkpt>
      <trkpt lat="45.39718" lon="6.78868">
        <ele>2474.09</ele>
        <time>2019-09-10T10:07:20Z</time>
      </trkpt>
      <trkpt lat="45.39717" lon="6.78869">
        <ele>2476.01</ele>
        <time>2019-09-10T10:07:22Z</time>
      </trkpt>
      <trkpt lat="45.39712" lon="6.7888">
        <ele>2476.97</ele>
        <time>2019-09-10T10:07:37Z</time>
      </trkpt>
      <trkpt lat="45.39707" lon="6.78885">
        <ele>2477.94</ele>
        <time>2019-09-10T10:07:52Z</time>
      </trkpt>
      <trkpt lat="45.39705" lon="6.78885">
        <ele>2476.49</ele>
        <time>2019-09-10T10:07:57Z</time>
      </trkpt>
      <trkpt lat="45.39704" lon="6.78885">
        <ele>2475.05</ele>
        <time>2019-09-10T10:08:00Z</time>
      </trkpt>
      <trkpt lat="45.39703" lon="6.78889">
        <ele>2476.49</ele>
        <time>2019-09-10T10:08:18Z</time>
      </trkpt>
      <trkpt lat="45.39701" lon="6.78888">
        <ele>2475.53</ele>
        <time>2019-09-10T10:08:34Z</time>
      </trkpt>
      <trkpt lat="45.39692" lon="6.78892">
        <ele>2475.05</ele>
        <time>2019-09-10T10:08:50Z</time>
      </trkpt>
      <trkpt lat="45.39681" lon="6.78894">
        <ele>2474.09</ele>
        <time>2019-09-10T10:09:05Z</time>
      </trkpt>
      <trkpt lat="45.39671" lon="6.78891">
        <ele>2474.09</ele>
        <time>2019-09-10T10:09:18Z</time>
      </trkpt>
      <trkpt lat="45.39656" lon="6.78891">
        <ele>2474.09</ele>
        <time>2019-09-10T10:09:33Z</time>
      </trkpt>
      <trkpt lat="45.39647" lon="6.78895">
        <ele>2475.53</ele>
        <time>2019-09-10T10:09:46Z</time>
      </trkpt>
      <trkpt lat="45.39635" lon="6.78899">
        <ele>2476.97</ele>
        <time>2019-09-10T10:10:00Z</time>
      </trkpt>
      <trkpt lat="45.39624" lon="6.78896">
        <ele>2477.94</ele>
        <time>2019-09-10T10:10:15Z</time>
      </trkpt>
      <trkpt lat="45.39624" lon="6.78896">
        <ele>2477.94</ele>
        <time>2019-09-10T10:10:16Z</time>
      </trkpt>
      <trkpt lat="45.39612" lon="6.78894">
        <ele>2476.49</ele>
        <time>2019-09-10T10:10:32Z</time>
      </trkpt>
      <trkpt lat="45.39599" lon="6.78896">
        <ele>2477.94</ele>
        <time>2019-09-10T10:10:47Z</time>
      </trkpt>
      <trkpt lat="45.39598" lon="6.78896">
        <ele>2477.94</ele>
        <time>2019-09-10T10:10:48Z</time>
      </trkpt>
      <trkpt lat="45.39587" lon="6.78901">
        <ele>2479.86</ele>
        <time>2019-09-10T10:11:04Z</time>
      </trkpt>
      <trkpt lat="45.39576" lon="6.78908">
        <ele>2481.3</ele>
        <time>2019-09-10T10:11:19Z</time>
      </trkpt>
      <trkpt lat="45.39568" lon="6.78914">
        <ele>2482.74</ele>
        <time>2019-09-10T10:11:33Z</time>
      </trkpt>
      <trkpt lat="45.39557" lon="6.7892">
        <ele>2483.22</ele>
        <time>2019-09-10T10:11:48Z</time>
      </trkpt>
      <trkpt lat="45.39549" lon="6.78931">
        <ele>2483.22</ele>
        <time>2019-09-10T10:12:00Z</time>
      </trkpt>
      <trkpt lat="45.39546" lon="6.78932">
        <ele>2483.22</ele>
        <time>2019-09-10T10:12:03Z</time>
      </trkpt>
      <trkpt lat="45.39542" lon="6.78939">
        <ele>2484.66</ele>
        <time>2019-09-10T10:12:11Z</time>
      </trkpt>
      <trkpt lat="45.39531" lon="6.78947">
        <ele>2486.11</ele>
        <time>2019-09-10T10:12:27Z</time>
      </trkpt>
      <trkpt lat="45.39522" lon="6.78951">
        <ele>2487.55</ele>
        <time>2019-09-10T10:12:39Z</time>
      </trkpt>
      <trkpt lat="45.39513" lon="6.7895">
        <ele>2488.51</ele>
        <time>2019-09-10T10:12:49Z</time>
      </trkpt>
      <trkpt lat="45.39502" lon="6.78944">
        <ele>2488.51</ele>
        <time>2019-09-10T10:13:03Z</time>
      </trkpt>
      <trkpt lat="45.3949" lon="6.78939">
        <ele>2488.03</ele>
        <time>2019-09-10T10:13:18Z</time>
      </trkpt>
      <trkpt lat="45.39486" lon="6.78938">
        <ele>2486.11</ele>
        <time>2019-09-10T10:13:21Z</time>
      </trkpt>
      <trkpt lat="45.39465" lon="6.78935">
        <ele>2486.59</ele>
        <time>2019-09-10T10:13:41Z</time>
      </trkpt>
      <trkpt lat="45.39458" lon="6.78934">
        <ele>2487.55</ele>
        <time>2019-09-10T10:13:47Z</time>
      </trkpt>
      <trkpt lat="45.39454" lon="6.78933">
        <ele>2487.55</ele>
        <time>2019-09-10T10:13:51Z</time>
      </trkpt>
      <trkpt lat="45.39436" lon="6.78921">
        <ele>2488.03</ele>
        <time>2019-09-10T10:14:09Z</time>
      </trkpt>
      <trkpt lat="45.39423" lon="6.7891">
        <ele>2488.51</ele>
        <time>2019-09-10T10:14:23Z</time>
      </trkpt>
      <trkpt lat="45.39407" lon="6.78913">
        <ele>2488.99</ele>
        <time>2019-09-10T10:14:40Z</time>
      </trkpt>
      <trkpt lat="45.39391" lon="6.78917">
        <ele>2490.91</ele>
        <time>2019-09-10T10:14:58Z</time>
      </trkpt>
      <trkpt lat="45.3938" lon="6.78926">
        <ele>2492.36</ele>
        <time>2019-09-10T10:15:13Z</time>
      </trkpt>
      <trkpt lat="45.39373" lon="6.78942">
        <ele>2492.84</ele>
        <time>2019-09-10T10:15:28Z</time>
      </trkpt>
      <trkpt lat="45.39372" lon="6.78943">
        <ele>2491.39</ele>
        <time>2019-09-10T10:15:30Z</time>
      </trkpt>
      <trkpt lat="45.3937" lon="6.78946">
        <ele>2492.84</ele>
        <time>2019-09-10T10:15:33Z</time>
      </trkpt>
      <trkpt lat="45.39359" lon="6.78962">
        <ele>2493.8</ele>
        <time>2019-09-10T10:15:49Z</time>
      </trkpt>
      <trkpt lat="45.39356" lon="6.78978">
        <ele>2494.76</ele>
        <time>2019-09-10T10:16:03Z</time>
      </trkpt>
      <trkpt lat="45.39356" lon="6.78997">
        <ele>2496.68</ele>
        <time>2019-09-10T10:16:21Z</time>
      </trkpt>
      <trkpt lat="45.39354" lon="6.79013">
        <ele>2497.64</ele>
        <time>2019-09-10T10:16:37Z</time>
      </trkpt>
      <trkpt lat="45.39348" lon="6.79025">
        <ele>2500.53</ele>
        <time>2019-09-10T10:16:51Z</time>
      </trkpt>
      <trkpt lat="45.39341" lon="6.79033">
        <ele>2501.01</ele>
        <time>2019-09-10T10:17:04Z</time>
      </trkpt>
      <trkpt lat="45.3933" lon="6.79044">
        <ele>2502.45</ele>
        <time>2019-09-10T10:17:19Z</time>
      </trkpt>
      <trkpt lat="45.39321" lon="6.79054">
        <ele>2503.89</ele>
        <time>2019-09-10T10:17:34Z</time>
      </trkpt>
      <trkpt lat="45.39312" lon="6.79059">
        <ele>2504.85</ele>
        <time>2019-09-10T10:17:47Z</time>
      </trkpt>
      <trkpt lat="45.39302" lon="6.79062">
        <ele>2504.85</ele>
        <time>2019-09-10T10:17:58Z</time>
      </trkpt>
      <trkpt lat="45.39292" lon="6.7907">
        <ele>2506.29</ele>
        <time>2019-09-10T10:18:11Z</time>
      </trkpt>
      <trkpt lat="45.3928" lon="6.79076">
        <ele>2506.77</ele>
        <time>2019-09-10T10:18:26Z</time>
      </trkpt>
      <trkpt lat="45.39271" lon="6.79079">
        <ele>2504.37</ele>
        <time>2019-09-10T10:18:36Z</time>
      </trkpt>
      <trkpt lat="45.39262" lon="6.79083">
        <ele>2504.85</ele>
        <time>2019-09-10T10:18:46Z</time>
      </trkpt>
      <trkpt lat="45.39257" lon="6.79088">
        <ele>2502.93</ele>
        <time>2019-09-10T10:18:52Z</time>
      </trkpt>
      <trkpt lat="45.39255" lon="6.79089">
        <ele>2504.37</ele>
        <time>2019-09-10T10:18:54Z</time>
      </trkpt>
      <trkpt lat="45.39241" lon="6.79102">
        <ele>2504.85</ele>
        <time>2019-09-10T10:19:09Z</time>
      </trkpt>
      <trkpt lat="45.39233" lon="6.7911">
        <ele>2506.29</ele>
        <time>2019-09-10T10:19:24Z</time>
      </trkpt>
      <trkpt lat="45.39228" lon="6.79098">
        <ele>2506.77</ele>
        <time>2019-09-10T10:19:38Z</time>
      </trkpt>
      <trkpt lat="45.39221" lon="6.79096">
        <ele>2507.74</ele>
        <time>2019-09-10T10:19:50Z</time>
      </trkpt>
      <trkpt lat="45.39216" lon="6.79099">
        <ele>2506.29</ele>
        <time>2019-09-10T10:19:57Z</time>
      </trkpt>
      <trkpt lat="45.3921" lon="6.79106">
        <ele>2506.77</ele>
        <time>2019-09-10T10:20:05Z</time>
      </trkpt>
      <trkpt lat="45.39207" lon="6.79108">
        <ele>2506.77</ele>
        <time>2019-09-10T10:20:08Z</time>
      </trkpt>
      <trkpt lat="45.39205" lon="6.79108">
        <ele>2506.77</ele>
        <time>2019-09-10T10:20:09Z</time>
      </trkpt>
      <trkpt lat="45.39203" lon="6.79107">
        <ele>2508.22</ele>
        <time>2019-09-10T10:20:11Z</time>
      </trkpt>
      <trkpt lat="45.39202" lon="6.79105">
        <ele>2508.22</ele>
        <time>2019-09-10T10:20:23Z</time>
      </trkpt>
      <trkpt lat="45.39197" lon="6.79098">
        <ele>2508.22</ele>
        <time>2019-09-10T10:20:43Z</time>
      </trkpt>
      <trkpt lat="45.39198" lon="6.79097">
        <ele>2506.77</ele>
        <time>2019-09-10T10:20:45Z</time>
      </trkpt>
      <trkpt lat="45.39207" lon="6.79098">
        <ele>2508.22</ele>
        <time>2019-09-10T10:21:10Z</time>
      </trkpt>
      <trkpt lat="45.39207" lon="6.79099">
        <ele>2505.81</ele>
        <time>2019-09-10T10:21:38Z</time>
      </trkpt>
      <trkpt lat="45.39208" lon="6.79099">
        <ele>2505.81</ele>
        <time>2019-09-10T10:21:39Z</time>
      </trkpt>
      <trkpt lat="45.39209" lon="6.79094">
        <ele>2505.81</ele>
        <time>2019-09-10T10:22:02Z</time>
      </trkpt>
      <trkpt lat="45.39209" lon="6.79094">
        <ele>2505.81</ele>
        <time>2019-09-10T10:22:03Z</time>
      </trkpt>
      <trkpt lat="45.39212" lon="6.79101">
        <ele>2507.26</ele>
        <time>2019-09-10T10:22:33Z</time>
      </trkpt>
      <trkpt lat="45.39214" lon="6.791">
        <ele>2504.85</ele>
        <time>2019-09-10T10:23:08Z</time>
      </trkpt>
      <trkpt lat="45.39214" lon="6.79099">
        <ele>2504.85</ele>
        <time>2019-09-10T10:23:09Z</time>
      </trkpt>
      <trkpt lat="45.39213" lon="6.79098">
        <ele>2506.29</ele>
        <time>2019-09-10T10:23:13Z</time>
      </trkpt>
      <trkpt lat="45.39202" lon="6.791">
        <ele>2507.74</ele>
        <time>2019-09-10T10:23:36Z</time>
      </trkpt>
      <trkpt lat="45.39199" lon="6.79108">
        <ele>2507.74</ele>
        <time>2019-09-10T10:24:00Z</time>
      </trkpt>
      <trkpt lat="45.39211" lon="6.79109">
        <ele>2507.74</ele>
        <time>2019-09-10T10:24:22Z</time>
      </trkpt>
      <trkpt lat="45.39208" lon="6.79085">
        <ele>2502.93</ele>
        <time>2019-09-10T11:06:30Z</time>
      </trkpt>
      <trkpt lat="45.39193" lon="6.79087">
        <ele>2505.33</ele>
        <time>2019-09-10T11:06:48Z</time>
      </trkpt>
      <trkpt lat="45.39191" lon="6.79092">
        <ele>2508.7</ele>
        <time>2019-09-10T11:06:52Z</time>
      </trkpt>
      <trkpt lat="45.39191" lon="6.79094">
        <ele>2508.7</ele>
        <time>2019-09-10T11:06:53Z</time>
      </trkpt>
      <trkpt lat="45.39185" lon="6.79095">
        <ele>2512.54</ele>
        <time>2019-09-10T11:07:00Z</time>
      </trkpt>
      <trkpt lat="45.39178" lon="6.79095">
        <ele>2514.95</ele>
        <time>2019-09-10T11:07:06Z</time>
      </trkpt>
      <trkpt lat="45.39169" lon="6.79089">
        <ele>2517.83</ele>
        <time>2019-09-10T11:07:23Z</time>
      </trkpt>
      <trkpt lat="45.39169" lon="6.79089">
        <ele>2514.95</ele>
        <time>2019-09-10T11:07:34Z</time>
      </trkpt>
      <trkpt lat="45.39168" lon="6.79089">
        <ele>2520.71</ele>
        <time>2019-09-10T11:07:35Z</time>
      </trkpt>
      <trkpt lat="45.3917" lon="6.79088">
        <ele>2516.87</ele>
        <time>2019-09-10T11:07:42Z</time>
      </trkpt>
      <trkpt lat="45.3917" lon="6.79089">
        <ele>2519.27</ele>
        <time>2019-09-10T11:07:45Z</time>
      </trkpt>
      <trkpt lat="45.39169" lon="6.79086">
        <ele>2518.79</ele>
        <time>2019-09-10T11:08:05Z</time>
      </trkpt>
      <trkpt lat="45.3917" lon="6.79077">
        <ele>2518.31</ele>
        <time>2019-09-10T11:08:23Z</time>
      </trkpt>
      <trkpt lat="45.3917" lon="6.79069">
        <ele>2519.75</ele>
        <time>2019-09-10T11:08:29Z</time>
      </trkpt>
      <trkpt lat="45.39167" lon="6.79056">
        <ele>2518.31</ele>
        <time>2019-09-10T11:08:41Z</time>
      </trkpt>
      <trkpt lat="45.39165" lon="6.79045">
        <ele>2516.39</ele>
        <time>2019-09-10T11:08:49Z</time>
      </trkpt>
      <trkpt lat="45.39166" lon="6.79036">
        <ele>2515.91</ele>
        <time>2019-09-10T11:08:54Z</time>
      </trkpt>
      <trkpt lat="45.39163" lon="6.79017">
        <ele>2514.95</ele>
        <time>2019-09-10T11:09:06Z</time>
      </trkpt>
      <trkpt lat="45.39152" lon="6.78999">
        <ele>2513.5</ele>
        <time>2019-09-10T11:09:21Z</time>
      </trkpt>
      <trkpt lat="45.39137" lon="6.78981">
        <ele>2513.5</ele>
        <time>2019-09-10T11:09:38Z</time>
      </trkpt>
      <trkpt lat="45.39126" lon="6.78969">
        <ele>2513.5</ele>
        <time>2019-09-10T11:09:50Z</time>
      </trkpt>
      <trkpt lat="45.39124" lon="6.78965">
        <ele>2513.02</ele>
        <time>2019-09-10T11:09:53Z</time>
      </trkpt>
      <trkpt lat="45.39121" lon="6.78964">
        <ele>2514.47</ele>
        <time>2019-09-10T11:09:56Z</time>
      </trkpt>
      <trkpt lat="45.39117" lon="6.78963">
        <ele>2514.47</ele>
        <time>2019-09-10T11:10:00Z</time>
      </trkpt>
      <trkpt lat="45.39114" lon="6.78961">
        <ele>2514.47</ele>
        <time>2019-09-10T11:10:03Z</time>
      </trkpt>
      <trkpt lat="45.39109" lon="6.78957">
        <ele>2514.47</ele>
        <time>2019-09-10T11:10:08Z</time>
      </trkpt>
      <trkpt lat="45.39093" lon="6.78943">
        <ele>2514.47</ele>
        <time>2019-09-10T11:10:25Z</time>
      </trkpt>
      <trkpt lat="45.39077" lon="6.78924">
        <ele>2514.95</ele>
        <time>2019-09-10T11:10:41Z</time>
      </trkpt>
      <trkpt lat="45.39063" lon="6.78906">
        <ele>2516.39</ele>
        <time>2019-09-10T11:10:58Z</time>
      </trkpt>
      <trkpt lat="45.39063" lon="6.78903">
        <ele>2516.39</ele>
        <time>2019-09-10T11:11:00Z</time>
      </trkpt>
      <trkpt lat="45.39057" lon="6.7888">
        <ele>2514.95</ele>
        <time>2019-09-10T11:11:17Z</time>
      </trkpt>
      <trkpt lat="45.39056" lon="6.78874">
        <ele>2514.95</ele>
        <time>2019-09-10T11:11:21Z</time>
      </trkpt>
      <trkpt lat="45.39052" lon="6.78857">
        <ele>2516.39</ele>
        <time>2019-09-10T11:11:32Z</time>
      </trkpt>
      <trkpt lat="45.39043" lon="6.78841">
        <ele>2517.35</ele>
        <time>2019-09-10T11:11:47Z</time>
      </trkpt>
      <trkpt lat="45.3904" lon="6.7883">
        <ele>2514.95</ele>
        <time>2019-09-10T11:12:00Z</time>
      </trkpt>
      <trkpt lat="45.39039" lon="6.7882">
        <ele>2512.54</ele>
        <time>2019-09-10T11:12:14Z</time>
      </trkpt>
      <trkpt lat="45.39042" lon="6.78815">
        <ele>2512.54</ele>
        <time>2019-09-10T11:12:23Z</time>
      </trkpt>
      <trkpt lat="45.39041" lon="6.78805">
        <ele>2511.1</ele>
        <time>2019-09-10T11:12:30Z</time>
      </trkpt>
      <trkpt lat="45.39028" lon="6.78798">
        <ele>2510.14</ele>
        <time>2019-09-10T11:12:44Z</time>
      </trkpt>
      <trkpt lat="45.39026" lon="6.78796">
        <ele>2510.14</ele>
        <time>2019-09-10T11:12:47Z</time>
      </trkpt>
      <trkpt lat="45.39025" lon="6.78777">
        <ele>2509.18</ele>
        <time>2019-09-10T11:13:01Z</time>
      </trkpt>
      <trkpt lat="45.39027" lon="6.78767">
        <ele>2509.18</ele>
        <time>2019-09-10T11:13:15Z</time>
      </trkpt>
      <trkpt lat="45.39025" lon="6.78759">
        <ele>2507.74</ele>
        <time>2019-09-10T11:13:29Z</time>
      </trkpt>
      <trkpt lat="45.39017" lon="6.78753">
        <ele>2507.26</ele>
        <time>2019-09-10T11:13:41Z</time>
      </trkpt>
      <trkpt lat="45.39012" lon="6.78748">
        <ele>2506.29</ele>
        <time>2019-09-10T11:13:55Z</time>
      </trkpt>
      <trkpt lat="45.3901" lon="6.78739">
        <ele>2504.85</ele>
        <time>2019-09-10T11:14:08Z</time>
      </trkpt>
      <trkpt lat="45.39012" lon="6.7873">
        <ele>2502.45</ele>
        <time>2019-09-10T11:14:21Z</time>
      </trkpt>
      <trkpt lat="45.39014" lon="6.78724">
        <ele>2501.97</ele>
        <time>2019-09-10T11:14:33Z</time>
      </trkpt>
      <trkpt lat="45.39013" lon="6.78714">
        <ele>2498.6</ele>
        <time>2019-09-10T11:14:48Z</time>
      </trkpt>
      <trkpt lat="45.39011" lon="6.78706">
        <ele>2497.16</ele>
        <time>2019-09-10T11:15:03Z</time>
      </trkpt>
      <trkpt lat="45.39012" lon="6.78701">
        <ele>2496.68</ele>
        <time>2019-09-10T11:15:15Z</time>
      </trkpt>
      <trkpt lat="45.39009" lon="6.7869">
        <ele>2494.28</ele>
        <time>2019-09-10T11:15:28Z</time>
      </trkpt>
      <trkpt lat="45.39012" lon="6.78675">
        <ele>2490.91</ele>
        <time>2019-09-10T11:15:42Z</time>
      </trkpt>
      <trkpt lat="45.39017" lon="6.78657">
        <ele>2488.99</ele>
        <time>2019-09-10T11:16:00Z</time>
      </trkpt>
      <trkpt lat="45.39016" lon="6.78652">
        <ele>2487.55</ele>
        <time>2019-09-10T11:16:13Z</time>
      </trkpt>
      <trkpt lat="45.39018" lon="6.78651">
        <ele>2485.63</ele>
        <time>2019-09-10T11:16:26Z</time>
      </trkpt>
      <trkpt lat="45.39022" lon="6.78651">
        <ele>2484.66</ele>
        <time>2019-09-10T11:16:38Z</time>
      </trkpt>
      <trkpt lat="45.39022" lon="6.78649">
        <ele>2483.22</ele>
        <time>2019-09-10T11:16:50Z</time>
      </trkpt>
      <trkpt lat="45.39025" lon="6.78644">
        <ele>2481.78</ele>
        <time>2019-09-10T11:17:05Z</time>
      </trkpt>
      <trkpt lat="45.39024" lon="6.78635">
        <ele>2479.86</ele>
        <time>2019-09-10T11:17:15Z</time>
      </trkpt>
      <trkpt lat="45.39023" lon="6.78625">
        <ele>2479.38</ele>
        <time>2019-09-10T11:17:21Z</time>
      </trkpt>
      <trkpt lat="45.39024" lon="6.78619">
        <ele>2477.94</ele>
        <time>2019-09-10T11:17:34Z</time>
      </trkpt>
      <trkpt lat="45.39027" lon="6.78618">
        <ele>2477.94</ele>
        <time>2019-09-10T11:18:00Z</time>
      </trkpt>
      <trkpt lat="45.39026" lon="6.78619">
        <ele>2480.82</ele>
        <time>2019-09-10T11:18:16Z</time>
      </trkpt>
      <trkpt lat="45.39026" lon="6.78618">
        <ele>2480.82</ele>
        <time>2019-09-10T11:18:17Z</time>
      </trkpt>
      <trkpt lat="45.39019" lon="6.78602">
        <ele>2480.82</ele>
        <time>2019-09-10T11:18:27Z</time>
      </trkpt>
      <trkpt lat="45.39017" lon="6.78589">
        <ele>2480.82</ele>
        <time>2019-09-10T11:18:34Z</time>
      </trkpt>
      <trkpt lat="45.39011" lon="6.78562">
        <ele>2480.82</ele>
        <time>2019-09-10T11:18:51Z</time>
      </trkpt>
      <trkpt lat="45.39009" lon="6.78544">
        <ele>2479.86</ele>
        <time>2019-09-10T11:19:02Z</time>
      </trkpt>
      <trkpt lat="45.39004" lon="6.78518">
        <ele>2479.38</ele>
        <time>2019-09-10T11:19:19Z</time>
      </trkpt>
      <trkpt lat="45.38999" lon="6.78489">
        <ele>2477.94</ele>
        <time>2019-09-10T11:19:38Z</time>
      </trkpt>
      <trkpt lat="45.38997" lon="6.78455">
        <ele>2476.97</ele>
        <time>2019-09-10T11:19:57Z</time>
      </trkpt>
      <trkpt lat="45.38999" lon="6.78426">
        <ele>2476.01</ele>
        <time>2019-09-10T11:20:15Z</time>
      </trkpt>
      <trkpt lat="45.38999" lon="6.78422">
        <ele>2475.53</ele>
        <time>2019-09-10T11:20:18Z</time>
      </trkpt>
      <trkpt lat="45.38998" lon="6.78389">
        <ele>2475.05</ele>
        <time>2019-09-10T11:20:35Z</time>
      </trkpt>
      <trkpt lat="45.38997" lon="6.78377">
        <ele>2475.05</ele>
        <time>2019-09-10T11:20:44Z</time>
      </trkpt>
      <trkpt lat="45.38992" lon="6.78369">
        <ele>2474.57</ele>
        <time>2019-09-10T11:20:53Z</time>
      </trkpt>
      <trkpt lat="45.38992" lon="6.78366">
        <ele>2474.57</ele>
        <time>2019-09-10T11:20:56Z</time>
      </trkpt>
      <trkpt lat="45.38986" lon="6.78352">
        <ele>2477.94</ele>
        <time>2019-09-10T11:21:09Z</time>
      </trkpt>
      <trkpt lat="45.38981" lon="6.78344">
        <ele>2480.82</ele>
        <time>2019-09-10T11:21:20Z</time>
      </trkpt>
      <trkpt lat="45.38977" lon="6.78333">
        <ele>2483.22</ele>
        <time>2019-09-10T11:21:32Z</time>
      </trkpt>
      <trkpt lat="45.38977" lon="6.78317">
        <ele>2486.59</ele>
        <time>2019-09-10T11:21:45Z</time>
      </trkpt>
      <trkpt lat="45.38978" lon="6.78305">
        <ele>2485.15</ele>
        <time>2019-09-10T11:21:53Z</time>
      </trkpt>
      <trkpt lat="45.38972" lon="6.78294">
        <ele>2483.7</ele>
        <time>2019-09-10T11:22:06Z</time>
      </trkpt>
      <trkpt lat="45.38967" lon="6.78282">
        <ele>2482.74</ele>
        <time>2019-09-10T11:22:18Z</time>
      </trkpt>
      <trkpt lat="45.38963" lon="6.78264">
        <ele>2484.18</ele>
        <time>2019-09-10T11:22:31Z</time>
      </trkpt>
      <trkpt lat="45.38961" lon="6.78252">
        <ele>2482.26</ele>
        <time>2019-09-10T11:22:44Z</time>
      </trkpt>
      <trkpt lat="45.38956" lon="6.78244">
        <ele>2478.9</ele>
        <time>2019-09-10T11:22:55Z</time>
      </trkpt>
      <trkpt lat="45.38957" lon="6.78233">
        <ele>2476.97</ele>
        <time>2019-09-10T11:23:05Z</time>
      </trkpt>
      <trkpt lat="45.38957" lon="6.7823">
        <ele>2476.01</ele>
        <time>2019-09-10T11:23:07Z</time>
      </trkpt>
      <trkpt lat="45.3896" lon="6.78208">
        <ele>2473.13</ele>
        <time>2019-09-10T11:23:26Z</time>
      </trkpt>
      <trkpt lat="45.38955" lon="6.782">
        <ele>2471.69</ele>
        <time>2019-09-10T11:23:41Z</time>
      </trkpt>
      <trkpt lat="45.38951" lon="6.78192">
        <ele>2469.28</ele>
        <time>2019-09-10T11:23:54Z</time>
      </trkpt>
      <trkpt lat="45.38949" lon="6.78184">
        <ele>2467.36</ele>
        <time>2019-09-10T11:24:07Z</time>
      </trkpt>
      <trkpt lat="45.38945" lon="6.78176">
        <ele>2466.88</ele>
        <time>2019-09-10T11:24:16Z</time>
      </trkpt>
      <trkpt lat="45.38943" lon="6.78175">
        <ele>2466.4</ele>
        <time>2019-09-10T11:24:18Z</time>
      </trkpt>
      <trkpt lat="45.38936" lon="6.78161">
        <ele>2464.48</ele>
        <time>2019-09-10T11:24:32Z</time>
      </trkpt>
      <trkpt lat="45.38935" lon="6.78157">
        <ele>2464</ele>
        <time>2019-09-10T11:24:36Z</time>
      </trkpt>
      <trkpt lat="45.38934" lon="6.78137">
        <ele>2462.55</ele>
        <time>2019-09-10T11:24:54Z</time>
      </trkpt>
      <trkpt lat="45.3893" lon="6.78104">
        <ele>2461.59</ele>
        <time>2019-09-10T11:25:13Z</time>
      </trkpt>
      <trkpt lat="45.38924" lon="6.78081">
        <ele>2460.15</ele>
        <time>2019-09-10T11:25:32Z</time>
      </trkpt>
      <trkpt lat="45.3892" lon="6.78059">
        <ele>2458.71</ele>
        <time>2019-09-10T11:25:49Z</time>
      </trkpt>
      <trkpt lat="45.3892" lon="6.78049">
        <ele>2457.75</ele>
        <time>2019-09-10T11:25:58Z</time>
      </trkpt>
      <trkpt lat="45.38928" lon="6.78027">
        <ele>2456.31</ele>
        <time>2019-09-10T11:26:15Z</time>
      </trkpt>
      <trkpt lat="45.38927" lon="6.78014">
        <ele>2453.42</ele>
        <time>2019-09-10T11:26:27Z</time>
      </trkpt>
      <trkpt lat="45.38925" lon="6.78005">
        <ele>2451.98</ele>
        <time>2019-09-10T11:26:40Z</time>
      </trkpt>
      <trkpt lat="45.38924" lon="6.78003">
        <ele>2451.5</ele>
        <time>2019-09-10T11:27:04Z</time>
      </trkpt>
      <trkpt lat="45.38924" lon="6.78002">
        <ele>2451.5</ele>
        <time>2019-09-10T11:27:28Z</time>
      </trkpt>
      <trkpt lat="45.38924" lon="6.77996">
        <ele>2451.02</ele>
        <time>2019-09-10T11:27:48Z</time>
      </trkpt>
      <trkpt lat="45.38923" lon="6.77982">
        <ele>2449.58</ele>
        <time>2019-09-10T11:27:59Z</time>
      </trkpt>
      <trkpt lat="45.38922" lon="6.77971">
        <ele>2449.1</ele>
        <time>2019-09-10T11:28:13Z</time>
      </trkpt>
      <trkpt lat="45.38926" lon="6.77946">
        <ele>2448.62</ele>
        <time>2019-09-10T11:28:28Z</time>
      </trkpt>
      <trkpt lat="45.38919" lon="6.77923">
        <ele>2448.62</ele>
        <time>2019-09-10T11:28:44Z</time>
      </trkpt>
      <trkpt lat="45.38918" lon="6.77918">
        <ele>2448.62</ele>
        <time>2019-09-10T11:28:48Z</time>
      </trkpt>
      <trkpt lat="45.38918" lon="6.77899">
        <ele>2447.17</ele>
        <time>2019-09-10T11:29:01Z</time>
      </trkpt>
      <trkpt lat="45.38917" lon="6.77892">
        <ele>2446.69</ele>
        <time>2019-09-10T11:29:06Z</time>
      </trkpt>
      <trkpt lat="45.3892" lon="6.7787">
        <ele>2446.21</ele>
        <time>2019-09-10T11:29:20Z</time>
      </trkpt>
      <trkpt lat="45.38921" lon="6.77869">
        <ele>2446.21</ele>
        <time>2019-09-10T11:29:21Z</time>
      </trkpt>
      <trkpt lat="45.38924" lon="6.77857">
        <ele>2448.13</ele>
        <time>2019-09-10T11:29:30Z</time>
      </trkpt>
      <trkpt lat="45.38919" lon="6.77846">
        <ele>2446.69</ele>
        <time>2019-09-10T11:29:41Z</time>
      </trkpt>
      <trkpt lat="45.38919" lon="6.77843">
        <ele>2445.25</ele>
        <time>2019-09-10T11:29:43Z</time>
      </trkpt>
      <trkpt lat="45.38919" lon="6.77839">
        <ele>2445.25</ele>
        <time>2019-09-10T11:29:45Z</time>
      </trkpt>
      <trkpt lat="45.38922" lon="6.77811">
        <ele>2443.81</ele>
        <time>2019-09-10T11:30:01Z</time>
      </trkpt>
      <trkpt lat="45.38922" lon="6.77791">
        <ele>2446.21</ele>
        <time>2019-09-10T11:30:18Z</time>
      </trkpt>
      <trkpt lat="45.38922" lon="6.77788">
        <ele>2444.77</ele>
        <time>2019-09-10T11:30:23Z</time>
      </trkpt>
      <trkpt lat="45.3892" lon="6.77783">
        <ele>2441.89</ele>
        <time>2019-09-10T11:30:36Z</time>
      </trkpt>
      <trkpt lat="45.38917" lon="6.77775">
        <ele>2438.52</ele>
        <time>2019-09-10T11:30:49Z</time>
      </trkpt>
      <trkpt lat="45.3892" lon="6.77767">
        <ele>2436.12</ele>
        <time>2019-09-10T11:31:01Z</time>
      </trkpt>
      <trkpt lat="45.38916" lon="6.7776">
        <ele>2433.71</ele>
        <time>2019-09-10T11:31:13Z</time>
      </trkpt>
      <trkpt lat="45.38915" lon="6.77752">
        <ele>2431.31</ele>
        <time>2019-09-10T11:31:25Z</time>
      </trkpt>
      <trkpt lat="45.38919" lon="6.7774">
        <ele>2428.91</ele>
        <time>2019-09-10T11:31:38Z</time>
      </trkpt>
      <trkpt lat="45.38925" lon="6.77724">
        <ele>2427.47</ele>
        <time>2019-09-10T11:31:53Z</time>
      </trkpt>
      <trkpt lat="45.38924" lon="6.77725">
        <ele>2426.99</ele>
        <time>2019-09-10T11:32:14Z</time>
      </trkpt>
      <trkpt lat="45.38928" lon="6.77719">
        <ele>2426.02</ele>
        <time>2019-09-10T11:32:28Z</time>
      </trkpt>
      <trkpt lat="45.3893" lon="6.77712">
        <ele>2424.1</ele>
        <time>2019-09-10T11:32:42Z</time>
      </trkpt>
      <trkpt lat="45.38931" lon="6.77711">
        <ele>2425.06</ele>
        <time>2019-09-10T11:32:54Z</time>
      </trkpt>
      <trkpt lat="45.38932" lon="6.77712">
        <ele>2421.7</ele>
        <time>2019-09-10T11:33:00Z</time>
      </trkpt>
      <trkpt lat="45.38931" lon="6.7772">
        <ele>2419.78</ele>
        <time>2019-09-10T11:33:13Z</time>
      </trkpt>
      <trkpt lat="45.38934" lon="6.77727">
        <ele>2419.3</ele>
        <time>2019-09-10T11:33:29Z</time>
      </trkpt>
      <trkpt lat="45.38941" lon="6.77723">
        <ele>2416.41</ele>
        <time>2019-09-10T11:33:45Z</time>
      </trkpt>
      <trkpt lat="45.38948" lon="6.77716">
        <ele>2414.49</ele>
        <time>2019-09-10T11:33:58Z</time>
      </trkpt>
      <trkpt lat="45.38946" lon="6.77699">
        <ele>2413.05</ele>
        <time>2019-09-10T11:34:12Z</time>
      </trkpt>
      <trkpt lat="45.38948" lon="6.77693">
        <ele>2411.6</ele>
        <time>2019-09-10T11:34:26Z</time>
      </trkpt>
      <trkpt lat="45.38947" lon="6.77687">
        <ele>2409.2</ele>
        <time>2019-09-10T11:34:37Z</time>
      </trkpt>
      <trkpt lat="45.3895" lon="6.77683">
        <ele>2407.76</ele>
        <time>2019-09-10T11:34:45Z</time>
      </trkpt>
      <trkpt lat="45.38951" lon="6.77674">
        <ele>2405.84</ele>
        <time>2019-09-10T11:35:01Z</time>
      </trkpt>
      <trkpt lat="45.38952" lon="6.77661">
        <ele>2403.91</ele>
        <time>2019-09-10T11:35:12Z</time>
      </trkpt>
      <trkpt lat="45.38952" lon="6.77655">
        <ele>2402.47</ele>
        <time>2019-09-10T11:35:17Z</time>
      </trkpt>
      <trkpt lat="45.38957" lon="6.77635">
        <ele>2398.63</ele>
        <time>2019-09-10T11:35:34Z</time>
      </trkpt>
      <trkpt lat="45.38957" lon="6.77621">
        <ele>2397.18</ele>
        <time>2019-09-10T11:35:46Z</time>
      </trkpt>
      <trkpt lat="45.38962" lon="6.77603">
        <ele>2397.18</ele>
        <time>2019-09-10T11:35:59Z</time>
      </trkpt>
      <trkpt lat="45.38958" lon="6.77585">
        <ele>2395.74</ele>
        <time>2019-09-10T11:36:14Z</time>
      </trkpt>
      <trkpt lat="45.38952" lon="6.77583">
        <ele>2394.78</ele>
        <time>2019-09-10T11:36:27Z</time>
      </trkpt>
      <trkpt lat="45.38948" lon="6.77586">
        <ele>2396.22</ele>
        <time>2019-09-10T11:36:34Z</time>
      </trkpt>
      <trkpt lat="45.38949" lon="6.77579">
        <ele>2394.3</ele>
        <time>2019-09-10T11:36:49Z</time>
      </trkpt>
      <trkpt lat="45.38953" lon="6.77573">
        <ele>2392.38</ele>
        <time>2019-09-10T11:37:02Z</time>
      </trkpt>
      <trkpt lat="45.38956" lon="6.77567">
        <ele>2390.46</ele>
        <time>2019-09-10T11:37:18Z</time>
      </trkpt>
      <trkpt lat="45.38958" lon="6.77555">
        <ele>2389.01</ele>
        <time>2019-09-10T11:37:31Z</time>
      </trkpt>
      <trkpt lat="45.38957" lon="6.77548">
        <ele>2387.57</ele>
        <time>2019-09-10T11:37:45Z</time>
      </trkpt>
      <trkpt lat="45.38951" lon="6.77542">
        <ele>2386.61</ele>
        <time>2019-09-10T11:37:58Z</time>
      </trkpt>
      <trkpt lat="45.38949" lon="6.77527">
        <ele>2383.73</ele>
        <time>2019-09-10T11:38:15Z</time>
      </trkpt>
      <trkpt lat="45.38953" lon="6.77514">
        <ele>2381.8</ele>
        <time>2019-09-10T11:38:28Z</time>
      </trkpt>
      <trkpt lat="45.3896" lon="6.77505">
        <ele>2379.88</ele>
        <time>2019-09-10T11:38:42Z</time>
      </trkpt>
      <trkpt lat="45.38967" lon="6.77493">
        <ele>2377.48</ele>
        <time>2019-09-10T11:38:58Z</time>
      </trkpt>
      <trkpt lat="45.38971" lon="6.77488">
        <ele>2375.55</ele>
        <time>2019-09-10T11:39:14Z</time>
      </trkpt>
      <trkpt lat="45.38967" lon="6.77489">
        <ele>2375.55</ele>
        <time>2019-09-10T11:39:37Z</time>
      </trkpt>
      <trkpt lat="45.3897" lon="6.77481">
        <ele>2373.63</ele>
        <time>2019-09-10T11:39:53Z</time>
      </trkpt>
      <trkpt lat="45.38973" lon="6.77467">
        <ele>2371.71</ele>
        <time>2019-09-10T11:40:06Z</time>
      </trkpt>
      <trkpt lat="45.38975" lon="6.7746">
        <ele>2368.83</ele>
        <time>2019-09-10T11:40:19Z</time>
      </trkpt>
      <trkpt lat="45.38972" lon="6.77449">
        <ele>2366.42</ele>
        <time>2019-09-10T11:40:33Z</time>
      </trkpt>
      <trkpt lat="45.38973" lon="6.77437">
        <ele>2363.06</ele>
        <time>2019-09-10T11:40:49Z</time>
      </trkpt>
      <trkpt lat="45.38975" lon="6.77434">
        <ele>2360.65</ele>
        <time>2019-09-10T11:41:02Z</time>
      </trkpt>
      <trkpt lat="45.38977" lon="6.77431">
        <ele>2359.69</ele>
        <time>2019-09-10T11:41:16Z</time>
      </trkpt>
      <trkpt lat="45.38974" lon="6.77426">
        <ele>2358.25</ele>
        <time>2019-09-10T11:41:28Z</time>
      </trkpt>
      <trkpt lat="45.38979" lon="6.77424">
        <ele>2356.33</ele>
        <time>2019-09-10T11:41:43Z</time>
      </trkpt>
      <trkpt lat="45.38986" lon="6.77423">
        <ele>2354.89</ele>
        <time>2019-09-10T11:41:59Z</time>
      </trkpt>
      <trkpt lat="45.38994" lon="6.77421">
        <ele>2352.48</ele>
        <time>2019-09-10T11:42:13Z</time>
      </trkpt>
      <trkpt lat="45.38999" lon="6.77424">
        <ele>2350.56</ele>
        <time>2019-09-10T11:42:27Z</time>
      </trkpt>
      <trkpt lat="45.38995" lon="6.77415">
        <ele>2349.6</ele>
        <time>2019-09-10T11:42:45Z</time>
      </trkpt>
      <trkpt lat="45.38995" lon="6.77417">
        <ele>2349.12</ele>
        <time>2019-09-10T11:42:59Z</time>
      </trkpt>
      <trkpt lat="45.38992" lon="6.7741">
        <ele>2348.16</ele>
        <time>2019-09-10T11:43:14Z</time>
      </trkpt>
      <trkpt lat="45.3899" lon="6.77406">
        <ele>2346.23</ele>
        <time>2019-09-10T11:43:28Z</time>
      </trkpt>
      <trkpt lat="45.38989" lon="6.774">
        <ele>2344.79</ele>
        <time>2019-09-10T11:43:42Z</time>
      </trkpt>
      <trkpt lat="45.38988" lon="6.77396">
        <ele>2343.35</ele>
        <time>2019-09-10T11:43:55Z</time>
      </trkpt>
      <trkpt lat="45.38988" lon="6.77391">
        <ele>2341.43</ele>
        <time>2019-09-10T11:44:09Z</time>
      </trkpt>
      <trkpt lat="45.3898" lon="6.77387">
        <ele>2339.02</ele>
        <time>2019-09-10T11:44:22Z</time>
      </trkpt>
      <trkpt lat="45.38984" lon="6.77382">
        <ele>2336.62</ele>
        <time>2019-09-10T11:44:34Z</time>
      </trkpt>
      <trkpt lat="45.38983" lon="6.77377">
        <ele>2335.18</ele>
        <time>2019-09-10T11:44:49Z</time>
      </trkpt>
      <trkpt lat="45.3898" lon="6.77365">
        <ele>2332.3</ele>
        <time>2019-09-10T11:45:02Z</time>
      </trkpt>
      <trkpt lat="45.38982" lon="6.77355">
        <ele>2331.33</ele>
        <time>2019-09-10T11:45:16Z</time>
      </trkpt>
      <trkpt lat="45.38981" lon="6.77354">
        <ele>2330.37</ele>
        <time>2019-09-10T11:45:17Z</time>
      </trkpt>
      <trkpt lat="45.38973" lon="6.77345">
        <ele>2327.97</ele>
        <time>2019-09-10T11:45:33Z</time>
      </trkpt>
      <trkpt lat="45.38969" lon="6.77343">
        <ele>2326.05</ele>
        <time>2019-09-10T11:45:45Z</time>
      </trkpt>
      <trkpt lat="45.38966" lon="6.77339">
        <ele>2325.09</ele>
        <time>2019-09-10T11:46:00Z</time>
      </trkpt>
      <trkpt lat="45.38965" lon="6.77333">
        <ele>2323.64</ele>
        <time>2019-09-10T11:46:14Z</time>
      </trkpt>
      <trkpt lat="45.38964" lon="6.77329">
        <ele>2321.72</ele>
        <time>2019-09-10T11:46:29Z</time>
      </trkpt>
      <trkpt lat="45.38962" lon="6.77327">
        <ele>2320.28</ele>
        <time>2019-09-10T11:46:43Z</time>
      </trkpt>
      <trkpt lat="45.3896" lon="6.77318">
        <ele>2318.36</ele>
        <time>2019-09-10T11:46:56Z</time>
      </trkpt>
      <trkpt lat="45.3896" lon="6.77318">
        <ele>2317.88</ele>
        <time>2019-09-10T11:47:15Z</time>
      </trkpt>
      <trkpt lat="45.3896" lon="6.77317">
        <ele>2317.4</ele>
        <time>2019-09-10T11:47:36Z</time>
      </trkpt>
      <trkpt lat="45.38958" lon="6.77319">
        <ele>2317.88</ele>
        <time>2019-09-10T11:47:56Z</time>
      </trkpt>
      <trkpt lat="45.38955" lon="6.77322">
        <ele>2316.91</ele>
        <time>2019-09-10T11:48:26Z</time>
      </trkpt>
      <trkpt lat="45.38953" lon="6.77321">
        <ele>2316.91</ele>
        <time>2019-09-10T11:48:46Z</time>
      </trkpt>
      <trkpt lat="45.38957" lon="6.77314">
        <ele>2315.47</ele>
        <time>2019-09-10T11:49:00Z</time>
      </trkpt>
      <trkpt lat="45.38958" lon="6.77308">
        <ele>2314.03</ele>
        <time>2019-09-10T11:49:14Z</time>
      </trkpt>
      <trkpt lat="45.38956" lon="6.77304">
        <ele>2312.59</ele>
        <time>2019-09-10T11:49:28Z</time>
      </trkpt>
      <trkpt lat="45.38955" lon="6.77302">
        <ele>2312.11</ele>
        <time>2019-09-10T11:49:44Z</time>
      </trkpt>
      <trkpt lat="45.38951" lon="6.77295">
        <ele>2309.7</ele>
        <time>2019-09-10T11:49:57Z</time>
      </trkpt>
      <trkpt lat="45.38949" lon="6.77291">
        <ele>2308.74</ele>
        <time>2019-09-10T11:50:10Z</time>
      </trkpt>
      <trkpt lat="45.38947" lon="6.77286">
        <ele>2306.82</ele>
        <time>2019-09-10T11:50:23Z</time>
      </trkpt>
      <trkpt lat="45.38948" lon="6.77281">
        <ele>2305.86</ele>
        <time>2019-09-10T11:50:37Z</time>
      </trkpt>
      <trkpt lat="45.38948" lon="6.77276">
        <ele>2303.94</ele>
        <time>2019-09-10T11:50:51Z</time>
      </trkpt>
      <trkpt lat="45.38946" lon="6.7727">
        <ele>2302.49</ele>
        <time>2019-09-10T11:51:06Z</time>
      </trkpt>
      <trkpt lat="45.38952" lon="6.77266">
        <ele>2300.09</ele>
        <time>2019-09-10T11:51:19Z</time>
      </trkpt>
      <trkpt lat="45.38956" lon="6.77267">
        <ele>2299.61</ele>
        <time>2019-09-10T11:51:33Z</time>
      </trkpt>
      <trkpt lat="45.38955" lon="6.77266">
        <ele>2300.09</ele>
        <time>2019-09-10T11:52:05Z</time>
      </trkpt>
      <trkpt lat="45.38957" lon="6.77269">
        <ele>2300.09</ele>
        <time>2019-09-10T11:52:24Z</time>
      </trkpt>
      <trkpt lat="45.38955" lon="6.7727">
        <ele>2299.61</ele>
        <time>2019-09-10T11:52:47Z</time>
      </trkpt>
      <trkpt lat="45.38954" lon="6.77273">
        <ele>2299.61</ele>
        <time>2019-09-10T11:53:04Z</time>
      </trkpt>
      <trkpt lat="45.3896" lon="6.77274">
        <ele>2298.65</ele>
        <time>2019-09-10T11:53:25Z</time>
      </trkpt>
      <trkpt lat="45.38963" lon="6.7728">
        <ele>2298.65</ele>
        <time>2019-09-10T11:53:38Z</time>
      </trkpt>
      <trkpt lat="45.3897" lon="6.77281">
        <ele>2296.73</ele>
        <time>2019-09-10T11:53:54Z</time>
      </trkpt>
      <trkpt lat="45.38972" lon="6.7728">
        <ele>2296.25</ele>
        <time>2019-09-10T11:53:56Z</time>
      </trkpt>
      <trkpt lat="45.38975" lon="6.7728">
        <ele>2295.77</ele>
        <time>2019-09-10T11:54:00Z</time>
      </trkpt>
      <trkpt lat="45.38979" lon="6.77283">
        <ele>2295.28</ele>
        <time>2019-09-10T11:54:04Z</time>
      </trkpt>
      <trkpt lat="45.38989" lon="6.77281">
        <ele>2294.32</ele>
        <time>2019-09-10T11:54:17Z</time>
      </trkpt>
      <trkpt lat="45.38999" lon="6.77284">
        <ele>2292.4</ele>
        <time>2019-09-10T11:54:31Z</time>
      </trkpt>
      <trkpt lat="45.3901" lon="6.77282">
        <ele>2292.4</ele>
        <time>2019-09-10T11:54:44Z</time>
      </trkpt>
      <trkpt lat="45.39011" lon="6.77272">
        <ele>2290.96</ele>
        <time>2019-09-10T11:54:58Z</time>
      </trkpt>
      <trkpt lat="45.39015" lon="6.77272">
        <ele>2290.48</ele>
        <time>2019-09-10T11:55:10Z</time>
      </trkpt>
      <trkpt lat="45.39023" lon="6.77277">
        <ele>2289.52</ele>
        <time>2019-09-10T11:55:27Z</time>
      </trkpt>
      <trkpt lat="45.39028" lon="6.77275">
        <ele>2290</ele>
        <time>2019-09-10T11:55:39Z</time>
      </trkpt>
      <trkpt lat="45.3903" lon="6.77272">
        <ele>2291.92</ele>
        <time>2019-09-10T11:55:52Z</time>
      </trkpt>
      <trkpt lat="45.39029" lon="6.77262">
        <ele>2292.4</ele>
        <time>2019-09-10T11:56:06Z</time>
      </trkpt>
      <trkpt lat="45.3903" lon="6.77256">
        <ele>2290.96</ele>
        <time>2019-09-10T11:56:16Z</time>
      </trkpt>
      <trkpt lat="45.3903" lon="6.7725">
        <ele>2289.52</ele>
        <time>2019-09-10T11:56:28Z</time>
      </trkpt>
      <trkpt lat="45.39026" lon="6.77243">
        <ele>2286.63</ele>
        <time>2019-09-10T11:56:41Z</time>
      </trkpt>
      <trkpt lat="45.39024" lon="6.77236">
        <ele>2285.67</ele>
        <time>2019-09-10T11:56:53Z</time>
      </trkpt>
      <trkpt lat="45.39023" lon="6.77234">
        <ele>2284.71</ele>
        <time>2019-09-10T11:57:07Z</time>
      </trkpt>
      <trkpt lat="45.39026" lon="6.77231">
        <ele>2284.23</ele>
        <time>2019-09-10T11:57:29Z</time>
      </trkpt>
      <trkpt lat="45.3902" lon="6.77233">
        <ele>2283.27</ele>
        <time>2019-09-10T11:57:46Z</time>
      </trkpt>
      <trkpt lat="45.39018" lon="6.77235">
        <ele>2281.83</ele>
        <time>2019-09-10T11:57:57Z</time>
      </trkpt>
      <trkpt lat="45.39017" lon="6.77227">
        <ele>2280.87</ele>
        <time>2019-09-10T11:58:06Z</time>
      </trkpt>
      <trkpt lat="45.39011" lon="6.77216">
        <ele>2278.94</ele>
        <time>2019-09-10T11:58:20Z</time>
      </trkpt>
      <trkpt lat="45.39012" lon="6.77209">
        <ele>2277.98</ele>
        <time>2019-09-10T11:58:35Z</time>
      </trkpt>
      <trkpt lat="45.39014" lon="6.77205">
        <ele>2277.02</ele>
        <time>2019-09-10T11:58:49Z</time>
      </trkpt>
      <trkpt lat="45.39011" lon="6.772">
        <ele>2276.54</ele>
        <time>2019-09-10T11:59:03Z</time>
      </trkpt>
      <trkpt lat="45.3901" lon="6.77194">
        <ele>2275.58</ele>
        <time>2019-09-10T11:59:20Z</time>
      </trkpt>
      <trkpt lat="45.39003" lon="6.77188">
        <ele>2275.1</ele>
        <time>2019-09-10T11:59:34Z</time>
      </trkpt>
      <trkpt lat="45.39004" lon="6.77186">
        <ele>2274.14</ele>
        <time>2019-09-10T11:59:48Z</time>
      </trkpt>
      <trkpt lat="45.39006" lon="6.77182">
        <ele>2274.62</ele>
        <time>2019-09-10T11:59:58Z</time>
      </trkpt>
      <trkpt lat="45.39005" lon="6.7718">
        <ele>2273.17</ele>
        <time>2019-09-10T12:00:00Z</time>
      </trkpt>
      <trkpt lat="45.39001" lon="6.77181">
        <ele>2271.73</ele>
        <time>2019-09-10T12:00:15Z</time>
      </trkpt>
      <trkpt lat="45.38999" lon="6.77181">
        <ele>2271.25</ele>
        <time>2019-09-10T12:00:30Z</time>
      </trkpt>
      <trkpt lat="45.38997" lon="6.7718">
        <ele>2270.77</ele>
        <time>2019-09-10T12:00:48Z</time>
      </trkpt>
      <trkpt lat="45.38996" lon="6.77174">
        <ele>2269.33</ele>
        <time>2019-09-10T12:01:02Z</time>
      </trkpt>
      <trkpt lat="45.38997" lon="6.77171">
        <ele>2268.37</ele>
        <time>2019-09-10T12:01:15Z</time>
      </trkpt>
      <trkpt lat="45.38994" lon="6.77169">
        <ele>2266.93</ele>
        <time>2019-09-10T12:01:28Z</time>
      </trkpt>
      <trkpt lat="45.38994" lon="6.77161">
        <ele>2265.48</ele>
        <time>2019-09-10T12:01:43Z</time>
      </trkpt>
      <trkpt lat="45.38993" lon="6.77161">
        <ele>2264.52</ele>
        <time>2019-09-10T12:01:57Z</time>
      </trkpt>
      <trkpt lat="45.38991" lon="6.77155">
        <ele>2264.04</ele>
        <time>2019-09-10T12:02:11Z</time>
      </trkpt>
      <trkpt lat="45.38989" lon="6.77152">
        <ele>2263.56</ele>
        <time>2019-09-10T12:02:25Z</time>
      </trkpt>
      <trkpt lat="45.3899" lon="6.77146">
        <ele>2262.6</ele>
        <time>2019-09-10T12:02:42Z</time>
      </trkpt>
      <trkpt lat="45.3899" lon="6.77146">
        <ele>2262.12</ele>
        <time>2019-09-10T12:02:44Z</time>
      </trkpt>
      <trkpt lat="45.38986" lon="6.77146">
        <ele>2263.56</ele>
        <time>2019-09-10T12:02:49Z</time>
      </trkpt>
      <trkpt lat="45.38981" lon="6.77147">
        <ele>2262.12</ele>
        <time>2019-09-10T12:02:57Z</time>
      </trkpt>
      <trkpt lat="45.38984" lon="6.7714">
        <ele>2260.2</ele>
        <time>2019-09-10T12:03:11Z</time>
      </trkpt>
      <trkpt lat="45.38988" lon="6.77138">
        <ele>2259.72</ele>
        <time>2019-09-10T12:03:24Z</time>
      </trkpt>
      <trkpt lat="45.38991" lon="6.77137">
        <ele>2258.75</ele>
        <time>2019-09-10T12:03:39Z</time>
      </trkpt>
      <trkpt lat="45.38994" lon="6.77136">
        <ele>2258.27</ele>
        <time>2019-09-10T12:03:55Z</time>
      </trkpt>
      <trkpt lat="45.38992" lon="6.77136">
        <ele>2257.31</ele>
        <time>2019-09-10T12:04:12Z</time>
      </trkpt>
      <trkpt lat="45.38988" lon="6.77132">
        <ele>2255.87</ele>
        <time>2019-09-10T12:04:27Z</time>
      </trkpt>
      <trkpt lat="45.38985" lon="6.77124">
        <ele>2254.43</ele>
        <time>2019-09-10T12:04:42Z</time>
      </trkpt>
      <trkpt lat="45.3898" lon="6.77127">
        <ele>2253.47</ele>
        <time>2019-09-10T12:04:55Z</time>
      </trkpt>
      <trkpt lat="45.38976" lon="6.77132">
        <ele>2252.99</ele>
        <time>2019-09-10T12:05:05Z</time>
      </trkpt>
      <trkpt lat="45.38971" lon="6.77129">
        <ele>2252.03</ele>
        <time>2019-09-10T12:05:19Z</time>
      </trkpt>
      <trkpt lat="45.38972" lon="6.77123">
        <ele>2251.06</ele>
        <time>2019-09-10T12:05:33Z</time>
      </trkpt>
      <trkpt lat="45.38971" lon="6.77119">
        <ele>2251.06</ele>
        <time>2019-09-10T12:05:42Z</time>
      </trkpt>
      <trkpt lat="45.38968" lon="6.77112">
        <ele>2249.62</ele>
        <time>2019-09-10T12:05:52Z</time>
      </trkpt>
      <trkpt lat="45.38966" lon="6.77109">
        <ele>2249.14</ele>
        <time>2019-09-10T12:05:55Z</time>
      </trkpt>
      <trkpt lat="45.38963" lon="6.77105">
        <ele>2248.18</ele>
        <time>2019-09-10T12:05:59Z</time>
      </trkpt>
      <trkpt lat="45.3896" lon="6.7709">
        <ele>2245.3</ele>
        <time>2019-09-10T12:06:13Z</time>
      </trkpt>
      <trkpt lat="45.38956" lon="6.77073">
        <ele>2243.37</ele>
        <time>2019-09-10T12:06:29Z</time>
      </trkpt>
      <trkpt lat="45.38958" lon="6.77064">
        <ele>2242.89</ele>
        <time>2019-09-10T12:06:44Z</time>
      </trkpt>
      <trkpt lat="45.38958" lon="6.77062">
        <ele>2241.93</ele>
        <time>2019-09-10T12:07:03Z</time>
      </trkpt>
      <trkpt lat="45.38959" lon="6.77057">
        <ele>2240.97</ele>
        <time>2019-09-10T12:07:21Z</time>
      </trkpt>
      <trkpt lat="45.38963" lon="6.77053">
        <ele>2240.97</ele>
        <time>2019-09-10T12:07:41Z</time>
      </trkpt>
      <trkpt lat="45.38964" lon="6.77049">
        <ele>2240.01</ele>
        <time>2019-09-10T12:08:01Z</time>
      </trkpt>
      <trkpt lat="45.38963" lon="6.77043">
        <ele>2239.05</ele>
        <time>2019-09-10T12:08:16Z</time>
      </trkpt>
      <trkpt lat="45.38964" lon="6.77038">
        <ele>2235.2</ele>
        <time>2019-09-10T12:08:29Z</time>
      </trkpt>
      <trkpt lat="45.38964" lon="6.77037">
        <ele>2238.09</ele>
        <time>2019-09-10T12:08:30Z</time>
      </trkpt>
      <trkpt lat="45.38964" lon="6.77027">
        <ele>2234.72</ele>
        <time>2019-09-10T12:08:43Z</time>
      </trkpt>
      <trkpt lat="45.38963" lon="6.7702">
        <ele>2232.32</ele>
        <time>2019-09-10T12:08:59Z</time>
      </trkpt>
      <trkpt lat="45.38963" lon="6.7702">
        <ele>2233.28</ele>
        <time>2019-09-10T12:09:01Z</time>
      </trkpt>
      <trkpt lat="45.38954" lon="6.7703">
        <ele>2231.84</ele>
        <time>2019-09-10T12:09:25Z</time>
      </trkpt>
      <trkpt lat="45.38953" lon="6.77023">
        <ele>2229.92</ele>
        <time>2019-09-10T12:09:43Z</time>
      </trkpt>
      <trkpt lat="45.3895" lon="6.77009">
        <ele>2228.47</ele>
        <time>2019-09-10T12:09:56Z</time>
      </trkpt>
      <trkpt lat="45.38949" lon="6.77004">
        <ele>2227.51</ele>
        <time>2019-09-10T12:10:09Z</time>
      </trkpt>
      <trkpt lat="45.38945" lon="6.76996">
        <ele>2226.07</ele>
        <time>2019-09-10T12:10:22Z</time>
      </trkpt>
      <trkpt lat="45.38943" lon="6.76987">
        <ele>2224.15</ele>
        <time>2019-09-10T12:10:36Z</time>
      </trkpt>
      <trkpt lat="45.38939" lon="6.76974">
        <ele>2222.71</ele>
        <time>2019-09-10T12:10:49Z</time>
      </trkpt>
      <trkpt lat="45.38935" lon="6.76965">
        <ele>2222.71</ele>
        <time>2019-09-10T12:11:05Z</time>
      </trkpt>
      <trkpt lat="45.38931" lon="6.76955">
        <ele>2222.22</ele>
        <time>2019-09-10T12:11:13Z</time>
      </trkpt>
      <trkpt lat="45.3892" lon="6.76946">
        <ele>2220.78</ele>
        <time>2019-09-10T12:11:27Z</time>
      </trkpt>
      <trkpt lat="45.38911" lon="6.76926">
        <ele>2220.3</ele>
        <time>2019-09-10T12:11:43Z</time>
      </trkpt>
      <trkpt lat="45.38908" lon="6.76917">
        <ele>2222.71</ele>
        <time>2019-09-10T12:11:50Z</time>
      </trkpt>
      <trkpt lat="45.38907" lon="6.76914">
        <ele>2222.71</ele>
        <time>2019-09-10T12:11:52Z</time>
      </trkpt>
      <trkpt lat="45.38905" lon="6.769">
        <ele>2221.26</ele>
        <time>2019-09-10T12:12:06Z</time>
      </trkpt>
      <trkpt lat="45.38901" lon="6.769">
        <ele>2219.34</ele>
        <time>2019-09-10T12:12:11Z</time>
      </trkpt>
      <trkpt lat="45.38887" lon="6.76894">
        <ele>2216.46</ele>
        <time>2019-09-10T12:12:26Z</time>
      </trkpt>
      <trkpt lat="45.38878" lon="6.7689">
        <ele>2213.57</ele>
        <time>2019-09-10T12:12:40Z</time>
      </trkpt>
      <trkpt lat="45.38875" lon="6.76887">
        <ele>2211.65</ele>
        <time>2019-09-10T12:12:52Z</time>
      </trkpt>
      <trkpt lat="45.38872" lon="6.76883">
        <ele>2209.25</ele>
        <time>2019-09-10T12:13:06Z</time>
      </trkpt>
      <trkpt lat="45.38862" lon="6.76874">
        <ele>2205.88</ele>
        <time>2019-09-10T12:13:21Z</time>
      </trkpt>
      <trkpt lat="45.38858" lon="6.76865">
        <ele>2204.92</ele>
        <time>2019-09-10T12:13:35Z</time>
      </trkpt>
      <trkpt lat="45.38862" lon="6.76857">
        <ele>2203.96</ele>
        <time>2019-09-10T12:13:49Z</time>
      </trkpt>
      <trkpt lat="45.38859" lon="6.7685">
        <ele>2203</ele>
        <time>2019-09-10T12:14:03Z</time>
      </trkpt>
      <trkpt lat="45.38856" lon="6.76844">
        <ele>2202.52</ele>
        <time>2019-09-10T12:14:14Z</time>
      </trkpt>
      <trkpt lat="45.38851" lon="6.76846">
        <ele>2202.04</ele>
        <time>2019-09-10T12:14:19Z</time>
      </trkpt>
      <trkpt lat="45.3884" lon="6.7686">
        <ele>2201.08</ele>
        <time>2019-09-10T12:14:34Z</time>
      </trkpt>
      <trkpt lat="45.38835" lon="6.76861">
        <ele>2199.63</ele>
        <time>2019-09-10T12:14:48Z</time>
      </trkpt>
      <trkpt lat="45.38828" lon="6.76855">
        <ele>2197.23</ele>
        <time>2019-09-10T12:15:02Z</time>
      </trkpt>
      <trkpt lat="45.3882" lon="6.76843">
        <ele>2194.83</ele>
        <time>2019-09-10T12:15:16Z</time>
      </trkpt>
      <trkpt lat="45.38821" lon="6.76832">
        <ele>2193.39</ele>
        <time>2019-09-10T12:15:29Z</time>
      </trkpt>
      <trkpt lat="45.38824" lon="6.7682">
        <ele>2191.46</ele>
        <time>2019-09-10T12:15:45Z</time>
      </trkpt>
      <trkpt lat="45.38824" lon="6.76805">
        <ele>2189.06</ele>
        <time>2019-09-10T12:16:00Z</time>
      </trkpt>
      <trkpt lat="45.38828" lon="6.76793">
        <ele>2187.14</ele>
        <time>2019-09-10T12:16:14Z</time>
      </trkpt>
      <trkpt lat="45.38828" lon="6.76781">
        <ele>2184.73</ele>
        <time>2019-09-10T12:16:30Z</time>
      </trkpt>
      <trkpt lat="45.38828" lon="6.76771">
        <ele>2182.33</ele>
        <time>2019-09-10T12:16:44Z</time>
      </trkpt>
      <trkpt lat="45.38833" lon="6.76768">
        <ele>2180.89</ele>
        <time>2019-09-10T12:16:53Z</time>
      </trkpt>
      <trkpt lat="45.38842" lon="6.76748">
        <ele>2178.48</ele>
        <time>2019-09-10T12:17:08Z</time>
      </trkpt>
      <trkpt lat="45.38846" lon="6.76728">
        <ele>2178</ele>
        <time>2019-09-10T12:17:25Z</time>
      </trkpt>
      <trkpt lat="45.38848" lon="6.76717">
        <ele>2175.12</ele>
        <time>2019-09-10T12:17:38Z</time>
      </trkpt>
      <trkpt lat="45.38848" lon="6.76704">
        <ele>2173.68</ele>
        <time>2019-09-10T12:17:53Z</time>
      </trkpt>
      <trkpt lat="45.3885" lon="6.76694">
        <ele>2172.24</ele>
        <time>2019-09-10T12:18:02Z</time>
      </trkpt>
      <trkpt lat="45.3885" lon="6.76673">
        <ele>2169.35</ele>
        <time>2019-09-10T12:18:17Z</time>
      </trkpt>
      <trkpt lat="45.38849" lon="6.7665">
        <ele>2167.43</ele>
        <time>2019-09-10T12:18:33Z</time>
      </trkpt>
      <trkpt lat="45.38846" lon="6.76633">
        <ele>2165.03</ele>
        <time>2019-09-10T12:18:46Z</time>
      </trkpt>
      <trkpt lat="45.38846" lon="6.7663">
        <ele>2164.55</ele>
        <time>2019-09-10T12:18:48Z</time>
      </trkpt>
      <trkpt lat="45.3885" lon="6.76613">
        <ele>2163.58</ele>
        <time>2019-09-10T12:19:04Z</time>
      </trkpt>
      <trkpt lat="45.38845" lon="6.76605">
        <ele>2160.7</ele>
        <time>2019-09-10T12:19:19Z</time>
      </trkpt>
      <trkpt lat="45.38844" lon="6.76593">
        <ele>2159.26</ele>
        <time>2019-09-10T12:19:32Z</time>
      </trkpt>
      <trkpt lat="45.38844" lon="6.76579">
        <ele>2157.34</ele>
        <time>2019-09-10T12:19:46Z</time>
      </trkpt>
      <trkpt lat="45.38846" lon="6.76562">
        <ele>2155.89</ele>
        <time>2019-09-10T12:19:56Z</time>
      </trkpt>
      <trkpt lat="45.38844" lon="6.76542">
        <ele>2156.37</ele>
        <time>2019-09-10T12:20:09Z</time>
      </trkpt>
      <trkpt lat="45.38844" lon="6.76537">
        <ele>2155.89</ele>
        <time>2019-09-10T12:20:12Z</time>
      </trkpt>
      <trkpt lat="45.38837" lon="6.76524">
        <ele>2153.97</ele>
        <time>2019-09-10T12:20:26Z</time>
      </trkpt>
      <trkpt lat="45.38833" lon="6.76518">
        <ele>2152.53</ele>
        <time>2019-09-10T12:20:33Z</time>
      </trkpt>
      <trkpt lat="45.38824" lon="6.76511">
        <ele>2152.05</ele>
        <time>2019-09-10T12:20:42Z</time>
      </trkpt>
      <trkpt lat="45.38812" lon="6.76495">
        <ele>2151.57</ele>
        <time>2019-09-10T12:20:57Z</time>
      </trkpt>
      <trkpt lat="45.38805" lon="6.76484">
        <ele>2151.57</ele>
        <time>2019-09-10T12:21:10Z</time>
      </trkpt>
      <trkpt lat="45.38798" lon="6.76479">
        <ele>2151.57</ele>
        <time>2019-09-10T12:21:22Z</time>
      </trkpt>
      <trkpt lat="45.38798" lon="6.76481">
        <ele>2148.68</ele>
        <time>2019-09-10T12:21:24Z</time>
      </trkpt>
      <trkpt lat="45.38798" lon="6.76483">
        <ele>2153.49</ele>
        <time>2019-09-10T12:21:25Z</time>
      </trkpt>
      <trkpt lat="45.38798" lon="6.76483">
        <ele>2150.13</ele>
        <time>2019-09-10T12:21:36Z</time>
      </trkpt>
      <trkpt lat="45.38798" lon="6.76483">
        <ele>2153.49</ele>
        <time>2019-09-10T12:21:38Z</time>
      </trkpt>
      <trkpt lat="45.38791" lon="6.76479">
        <ele>2150.61</ele>
        <time>2019-09-10T12:21:50Z</time>
      </trkpt>
      <trkpt lat="45.38787" lon="6.76478">
        <ele>2151.09</ele>
        <time>2019-09-10T12:22:04Z</time>
      </trkpt>
      <trkpt lat="45.38785" lon="6.76474">
        <ele>2147.72</ele>
        <time>2019-09-10T12:22:16Z</time>
      </trkpt>
      <trkpt lat="45.38785" lon="6.76475">
        <ele>2151.57</ele>
        <time>2019-09-10T12:22:18Z</time>
      </trkpt>
      <trkpt lat="45.38784" lon="6.76475">
        <ele>2150.13</ele>
        <time>2019-09-10T12:22:34Z</time>
      </trkpt>
      <trkpt lat="45.3877" lon="6.76471">
        <ele>2149.16</ele>
        <time>2019-09-10T12:22:50Z</time>
      </trkpt>
      <trkpt lat="45.38767" lon="6.76467">
        <ele>2148.2</ele>
        <time>2019-09-10T12:22:55Z</time>
      </trkpt>
      <trkpt lat="45.38767" lon="6.76466">
        <ele>2147.72</ele>
        <time>2019-09-10T12:22:56Z</time>
      </trkpt>
      <trkpt lat="45.38762" lon="6.76463">
        <ele>2147.24</ele>
        <time>2019-09-10T12:23:03Z</time>
      </trkpt>
      <trkpt lat="45.38761" lon="6.76463">
        <ele>2146.76</ele>
        <time>2019-09-10T12:23:04Z</time>
      </trkpt>
      <trkpt lat="45.38743" lon="6.76462">
        <ele>2146.76</ele>
        <time>2019-09-10T12:23:19Z</time>
      </trkpt>
      <trkpt lat="45.38736" lon="6.76453">
        <ele>2147.72</ele>
        <time>2019-09-10T12:23:34Z</time>
      </trkpt>
      <trkpt lat="45.3873" lon="6.76453">
        <ele>2146.28</ele>
        <time>2019-09-10T12:23:43Z</time>
      </trkpt>
      <trkpt lat="45.38729" lon="6.76453">
        <ele>2146.28</ele>
        <time>2019-09-10T12:23:44Z</time>
      </trkpt>
      <trkpt lat="45.38722" lon="6.76456">
        <ele>2144.36</ele>
        <time>2019-09-10T12:23:57Z</time>
      </trkpt>
      <trkpt lat="45.3872" lon="6.76451">
        <ele>2142.92</ele>
        <time>2019-09-10T12:24:10Z</time>
      </trkpt>
      <trkpt lat="45.38719" lon="6.76459">
        <ele>2141.95</ele>
        <time>2019-09-10T12:24:23Z</time>
      </trkpt>
      <trkpt lat="45.38719" lon="6.76464">
        <ele>2140.99</ele>
        <time>2019-09-10T12:24:34Z</time>
      </trkpt>
      <trkpt lat="45.38718" lon="6.76472">
        <ele>2139.07</ele>
        <time>2019-09-10T12:24:49Z</time>
      </trkpt>
      <trkpt lat="45.38717" lon="6.76478">
        <ele>2138.59</ele>
        <time>2019-09-10T12:25:06Z</time>
      </trkpt>
      <trkpt lat="45.38719" lon="6.7647">
        <ele>2138.11</ele>
        <time>2019-09-10T12:25:22Z</time>
      </trkpt>
      <trkpt lat="45.38715" lon="6.76464">
        <ele>2136.67</ele>
        <time>2019-09-10T12:25:36Z</time>
      </trkpt>
      <trkpt lat="45.38714" lon="6.76456">
        <ele>2134.26</ele>
        <time>2019-09-10T12:25:48Z</time>
      </trkpt>
      <trkpt lat="45.3871" lon="6.76446">
        <ele>2132.82</ele>
        <time>2019-09-10T12:26:00Z</time>
      </trkpt>
      <trkpt lat="45.38709" lon="6.76443">
        <ele>2132.34</ele>
        <time>2019-09-10T12:26:02Z</time>
      </trkpt>
      <trkpt lat="45.38705" lon="6.76435">
        <ele>2131.38</ele>
        <time>2019-09-10T12:26:14Z</time>
      </trkpt>
      <trkpt lat="45.387" lon="6.76425">
        <ele>2128.5</ele>
        <time>2019-09-10T12:26:27Z</time>
      </trkpt>
      <trkpt lat="45.38696" lon="6.76414">
        <ele>2125.13</ele>
        <time>2019-09-10T12:26:43Z</time>
      </trkpt>
      <trkpt lat="45.38691" lon="6.76407">
        <ele>2123.21</ele>
        <time>2019-09-10T12:26:55Z</time>
      </trkpt>
      <trkpt lat="45.38689" lon="6.76404">
        <ele>2122.25</ele>
        <time>2019-09-10T12:27:09Z</time>
      </trkpt>
      <trkpt lat="45.38687" lon="6.76404">
        <ele>2121.29</ele>
        <time>2019-09-10T12:27:27Z</time>
      </trkpt>
      <trkpt lat="45.38684" lon="6.76397">
        <ele>2118.88</ele>
        <time>2019-09-10T12:27:40Z</time>
      </trkpt>
      <trkpt lat="45.38682" lon="6.76394">
        <ele>2117.92</ele>
        <time>2019-09-10T12:27:55Z</time>
      </trkpt>
      <trkpt lat="45.3868" lon="6.7639">
        <ele>2116.48</ele>
        <time>2019-09-10T12:28:07Z</time>
      </trkpt>
      <trkpt lat="45.38678" lon="6.76386">
        <ele>2116</ele>
        <time>2019-09-10T12:28:24Z</time>
      </trkpt>
      <trkpt lat="45.38677" lon="6.76381">
        <ele>2115.04</ele>
        <time>2019-09-10T12:28:37Z</time>
      </trkpt>
      <trkpt lat="45.38674" lon="6.76377">
        <ele>2115.04</ele>
        <time>2019-09-10T12:28:51Z</time>
      </trkpt>
      <trkpt lat="45.38671" lon="6.76369">
        <ele>2112.63</ele>
        <time>2019-09-10T12:29:08Z</time>
      </trkpt>
      <trkpt lat="45.38664" lon="6.76362">
        <ele>2110.71</ele>
        <time>2019-09-10T12:29:21Z</time>
      </trkpt>
      <trkpt lat="45.38658" lon="6.76352">
        <ele>2108.31</ele>
        <time>2019-09-10T12:29:34Z</time>
      </trkpt>
      <trkpt lat="45.38652" lon="6.76338">
        <ele>2105.91</ele>
        <time>2019-09-10T12:29:49Z</time>
      </trkpt>
      <trkpt lat="45.38646" lon="6.76328">
        <ele>2104.46</ele>
        <time>2019-09-10T12:30:02Z</time>
      </trkpt>
      <trkpt lat="45.38641" lon="6.76322">
        <ele>2103.02</ele>
        <time>2019-09-10T12:30:15Z</time>
      </trkpt>
      <trkpt lat="45.38636" lon="6.76312">
        <ele>2101.1</ele>
        <time>2019-09-10T12:30:31Z</time>
      </trkpt>
      <trkpt lat="45.38635" lon="6.76305">
        <ele>2098.7</ele>
        <time>2019-09-10T12:30:46Z</time>
      </trkpt>
      <trkpt lat="45.38631" lon="6.7629">
        <ele>2096.29</ele>
        <time>2019-09-10T12:31:01Z</time>
      </trkpt>
      <trkpt lat="45.38625" lon="6.7628">
        <ele>2092.93</ele>
        <time>2019-09-10T12:31:16Z</time>
      </trkpt>
      <trkpt lat="45.38619" lon="6.76268">
        <ele>2091</ele>
        <time>2019-09-10T12:31:30Z</time>
      </trkpt>
      <trkpt lat="45.38615" lon="6.76261">
        <ele>2089.08</ele>
        <time>2019-09-10T12:31:45Z</time>
      </trkpt>
      <trkpt lat="45.38612" lon="6.76258">
        <ele>2088.6</ele>
        <time>2019-09-10T12:32:04Z</time>
      </trkpt>
      <trkpt lat="45.38608" lon="6.76261">
        <ele>2088.12</ele>
        <time>2019-09-10T12:32:20Z</time>
      </trkpt>
      <trkpt lat="45.38605" lon="6.76264">
        <ele>2087.64</ele>
        <time>2019-09-10T12:32:33Z</time>
      </trkpt>
      <trkpt lat="45.38603" lon="6.76258">
        <ele>2086.2</ele>
        <time>2019-09-10T12:32:48Z</time>
      </trkpt>
      <trkpt lat="45.38597" lon="6.76256">
        <ele>2085.24</ele>
        <time>2019-09-10T12:33:01Z</time>
      </trkpt>
      <trkpt lat="45.38595" lon="6.7625">
        <ele>2084.28</ele>
        <time>2019-09-10T12:33:17Z</time>
      </trkpt>
      <trkpt lat="45.38589" lon="6.76248">
        <ele>2082.83</ele>
        <time>2019-09-10T12:33:35Z</time>
      </trkpt>
      <trkpt lat="45.38584" lon="6.76247">
        <ele>2082.35</ele>
        <time>2019-09-10T12:33:49Z</time>
      </trkpt>
      <trkpt lat="45.38579" lon="6.76237">
        <ele>2082.35</ele>
        <time>2019-09-10T12:34:02Z</time>
      </trkpt>
      <trkpt lat="45.38573" lon="6.76232">
        <ele>2081.39</ele>
        <time>2019-09-10T12:34:15Z</time>
      </trkpt>
      <trkpt lat="45.38571" lon="6.76224">
        <ele>2080.43</ele>
        <time>2019-09-10T12:34:28Z</time>
      </trkpt>
      <trkpt lat="45.38566" lon="6.76213">
        <ele>2079.95</ele>
        <time>2019-09-10T12:34:44Z</time>
      </trkpt>
      <trkpt lat="45.38557" lon="6.76203">
        <ele>2078.03</ele>
        <time>2019-09-10T12:34:57Z</time>
      </trkpt>
      <trkpt lat="45.38551" lon="6.76196">
        <ele>2076.59</ele>
        <time>2019-09-10T12:35:10Z</time>
      </trkpt>
      <trkpt lat="45.38546" lon="6.76188">
        <ele>2075.14</ele>
        <time>2019-09-10T12:35:22Z</time>
      </trkpt>
      <trkpt lat="45.3854" lon="6.7618">
        <ele>2073.7</ele>
        <time>2019-09-10T12:35:35Z</time>
      </trkpt>
      <trkpt lat="45.38539" lon="6.7617">
        <ele>2072.26</ele>
        <time>2019-09-10T12:35:49Z</time>
      </trkpt>
      <trkpt lat="45.38536" lon="6.76161">
        <ele>2072.26</ele>
        <time>2019-09-10T12:36:03Z</time>
      </trkpt>
      <trkpt lat="45.38535" lon="6.76153">
        <ele>2071.3</ele>
        <time>2019-09-10T12:36:17Z</time>
      </trkpt>
      <trkpt lat="45.38533" lon="6.76149">
        <ele>2070.34</ele>
        <time>2019-09-10T12:36:32Z</time>
      </trkpt>
      <trkpt lat="45.3853" lon="6.7615">
        <ele>2069.86</ele>
        <time>2019-09-10T12:36:45Z</time>
      </trkpt>
      <trkpt lat="45.38528" lon="6.76145">
        <ele>2068.41</ele>
        <time>2019-09-10T12:36:59Z</time>
      </trkpt>
      <trkpt lat="45.38527" lon="6.76144">
        <ele>2067.93</ele>
        <time>2019-09-10T12:37:12Z</time>
      </trkpt>
      <trkpt lat="45.38524" lon="6.76142">
        <ele>2066.49</ele>
        <time>2019-09-10T12:37:26Z</time>
      </trkpt>
      <trkpt lat="45.38526" lon="6.76136">
        <ele>2065.05</ele>
        <time>2019-09-10T12:37:38Z</time>
      </trkpt>
      <trkpt lat="45.38523" lon="6.76127">
        <ele>2063.61</ele>
        <time>2019-09-10T12:37:48Z</time>
      </trkpt>
      <trkpt lat="45.38519" lon="6.76123">
        <ele>2063.13</ele>
        <time>2019-09-10T12:38:00Z</time>
      </trkpt>
      <trkpt lat="45.38517" lon="6.76113">
        <ele>2062.17</ele>
        <time>2019-09-10T12:38:16Z</time>
      </trkpt>
      <trkpt lat="45.38518" lon="6.76107">
        <ele>2061.68</ele>
        <time>2019-09-10T12:38:32Z</time>
      </trkpt>
      <trkpt lat="45.38518" lon="6.76103">
        <ele>2060.24</ele>
        <time>2019-09-10T12:38:43Z</time>
      </trkpt>
      <trkpt lat="45.38515" lon="6.76096">
        <ele>2057.84</ele>
        <time>2019-09-10T12:38:59Z</time>
      </trkpt>
      <trkpt lat="45.38517" lon="6.7609">
        <ele>2057.36</ele>
        <time>2019-09-10T12:39:14Z</time>
      </trkpt>
      <trkpt lat="45.38518" lon="6.76086">
        <ele>2054.96</ele>
        <time>2019-09-10T12:39:28Z</time>
      </trkpt>
      <trkpt lat="45.38511" lon="6.7609">
        <ele>2053.03</ele>
        <time>2019-09-10T12:39:42Z</time>
      </trkpt>
      <trkpt lat="45.38508" lon="6.76096">
        <ele>2052.55</ele>
        <time>2019-09-10T12:39:54Z</time>
      </trkpt>
      <trkpt lat="45.38505" lon="6.76095">
        <ele>2051.11</ele>
        <time>2019-09-10T12:40:08Z</time>
      </trkpt>
      <trkpt lat="45.38497" lon="6.76091">
        <ele>2050.63</ele>
        <time>2019-09-10T12:40:19Z</time>
      </trkpt>
      <trkpt lat="45.38497" lon="6.76084">
        <ele>2050.63</ele>
        <time>2019-09-10T12:40:29Z</time>
      </trkpt>
      <trkpt lat="45.38492" lon="6.76079">
        <ele>2050.63</ele>
        <time>2019-09-10T12:40:39Z</time>
      </trkpt>
      <trkpt lat="45.38491" lon="6.76076">
        <ele>2052.07</ele>
        <time>2019-09-10T12:40:41Z</time>
      </trkpt>
      <trkpt lat="45.38491" lon="6.76075">
        <ele>2052.07</ele>
        <time>2019-09-10T12:40:42Z</time>
      </trkpt>
      <trkpt lat="45.38487" lon="6.76067">
        <ele>2052.07</ele>
        <time>2019-09-10T12:40:54Z</time>
      </trkpt>
      <trkpt lat="45.38482" lon="6.76062">
        <ele>2051.11</ele>
        <time>2019-09-10T12:41:06Z</time>
      </trkpt>
      <trkpt lat="45.38477" lon="6.76057">
        <ele>2049.67</ele>
        <time>2019-09-10T12:41:15Z</time>
      </trkpt>
      <trkpt lat="45.38474" lon="6.76051">
        <ele>2048.71</ele>
        <time>2019-09-10T12:41:24Z</time>
      </trkpt>
      <trkpt lat="45.3847" lon="6.76039">
        <ele>2047.26</ele>
        <time>2019-09-10T12:41:36Z</time>
      </trkpt>
      <trkpt lat="45.38468" lon="6.76031">
        <ele>2045.82</ele>
        <time>2019-09-10T12:41:50Z</time>
      </trkpt>
      <trkpt lat="45.38462" lon="6.76022">
        <ele>2044.86</ele>
        <time>2019-09-10T12:42:04Z</time>
      </trkpt>
      <trkpt lat="45.38458" lon="6.76018">
        <ele>2044.38</ele>
        <time>2019-09-10T12:42:08Z</time>
      </trkpt>
      <trkpt lat="45.38453" lon="6.76011">
        <ele>2045.82</ele>
        <time>2019-09-10T12:42:16Z</time>
      </trkpt>
      <trkpt lat="45.38451" lon="6.76005">
        <ele>2045.82</ele>
        <time>2019-09-10T12:42:21Z</time>
      </trkpt>
      <trkpt lat="45.38444" lon="6.75986">
        <ele>2046.3</ele>
        <time>2019-09-10T12:42:32Z</time>
      </trkpt>
      <trkpt lat="45.38436" lon="6.7598">
        <ele>2046.3</ele>
        <time>2019-09-10T12:42:40Z</time>
      </trkpt>
      <trkpt lat="45.38435" lon="6.75977">
        <ele>2044.86</ele>
        <time>2019-09-10T12:42:42Z</time>
      </trkpt>
      <trkpt lat="45.38431" lon="6.75968">
        <ele>2044.38</ele>
        <time>2019-09-10T12:42:55Z</time>
      </trkpt>
      <trkpt lat="45.38431" lon="6.75964">
        <ele>2043.42</ele>
        <time>2019-09-10T12:42:57Z</time>
      </trkpt>
      <trkpt lat="45.38423" lon="6.75957">
        <ele>2042.94</ele>
        <time>2019-09-10T12:43:10Z</time>
      </trkpt>
      <trkpt lat="45.38422" lon="6.75952">
        <ele>2041.98</ele>
        <time>2019-09-10T12:43:21Z</time>
      </trkpt>
      <trkpt lat="45.38421" lon="6.75948">
        <ele>2041.5</ele>
        <time>2019-09-10T12:43:25Z</time>
      </trkpt>
      <trkpt lat="45.38418" lon="6.75939">
        <ele>2040.54</ele>
        <time>2019-09-10T12:43:31Z</time>
      </trkpt>
      <trkpt lat="45.38413" lon="6.75935">
        <ele>2039.57</ele>
        <time>2019-09-10T12:43:36Z</time>
      </trkpt>
      <trkpt lat="45.38406" lon="6.75925">
        <ele>2038.13</ele>
        <time>2019-09-10T12:43:49Z</time>
      </trkpt>
      <trkpt lat="45.38402" lon="6.75915">
        <ele>2036.69</ele>
        <time>2019-09-10T12:44:02Z</time>
      </trkpt>
      <trkpt lat="45.38404" lon="6.75903">
        <ele>2035.73</ele>
        <time>2019-09-10T12:44:16Z</time>
      </trkpt>
      <trkpt lat="45.38407" lon="6.75891">
        <ele>2033.81</ele>
        <time>2019-09-10T12:44:30Z</time>
      </trkpt>
      <trkpt lat="45.38411" lon="6.7588">
        <ele>2032.84</ele>
        <time>2019-09-10T12:44:42Z</time>
      </trkpt>
      <trkpt lat="45.38405" lon="6.75876">
        <ele>2031.4</ele>
        <time>2019-09-10T12:44:56Z</time>
      </trkpt>
      <trkpt lat="45.38404" lon="6.75871">
        <ele>2029.96</ele>
        <time>2019-09-10T12:45:08Z</time>
      </trkpt>
      <trkpt lat="45.38403" lon="6.75869">
        <ele>2029.48</ele>
        <time>2019-09-10T12:45:14Z</time>
      </trkpt>
      <trkpt lat="45.38394" lon="6.75867">
        <ele>2027.56</ele>
        <time>2019-09-10T12:45:27Z</time>
      </trkpt>
      <trkpt lat="45.38391" lon="6.75853">
        <ele>2025.15</ele>
        <time>2019-09-10T12:45:40Z</time>
      </trkpt>
      <trkpt lat="45.38396" lon="6.75846">
        <ele>2025.15</ele>
        <time>2019-09-10T12:45:53Z</time>
      </trkpt>
      <trkpt lat="45.38393" lon="6.75838">
        <ele>2022.75</ele>
        <time>2019-09-10T12:46:07Z</time>
      </trkpt>
      <trkpt lat="45.38391" lon="6.75827">
        <ele>2021.31</ele>
        <time>2019-09-10T12:46:18Z</time>
      </trkpt>
      <trkpt lat="45.38396" lon="6.75818">
        <ele>2021.31</ele>
        <time>2019-09-10T12:46:33Z</time>
      </trkpt>
      <trkpt lat="45.38394" lon="6.75804">
        <ele>2017.94</ele>
        <time>2019-09-10T12:46:46Z</time>
      </trkpt>
      <trkpt lat="45.38388" lon="6.758">
        <ele>2017.94</ele>
        <time>2019-09-10T12:46:52Z</time>
      </trkpt>
      <trkpt lat="45.38382" lon="6.75802">
        <ele>2017.46</ele>
        <time>2019-09-10T12:46:57Z</time>
      </trkpt>
      <trkpt lat="45.38374" lon="6.75804">
        <ele>2017.94</ele>
        <time>2019-09-10T12:47:05Z</time>
      </trkpt>
      <trkpt lat="45.38365" lon="6.7581">
        <ele>2018.43</ele>
        <time>2019-09-10T12:47:20Z</time>
      </trkpt>
      <trkpt lat="45.38359" lon="6.75811">
        <ele>2017.94</ele>
        <time>2019-09-10T12:47:28Z</time>
      </trkpt>
      <trkpt lat="45.38354" lon="6.75812">
        <ele>2015.54</ele>
        <time>2019-09-10T12:47:41Z</time>
      </trkpt>
      <trkpt lat="45.38352" lon="6.75807">
        <ele>2014.1</ele>
        <time>2019-09-10T12:47:55Z</time>
      </trkpt>
      <trkpt lat="45.3835" lon="6.75813">
        <ele>2012.18</ele>
        <time>2019-09-10T12:48:08Z</time>
      </trkpt>
      <trkpt lat="45.38348" lon="6.75801">
        <ele>2010.25</ele>
        <time>2019-09-10T12:48:22Z</time>
      </trkpt>
      <trkpt lat="45.38341" lon="6.7579">
        <ele>2008.81</ele>
        <time>2019-09-10T12:48:38Z</time>
      </trkpt>
      <trkpt lat="45.38334" lon="6.75792">
        <ele>2005.93</ele>
        <time>2019-09-10T12:48:51Z</time>
      </trkpt>
      <trkpt lat="45.38327" lon="6.75803">
        <ele>2004.01</ele>
        <time>2019-09-10T12:49:04Z</time>
      </trkpt>
      <trkpt lat="45.3832" lon="6.75812">
        <ele>2002.08</ele>
        <time>2019-09-10T12:49:19Z</time>
      </trkpt>
      <trkpt lat="45.38317" lon="6.75816">
        <ele>2000.64</ele>
        <time>2019-09-10T12:49:24Z</time>
      </trkpt>
      <trkpt lat="45.38299" lon="6.75831">
        <ele>1998.72</ele>
        <time>2019-09-10T12:49:42Z</time>
      </trkpt>
      <trkpt lat="45.38299" lon="6.75831">
        <ele>2000.16</ele>
        <time>2019-09-10T12:49:43Z</time>
      </trkpt>
      <trkpt lat="45.38293" lon="6.75833">
        <ele>1999.2</ele>
        <time>2019-09-10T12:49:48Z</time>
      </trkpt>
      <trkpt lat="45.38286" lon="6.75842">
        <ele>2000.64</ele>
        <time>2019-09-10T12:49:59Z</time>
      </trkpt>
      <trkpt lat="45.38278" lon="6.75849">
        <ele>2001.6</ele>
        <time>2019-09-10T12:50:11Z</time>
      </trkpt>
      <trkpt lat="45.38271" lon="6.75854">
        <ele>2002.56</ele>
        <time>2019-09-10T12:50:24Z</time>
      </trkpt>
      <trkpt lat="45.38271" lon="6.75854">
        <ele>2000.64</ele>
        <time>2019-09-10T12:50:26Z</time>
      </trkpt>
      <trkpt lat="45.38264" lon="6.75856">
        <ele>1999.2</ele>
        <time>2019-09-10T12:50:43Z</time>
      </trkpt>
      <trkpt lat="45.3826" lon="6.75857">
        <ele>1998.24</ele>
        <time>2019-09-10T12:50:57Z</time>
      </trkpt>
      <trkpt lat="45.38257" lon="6.75856">
        <ele>2000.16</ele>
        <time>2019-09-10T12:51:04Z</time>
      </trkpt>
      <trkpt lat="45.38258" lon="6.75854">
        <ele>1998.72</ele>
        <time>2019-09-10T12:51:06Z</time>
      </trkpt>
      <trkpt lat="45.38257" lon="6.7585">
        <ele>1997.76</ele>
        <time>2019-09-10T12:51:11Z</time>
      </trkpt>
      <trkpt lat="45.38255" lon="6.75846">
        <ele>1997.76</ele>
        <time>2019-09-10T12:51:15Z</time>
      </trkpt>
      <trkpt lat="45.38246" lon="6.75837">
        <ele>1997.76</ele>
        <time>2019-09-10T12:51:28Z</time>
      </trkpt>
      <trkpt lat="45.38241" lon="6.75837">
        <ele>1998.72</ele>
        <time>2019-09-10T12:51:43Z</time>
      </trkpt>
      <trkpt lat="45.38236" lon="6.75841">
        <ele>1998.72</ele>
        <time>2019-09-10T12:51:56Z</time>
      </trkpt>
      <trkpt lat="45.38233" lon="6.75843">
        <ele>2000.64</ele>
        <time>2019-09-10T12:52:02Z</time>
      </trkpt>
      <trkpt lat="45.38226" lon="6.75844">
        <ele>2000.16</ele>
        <time>2019-09-10T12:52:13Z</time>
      </trkpt>
      <trkpt lat="45.38218" lon="6.75841">
        <ele>1998.72</ele>
        <time>2019-09-10T12:52:26Z</time>
      </trkpt>
      <trkpt lat="45.38215" lon="6.75836">
        <ele>1998.72</ele>
        <time>2019-09-10T12:52:41Z</time>
      </trkpt>
      <trkpt lat="45.38215" lon="6.75835">
        <ele>1998.24</ele>
        <time>2019-09-10T12:52:55Z</time>
      </trkpt>
      <trkpt lat="45.38215" lon="6.75833">
        <ele>1998.24</ele>
        <time>2019-09-10T12:53:10Z</time>
      </trkpt>
      <trkpt lat="45.38218" lon="6.75835">
        <ele>1998.72</ele>
        <time>2019-09-10T12:53:34Z</time>
      </trkpt>
      <trkpt lat="45.3822" lon="6.75834">
        <ele>1999.2</ele>
        <time>2019-09-10T12:53:50Z</time>
      </trkpt>
      <trkpt lat="45.38216" lon="6.7583">
        <ele>1998.24</ele>
        <time>2019-09-10T12:54:08Z</time>
      </trkpt>
      <trkpt lat="45.38217" lon="6.75828">
        <ele>1999.2</ele>
        <time>2019-09-10T12:54:18Z</time>
      </trkpt>
      <trkpt lat="45.38217" lon="6.75825">
        <ele>1998.72</ele>
        <time>2019-09-10T12:54:30Z</time>
      </trkpt>
      <trkpt lat="45.38215" lon="6.75821">
        <ele>1997.28</ele>
        <time>2019-09-10T12:54:44Z</time>
      </trkpt>
      <trkpt lat="45.38215" lon="6.75817">
        <ele>1997.28</ele>
        <time>2019-09-10T12:55:03Z</time>
      </trkpt>
      <trkpt lat="45.38212" lon="6.75815">
        <ele>1996.8</ele>
        <time>2019-09-10T12:55:16Z</time>
      </trkpt>
      <trkpt lat="45.38209" lon="6.75809">
        <ele>1996.8</ele>
        <time>2019-09-10T12:55:30Z</time>
      </trkpt>
      <trkpt lat="45.38207" lon="6.758">
        <ele>1997.28</ele>
        <time>2019-09-10T12:55:42Z</time>
      </trkpt>
      <trkpt lat="45.38205" lon="6.75797">
        <ele>1996.32</ele>
        <time>2019-09-10T12:55:49Z</time>
      </trkpt>
      <trkpt lat="45.38205" lon="6.75797">
        <ele>1994.87</ele>
        <time>2019-09-10T12:55:51Z</time>
      </trkpt>
      <trkpt lat="45.38205" lon="6.75796">
        <ele>1996.8</ele>
        <time>2019-09-10T12:55:53Z</time>
      </trkpt>
      <trkpt lat="45.38204" lon="6.75792">
        <ele>1997.76</ele>
        <time>2019-09-10T12:56:03Z</time>
      </trkpt>
      <trkpt lat="45.38202" lon="6.75785">
        <ele>1994.39</ele>
        <time>2019-09-10T12:56:13Z</time>
      </trkpt>
      <trkpt lat="45.382" lon="6.75781">
        <ele>1993.91</ele>
        <time>2019-09-10T12:56:22Z</time>
      </trkpt>
      <trkpt lat="45.38197" lon="6.75775">
        <ele>1991.99</ele>
        <time>2019-09-10T12:56:36Z</time>
      </trkpt>
      <trkpt lat="45.38197" lon="6.75771">
        <ele>1991.99</ele>
        <time>2019-09-10T12:56:57Z</time>
      </trkpt>
      <trkpt lat="45.38197" lon="6.75771">
        <ele>1990.07</ele>
        <time>2019-09-10T12:57:21Z</time>
      </trkpt>
      <trkpt lat="45.38196" lon="6.7577">
        <ele>1991.99</ele>
        <time>2019-09-10T12:57:26Z</time>
      </trkpt>
      <trkpt lat="45.38196" lon="6.7577">
        <ele>1991.51</ele>
        <time>2019-09-10T12:57:48Z</time>
      </trkpt>
      <trkpt lat="45.38197" lon="6.75769">
        <ele>1990.55</ele>
        <time>2019-09-10T12:58:10Z</time>
      </trkpt>
      <trkpt lat="45.38196" lon="6.75769">
        <ele>1991.99</ele>
        <time>2019-09-10T12:58:34Z</time>
      </trkpt>
      <trkpt lat="45.38195" lon="6.75766">
        <ele>1988.62</ele>
        <time>2019-09-10T12:58:46Z</time>
      </trkpt>
      <trkpt lat="45.38195" lon="6.75766">
        <ele>1994.39</ele>
        <time>2019-09-10T12:58:47Z</time>
      </trkpt>
      <trkpt lat="45.38194" lon="6.75769">
        <ele>1990.55</ele>
        <time>2019-09-10T12:59:01Z</time>
      </trkpt>
      <trkpt lat="45.38194" lon="6.75769">
        <ele>1993.91</ele>
        <time>2019-09-10T12:59:02Z</time>
      </trkpt>
      <trkpt lat="45.38194" lon="6.75769">
        <ele>1993.91</ele>
        <time>2019-09-10T12:59:03Z</time>
      </trkpt>
      <trkpt lat="45.38195" lon="6.75769">
        <ele>1992.47</ele>
        <time>2019-09-10T12:59:05Z</time>
      </trkpt>
      <trkpt lat="45.38194" lon="6.75768">
        <ele>1991.51</ele>
        <time>2019-09-10T12:59:27Z</time>
      </trkpt>
      <trkpt lat="45.38192" lon="6.75773">
        <ele>1992.95</ele>
        <time>2019-09-10T12:59:43Z</time>
      </trkpt>
      <trkpt lat="45.38194" lon="6.75773">
        <ele>1990.55</ele>
        <time>2019-09-10T12:59:49Z</time>
      </trkpt>
      <trkpt lat="45.38194" lon="6.75773">
        <ele>1993.43</ele>
        <time>2019-09-10T12:59:53Z</time>
      </trkpt>
      <trkpt lat="45.38195" lon="6.75772">
        <ele>1991.99</ele>
        <time>2019-09-10T13:00:02Z</time>
      </trkpt>
      <trkpt lat="45.38196" lon="6.75777">
        <ele>1991.51</ele>
        <time>2019-09-10T13:00:28Z</time>
      </trkpt>
      <trkpt lat="45.38195" lon="6.75774">
        <ele>1990.55</ele>
        <time>2019-09-10T13:00:50Z</time>
      </trkpt>
      <trkpt lat="45.38196" lon="6.75775">
        <ele>1991.99</ele>
        <time>2019-09-10T13:01:23Z</time>
      </trkpt>
      <trkpt lat="45.38196" lon="6.75774">
        <ele>1991.99</ele>
        <time>2019-09-10T13:01:39Z</time>
      </trkpt>
      <trkpt lat="45.38195" lon="6.75771">
        <ele>1990.55</ele>
        <time>2019-09-10T13:01:45Z</time>
      </trkpt>
      <trkpt lat="45.38192" lon="6.7576">
        <ele>1989.1</ele>
        <time>2019-09-10T13:01:56Z</time>
      </trkpt>
      <trkpt lat="45.38183" lon="6.75746">
        <ele>1987.66</ele>
        <time>2019-09-10T13:02:13Z</time>
      </trkpt>
      <trkpt lat="45.3818" lon="6.75742">
        <ele>1986.7</ele>
        <time>2019-09-10T13:02:28Z</time>
      </trkpt>
      <trkpt lat="45.38178" lon="6.7573">
        <ele>1984.78</ele>
        <time>2019-09-10T13:02:42Z</time>
      </trkpt>
      <trkpt lat="45.38177" lon="6.75726">
        <ele>1983.34</ele>
        <time>2019-09-10T13:02:49Z</time>
      </trkpt>
      <trkpt lat="45.38174" lon="6.75708">
        <ele>1980.93</ele>
        <time>2019-09-10T13:03:05Z</time>
      </trkpt>
      <trkpt lat="45.38173" lon="6.75695">
        <ele>1979.97</ele>
        <time>2019-09-10T13:03:19Z</time>
      </trkpt>
      <trkpt lat="45.3817" lon="6.75689">
        <ele>1978.53</ele>
        <time>2019-09-10T13:03:28Z</time>
      </trkpt>
      <trkpt lat="45.38166" lon="6.75683">
        <ele>1975.17</ele>
        <time>2019-09-10T13:03:44Z</time>
      </trkpt>
      <trkpt lat="45.38166" lon="6.75678">
        <ele>1973.24</ele>
        <time>2019-09-10T13:03:59Z</time>
      </trkpt>
      <trkpt lat="45.38162" lon="6.75672">
        <ele>1969.88</ele>
        <time>2019-09-10T13:04:09Z</time>
      </trkpt>
      <trkpt lat="45.38159" lon="6.75661">
        <ele>1966.99</ele>
        <time>2019-09-10T13:04:22Z</time>
      </trkpt>
      <trkpt lat="45.38158" lon="6.75652">
        <ele>1965.55</ele>
        <time>2019-09-10T13:04:28Z</time>
      </trkpt>
      <trkpt lat="45.38154" lon="6.75639">
        <ele>1965.55</ele>
        <time>2019-09-10T13:04:42Z</time>
      </trkpt>
      <trkpt lat="45.38151" lon="6.75629">
        <ele>1963.63</ele>
        <time>2019-09-10T13:04:54Z</time>
      </trkpt>
      <trkpt lat="45.38151" lon="6.75625">
        <ele>1962.67</ele>
        <time>2019-09-10T13:05:01Z</time>
      </trkpt>
      <trkpt lat="45.38143" lon="6.75615">
        <ele>1960.75</ele>
        <time>2019-09-10T13:05:15Z</time>
      </trkpt>
      <trkpt lat="45.38139" lon="6.75606">
        <ele>1958.82</ele>
        <time>2019-09-10T13:05:28Z</time>
      </trkpt>
      <trkpt lat="45.38135" lon="6.756">
        <ele>1957.38</ele>
        <time>2019-09-10T13:05:40Z</time>
      </trkpt>
      <trkpt lat="45.38132" lon="6.75589">
        <ele>1955.94</ele>
        <time>2019-09-10T13:05:54Z</time>
      </trkpt>
      <trkpt lat="45.3813" lon="6.75582">
        <ele>1953.54</ele>
        <time>2019-09-10T13:06:08Z</time>
      </trkpt>
      <trkpt lat="45.38129" lon="6.75576">
        <ele>1952.09</ele>
        <time>2019-09-10T13:06:20Z</time>
      </trkpt>
      <trkpt lat="45.38123" lon="6.75567">
        <ele>1951.13</ele>
        <time>2019-09-10T13:06:33Z</time>
      </trkpt>
      <trkpt lat="45.38119" lon="6.7556">
        <ele>1950.17</ele>
        <time>2019-09-10T13:06:45Z</time>
      </trkpt>
      <trkpt lat="45.38119" lon="6.75557">
        <ele>1949.69</ele>
        <time>2019-09-10T13:07:02Z</time>
      </trkpt>
      <trkpt lat="45.38115" lon="6.75552">
        <ele>1947.29</ele>
        <time>2019-09-10T13:07:18Z</time>
      </trkpt>
      <trkpt lat="45.38115" lon="6.75546">
        <ele>1947.29</ele>
        <time>2019-09-10T13:07:33Z</time>
      </trkpt>
      <trkpt lat="45.38118" lon="6.75546">
        <ele>1946.33</ele>
        <time>2019-09-10T13:07:46Z</time>
      </trkpt>
      <trkpt lat="45.38122" lon="6.75548">
        <ele>1945.36</ele>
        <time>2019-09-10T13:08:02Z</time>
      </trkpt>
      <trkpt lat="45.38123" lon="6.75548">
        <ele>1943.92</ele>
        <time>2019-09-10T13:08:19Z</time>
      </trkpt>
      <trkpt lat="45.38122" lon="6.75544">
        <ele>1942.96</ele>
        <time>2019-09-10T13:08:35Z</time>
      </trkpt>
      <trkpt lat="45.38124" lon="6.75539">
        <ele>1942.48</ele>
        <time>2019-09-10T13:08:52Z</time>
      </trkpt>
      <trkpt lat="45.38122" lon="6.75535">
        <ele>1941.52</ele>
        <time>2019-09-10T13:09:13Z</time>
      </trkpt>
      <trkpt lat="45.38121" lon="6.75532">
        <ele>1940.56</ele>
        <time>2019-09-10T13:09:26Z</time>
      </trkpt>
      <trkpt lat="45.38124" lon="6.75532">
        <ele>1940.08</ele>
        <time>2019-09-10T13:09:42Z</time>
      </trkpt>
      <trkpt lat="45.38121" lon="6.75525">
        <ele>1938.64</ele>
        <time>2019-09-10T13:09:55Z</time>
      </trkpt>
      <trkpt lat="45.38124" lon="6.75524">
        <ele>1938.16</ele>
        <time>2019-09-10T13:10:10Z</time>
      </trkpt>
      <trkpt lat="45.38123" lon="6.75522">
        <ele>1937.19</ele>
        <time>2019-09-10T13:10:24Z</time>
      </trkpt>
      <trkpt lat="45.3812" lon="6.75514">
        <ele>1935.75</ele>
        <time>2019-09-10T13:10:41Z</time>
      </trkpt>
      <trkpt lat="45.38124" lon="6.75515">
        <ele>1934.79</ele>
        <time>2019-09-10T13:10:54Z</time>
      </trkpt>
      <trkpt lat="45.38123" lon="6.75509">
        <ele>1932.87</ele>
        <time>2019-09-10T13:11:07Z</time>
      </trkpt>
      <trkpt lat="45.38122" lon="6.75506">
        <ele>1931.43</ele>
        <time>2019-09-10T13:11:20Z</time>
      </trkpt>
      <trkpt lat="45.38121" lon="6.755">
        <ele>1929.5</ele>
        <time>2019-09-10T13:11:33Z</time>
      </trkpt>
      <trkpt lat="45.3812" lon="6.75496">
        <ele>1927.1</ele>
        <time>2019-09-10T13:11:46Z</time>
      </trkpt>
      <trkpt lat="45.38118" lon="6.75491">
        <ele>1925.66</ele>
        <time>2019-09-10T13:11:58Z</time>
      </trkpt>
      <trkpt lat="45.38116" lon="6.75487">
        <ele>1924.22</ele>
        <time>2019-09-10T13:12:10Z</time>
      </trkpt>
      <trkpt lat="45.38111" lon="6.7548">
        <ele>1922.29</ele>
        <time>2019-09-10T13:12:24Z</time>
      </trkpt>
      <trkpt lat="45.38108" lon="6.7547">
        <ele>1920.37</ele>
        <time>2019-09-10T13:12:37Z</time>
      </trkpt>
      <trkpt lat="45.38109" lon="6.75466">
        <ele>1918.93</ele>
        <time>2019-09-10T13:12:48Z</time>
      </trkpt>
      <trkpt lat="45.38104" lon="6.75462">
        <ele>1917.97</ele>
        <time>2019-09-10T13:13:01Z</time>
      </trkpt>
      <trkpt lat="45.38102" lon="6.75449">
        <ele>1916.04</ele>
        <time>2019-09-10T13:13:15Z</time>
      </trkpt>
      <trkpt lat="45.38103" lon="6.75442">
        <ele>1913.64</ele>
        <time>2019-09-10T13:13:30Z</time>
      </trkpt>
      <trkpt lat="45.381" lon="6.75433">
        <ele>1911.72</ele>
        <time>2019-09-10T13:13:41Z</time>
      </trkpt>
      <trkpt lat="45.38101" lon="6.75423">
        <ele>1910.76</ele>
        <time>2019-09-10T13:13:53Z</time>
      </trkpt>
      <trkpt lat="45.38098" lon="6.75411">
        <ele>1910.28</ele>
        <time>2019-09-10T13:14:06Z</time>
      </trkpt>
      <trkpt lat="45.38098" lon="6.75406">
        <ele>1907.39</ele>
        <time>2019-09-10T13:14:20Z</time>
      </trkpt>
      <trkpt lat="45.38093" lon="6.75394">
        <ele>1904.99</ele>
        <time>2019-09-10T13:14:35Z</time>
      </trkpt>
      <trkpt lat="45.3809" lon="6.75387">
        <ele>1902.59</ele>
        <time>2019-09-10T13:14:47Z</time>
      </trkpt>
      <trkpt lat="45.38087" lon="6.75381">
        <ele>1900.66</ele>
        <time>2019-09-10T13:15:01Z</time>
      </trkpt>
      <trkpt lat="45.38083" lon="6.75375">
        <ele>1899.7</ele>
        <time>2019-09-10T13:15:15Z</time>
      </trkpt>
      <trkpt lat="45.38077" lon="6.75374">
        <ele>1898.26</ele>
        <time>2019-09-10T13:15:30Z</time>
      </trkpt>
      <trkpt lat="45.38073" lon="6.75371">
        <ele>1897.3</ele>
        <time>2019-09-10T13:15:45Z</time>
      </trkpt>
      <trkpt lat="45.3807" lon="6.7537">
        <ele>1895.38</ele>
        <time>2019-09-10T13:15:58Z</time>
      </trkpt>
      <trkpt lat="45.38064" lon="6.75366">
        <ele>1893.45</ele>
        <time>2019-09-10T13:16:12Z</time>
      </trkpt>
      <trkpt lat="45.38058" lon="6.75357">
        <ele>1892.01</ele>
        <time>2019-09-10T13:16:24Z</time>
      </trkpt>
      <trkpt lat="45.38055" lon="6.75357">
        <ele>1891.05</ele>
        <time>2019-09-10T13:16:37Z</time>
      </trkpt>
      <trkpt lat="45.38053" lon="6.75351">
        <ele>1889.13</ele>
        <time>2019-09-10T13:16:47Z</time>
      </trkpt>
      <trkpt lat="45.38055" lon="6.75347">
        <ele>1888.65</ele>
        <time>2019-09-10T13:17:03Z</time>
      </trkpt>
      <trkpt lat="45.38053" lon="6.75344">
        <ele>1886.72</ele>
        <time>2019-09-10T13:17:17Z</time>
      </trkpt>
      <trkpt lat="45.38049" lon="6.75346">
        <ele>1884.8</ele>
        <time>2019-09-10T13:17:30Z</time>
      </trkpt>
      <trkpt lat="45.38047" lon="6.75353">
        <ele>1884.8</ele>
        <time>2019-09-10T13:17:39Z</time>
      </trkpt>
      <trkpt lat="45.38045" lon="6.75364">
        <ele>1885.76</ele>
        <time>2019-09-10T13:17:49Z</time>
      </trkpt>
      <trkpt lat="45.38039" lon="6.75377">
        <ele>1886.72</ele>
        <time>2019-09-10T13:18:01Z</time>
      </trkpt>
      <trkpt lat="45.38032" lon="6.75387">
        <ele>1887.69</ele>
        <time>2019-09-10T13:18:14Z</time>
      </trkpt>
      <trkpt lat="45.3803" lon="6.75387">
        <ele>1888.65</ele>
        <time>2019-09-10T13:18:29Z</time>
      </trkpt>
      <trkpt lat="45.38029" lon="6.75391">
        <ele>1888.17</ele>
        <time>2019-09-10T13:18:44Z</time>
      </trkpt>
      <trkpt lat="45.38029" lon="6.75384">
        <ele>1886.72</ele>
        <time>2019-09-10T13:18:57Z</time>
      </trkpt>
      <trkpt lat="45.38026" lon="6.75377">
        <ele>1884.8</ele>
        <time>2019-09-10T13:19:11Z</time>
      </trkpt>
      <trkpt lat="45.38029" lon="6.75371">
        <ele>1883.36</ele>
        <time>2019-09-10T13:19:24Z</time>
      </trkpt>
      <trkpt lat="45.38029" lon="6.75368">
        <ele>1882.88</ele>
        <time>2019-09-10T13:19:36Z</time>
      </trkpt>
      <trkpt lat="45.3803" lon="6.75365">
        <ele>1880.96</ele>
        <time>2019-09-10T13:19:48Z</time>
      </trkpt>
      <trkpt lat="45.38032" lon="6.75361">
        <ele>1879.03</ele>
        <time>2019-09-10T13:20:01Z</time>
      </trkpt>
      <trkpt lat="45.38032" lon="6.75355">
        <ele>1877.59</ele>
        <time>2019-09-10T13:20:14Z</time>
      </trkpt>
      <trkpt lat="45.3803" lon="6.75351">
        <ele>1876.63</ele>
        <time>2019-09-10T13:20:25Z</time>
      </trkpt>
      <trkpt lat="45.38028" lon="6.75349">
        <ele>1875.67</ele>
        <time>2019-09-10T13:20:38Z</time>
      </trkpt>
      <trkpt lat="45.38032" lon="6.75347">
        <ele>1873.75</ele>
        <time>2019-09-10T13:20:53Z</time>
      </trkpt>
      <trkpt lat="45.3803" lon="6.75343">
        <ele>1872.3</ele>
        <time>2019-09-10T13:21:06Z</time>
      </trkpt>
      <trkpt lat="45.38027" lon="6.75341">
        <ele>1869.9</ele>
        <time>2019-09-10T13:21:20Z</time>
      </trkpt>
      <trkpt lat="45.38031" lon="6.75337">
        <ele>1868.94</ele>
        <time>2019-09-10T13:21:35Z</time>
      </trkpt>
      <trkpt lat="45.38025" lon="6.75337">
        <ele>1867.02</ele>
        <time>2019-09-10T13:21:50Z</time>
      </trkpt>
      <trkpt lat="45.38022" lon="6.75333">
        <ele>1864.61</ele>
        <time>2019-09-10T13:22:03Z</time>
      </trkpt>
      <trkpt lat="45.38023" lon="6.75327">
        <ele>1864.13</ele>
        <time>2019-09-10T13:22:16Z</time>
      </trkpt>
      <trkpt lat="45.38024" lon="6.75323">
        <ele>1862.21</ele>
        <time>2019-09-10T13:22:28Z</time>
      </trkpt>
      <trkpt lat="45.38023" lon="6.75319">
        <ele>1860.29</ele>
        <time>2019-09-10T13:22:41Z</time>
      </trkpt>
      <trkpt lat="45.38022" lon="6.75316">
        <ele>1857.89</ele>
        <time>2019-09-10T13:22:55Z</time>
      </trkpt>
      <trkpt lat="45.38024" lon="6.7531">
        <ele>1856.44</ele>
        <time>2019-09-10T13:23:05Z</time>
      </trkpt>
      <trkpt lat="45.3802" lon="6.75306">
        <ele>1855.48</ele>
        <time>2019-09-10T13:23:15Z</time>
      </trkpt>
      <trkpt lat="45.38019" lon="6.75301">
        <ele>1853.08</ele>
        <time>2019-09-10T13:23:28Z</time>
      </trkpt>
      <trkpt lat="45.38018" lon="6.75299">
        <ele>1852.6</ele>
        <time>2019-09-10T13:23:32Z</time>
      </trkpt>
      <trkpt lat="45.38018" lon="6.75296">
        <ele>1851.16</ele>
        <time>2019-09-10T13:23:45Z</time>
      </trkpt>
      <trkpt lat="45.38019" lon="6.75293">
        <ele>1849.71</ele>
        <time>2019-09-10T13:23:58Z</time>
      </trkpt>
      <trkpt lat="45.38016" lon="6.7529">
        <ele>1848.27</ele>
        <time>2019-09-10T13:24:09Z</time>
      </trkpt>
      <trkpt lat="45.38016" lon="6.75284">
        <ele>1846.35</ele>
        <time>2019-09-10T13:24:22Z</time>
      </trkpt>
      <trkpt lat="45.38013" lon="6.75278">
        <ele>1844.91</ele>
        <time>2019-09-10T13:24:35Z</time>
      </trkpt>
      <trkpt lat="45.3801" lon="6.75273">
        <ele>1842.98</ele>
        <time>2019-09-10T13:24:48Z</time>
      </trkpt>
      <trkpt lat="45.3801" lon="6.75272">
        <ele>1842.5</ele>
        <time>2019-09-10T13:24:59Z</time>
      </trkpt>
      <trkpt lat="45.38008" lon="6.75268">
        <ele>1841.54</ele>
        <time>2019-09-10T13:25:11Z</time>
      </trkpt>
      <trkpt lat="45.38006" lon="6.75263">
        <ele>1840.58</ele>
        <time>2019-09-10T13:25:23Z</time>
      </trkpt>
      <trkpt lat="45.38003" lon="6.75258">
        <ele>1839.14</ele>
        <time>2019-09-10T13:25:39Z</time>
      </trkpt>
      <trkpt lat="45.38002" lon="6.75254">
        <ele>1838.18</ele>
        <time>2019-09-10T13:25:54Z</time>
      </trkpt>
      <trkpt lat="45.38001" lon="6.75255">
        <ele>1838.18</ele>
        <time>2019-09-10T13:26:16Z</time>
      </trkpt>
      <trkpt lat="45.38001" lon="6.75255">
        <ele>1837.7</ele>
        <time>2019-09-10T13:26:36Z</time>
      </trkpt>
      <trkpt lat="45.38001" lon="6.75253">
        <ele>1837.7</ele>
        <time>2019-09-10T13:26:51Z</time>
      </trkpt>
      <trkpt lat="45.38001" lon="6.75254">
        <ele>1838.18</ele>
        <time>2019-09-10T13:27:17Z</time>
      </trkpt>
      <trkpt lat="45.38" lon="6.75253">
        <ele>1842.5</ele>
        <time>2019-09-10T13:27:22Z</time>
      </trkpt>
      <trkpt lat="45.38" lon="6.75253">
        <ele>1839.14</ele>
        <time>2019-09-10T13:27:23Z</time>
      </trkpt>
      <trkpt lat="45.37998" lon="6.75252">
        <ele>1838.18</ele>
        <time>2019-09-10T13:27:41Z</time>
      </trkpt>
      <trkpt lat="45.37997" lon="6.75248">
        <ele>1838.18</ele>
        <time>2019-09-10T13:27:49Z</time>
      </trkpt>
      <trkpt lat="45.37996" lon="6.75245">
        <ele>1836.74</ele>
        <time>2019-09-10T13:27:52Z</time>
      </trkpt>
      <trkpt lat="45.37995" lon="6.75233">
        <ele>1836.26</ele>
        <time>2019-09-10T13:28:05Z</time>
      </trkpt>
      <trkpt lat="45.37995" lon="6.7523">
        <ele>1835.77</ele>
        <time>2019-09-10T13:28:08Z</time>
      </trkpt>
      <trkpt lat="45.37996" lon="6.75211">
        <ele>1833.85</ele>
        <time>2019-09-10T13:28:21Z</time>
      </trkpt>
      <trkpt lat="45.37996" lon="6.75207">
        <ele>1833.37</ele>
        <time>2019-09-10T13:28:24Z</time>
      </trkpt>
      <trkpt lat="45.37997" lon="6.7518">
        <ele>1830.49</ele>
        <time>2019-09-10T13:28:43Z</time>
      </trkpt>
      <trkpt lat="45.38005" lon="6.75158">
        <ele>1828.56</ele>
        <time>2019-09-10T13:28:59Z</time>
      </trkpt>
      <trkpt lat="45.38007" lon="6.75152">
        <ele>1828.56</ele>
        <time>2019-09-10T13:29:04Z</time>
      </trkpt>
      <trkpt lat="45.3801" lon="6.75133">
        <ele>1826.16</ele>
        <time>2019-09-10T13:29:18Z</time>
      </trkpt>
      <trkpt lat="45.38011" lon="6.75117">
        <ele>1824.24</ele>
        <time>2019-09-10T13:29:32Z</time>
      </trkpt>
      <trkpt lat="45.38013" lon="6.75105">
        <ele>1821.84</ele>
        <time>2019-09-10T13:29:45Z</time>
      </trkpt>
      <trkpt lat="45.38016" lon="6.7509">
        <ele>1820.39</ele>
        <time>2019-09-10T13:30:00Z</time>
      </trkpt>
      <trkpt lat="45.3802" lon="6.75073">
        <ele>1817.51</ele>
        <time>2019-09-10T13:30:14Z</time>
      </trkpt>
      <trkpt lat="45.38023" lon="6.75065">
        <ele>1816.07</ele>
        <time>2019-09-10T13:30:27Z</time>
      </trkpt>
      <trkpt lat="45.38023" lon="6.75062">
        <ele>1814.63</ele>
        <time>2019-09-10T13:30:30Z</time>
      </trkpt>
      <trkpt lat="45.38022" lon="6.75054">
        <ele>1812.7</ele>
        <time>2019-09-10T13:30:44Z</time>
      </trkpt>
      <trkpt lat="45.38026" lon="6.75047">
        <ele>1809.82</ele>
        <time>2019-09-10T13:30:54Z</time>
      </trkpt>
      <trkpt lat="45.38028" lon="6.75045">
        <ele>1808.86</ele>
        <time>2019-09-10T13:30:56Z</time>
      </trkpt>
      <trkpt lat="45.38037" lon="6.75037">
        <ele>1806.94</ele>
        <time>2019-09-10T13:31:11Z</time>
      </trkpt>
      <trkpt lat="45.38042" lon="6.75031">
        <ele>1804.53</ele>
        <time>2019-09-10T13:31:26Z</time>
      </trkpt>
      <trkpt lat="45.38042" lon="6.75023">
        <ele>1801.65</ele>
        <time>2019-09-10T13:31:41Z</time>
      </trkpt>
      <trkpt lat="45.38044" lon="6.75019">
        <ele>1799.24</ele>
        <time>2019-09-10T13:31:53Z</time>
      </trkpt>
      <trkpt lat="45.38043" lon="6.75012">
        <ele>1797.8</ele>
        <time>2019-09-10T13:32:06Z</time>
      </trkpt>
      <trkpt lat="45.38048" lon="6.75006">
        <ele>1794.92</ele>
        <time>2019-09-10T13:32:20Z</time>
      </trkpt>
      <trkpt lat="45.38055" lon="6.75">
        <ele>1793.48</ele>
        <time>2019-09-10T13:32:34Z</time>
      </trkpt>
      <trkpt lat="45.38057" lon="6.74997">
        <ele>1791.07</ele>
        <time>2019-09-10T13:32:46Z</time>
      </trkpt>
      <trkpt lat="45.3806" lon="6.74988">
        <ele>1788.67</ele>
        <time>2019-09-10T13:33:00Z</time>
      </trkpt>
      <trkpt lat="45.3806" lon="6.74984">
        <ele>1788.19</ele>
        <time>2019-09-10T13:33:04Z</time>
      </trkpt>
      <trkpt lat="45.38064" lon="6.74971">
        <ele>1785.31</ele>
        <time>2019-09-10T13:33:17Z</time>
      </trkpt>
      <trkpt lat="45.38072" lon="6.74964">
        <ele>1782.9</ele>
        <time>2019-09-10T13:33:30Z</time>
      </trkpt>
      <trkpt lat="45.38081" lon="6.74956">
        <ele>1780.02</ele>
        <time>2019-09-10T13:33:43Z</time>
      </trkpt>
      <trkpt lat="45.38095" lon="6.7495">
        <ele>1777.13</ele>
        <time>2019-09-10T13:34:00Z</time>
      </trkpt>
      <trkpt lat="45.38108" lon="6.74944">
        <ele>1775.21</ele>
        <time>2019-09-10T13:34:15Z</time>
      </trkpt>
      <trkpt lat="45.38113" lon="6.74939">
        <ele>1773.77</ele>
        <time>2019-09-10T13:34:25Z</time>
      </trkpt>
      <trkpt lat="45.3812" lon="6.74923">
        <ele>1771.85</ele>
        <time>2019-09-10T13:34:40Z</time>
      </trkpt>
      <trkpt lat="45.38123" lon="6.74919">
        <ele>1770.89</ele>
        <time>2019-09-10T13:34:46Z</time>
      </trkpt>
      <trkpt lat="45.38131" lon="6.74905">
        <ele>1768</ele>
        <time>2019-09-10T13:35:00Z</time>
      </trkpt>
      <trkpt lat="45.38136" lon="6.749">
        <ele>1767.52</ele>
        <time>2019-09-10T13:35:06Z</time>
      </trkpt>
      <trkpt lat="45.38146" lon="6.74891">
        <ele>1765.12</ele>
        <time>2019-09-10T13:35:23Z</time>
      </trkpt>
      <trkpt lat="45.3815" lon="6.74877">
        <ele>1764.16</ele>
        <time>2019-09-10T13:35:37Z</time>
      </trkpt>
      <trkpt lat="45.3815" lon="6.74865">
        <ele>1762.23</ele>
        <time>2019-09-10T13:35:48Z</time>
      </trkpt>
      <trkpt lat="45.38147" lon="6.74857">
        <ele>1762.23</ele>
        <time>2019-09-10T13:35:56Z</time>
      </trkpt>
      <trkpt lat="45.38151" lon="6.74838">
        <ele>1759.83</ele>
        <time>2019-09-10T13:36:11Z</time>
      </trkpt>
      <trkpt lat="45.38157" lon="6.74827">
        <ele>1757.91</ele>
        <time>2019-09-10T13:36:24Z</time>
      </trkpt>
      <trkpt lat="45.38156" lon="6.74815">
        <ele>1756.95</ele>
        <time>2019-09-10T13:36:37Z</time>
      </trkpt>
      <trkpt lat="45.38158" lon="6.74803">
        <ele>1756.47</ele>
        <time>2019-09-10T13:36:49Z</time>
      </trkpt>
      <trkpt lat="45.38161" lon="6.7479">
        <ele>1754.54</ele>
        <time>2019-09-10T13:37:01Z</time>
      </trkpt>
      <trkpt lat="45.38168" lon="6.74778">
        <ele>1752.14</ele>
        <time>2019-09-10T13:37:16Z</time>
      </trkpt>
      <trkpt lat="45.38172" lon="6.74762">
        <ele>1750.7</ele>
        <time>2019-09-10T13:37:30Z</time>
      </trkpt>
      <trkpt lat="45.38173" lon="6.7475">
        <ele>1747.33</ele>
        <time>2019-09-10T13:37:43Z</time>
      </trkpt>
      <trkpt lat="45.38173" lon="6.74749">
        <ele>1751.18</ele>
        <time>2019-09-10T13:37:44Z</time>
      </trkpt>
      <trkpt lat="45.38172" lon="6.74745">
        <ele>1749.26</ele>
        <time>2019-09-10T13:37:57Z</time>
      </trkpt>
      <trkpt lat="45.38172" lon="6.74743">
        <ele>1748.78</ele>
        <time>2019-09-10T13:38:00Z</time>
      </trkpt>
      <trkpt lat="45.38169" lon="6.74726">
        <ele>1748.29</ele>
        <time>2019-09-10T13:38:11Z</time>
      </trkpt>
      <trkpt lat="45.38162" lon="6.7472">
        <ele>1747.81</ele>
        <time>2019-09-10T13:38:18Z</time>
      </trkpt>
      <trkpt lat="45.38157" lon="6.74715">
        <ele>1747.81</ele>
        <time>2019-09-10T13:38:25Z</time>
      </trkpt>
      <trkpt lat="45.38147" lon="6.74693">
        <ele>1745.89</ele>
        <time>2019-09-10T13:38:42Z</time>
      </trkpt>
      <trkpt lat="45.38137" lon="6.74671">
        <ele>1744.93</ele>
        <time>2019-09-10T13:38:58Z</time>
      </trkpt>
      <trkpt lat="45.38128" lon="6.74655">
        <ele>1744.93</ele>
        <time>2019-09-10T13:39:13Z</time>
      </trkpt>
      <trkpt lat="45.3812" lon="6.74631">
        <ele>1743.49</ele>
        <time>2019-09-10T13:39:30Z</time>
      </trkpt>
      <trkpt lat="45.38115" lon="6.74615">
        <ele>1741.57</ele>
        <time>2019-09-10T13:39:42Z</time>
      </trkpt>
      <trkpt lat="45.38115" lon="6.74612">
        <ele>1741.08</ele>
        <time>2019-09-10T13:39:45Z</time>
      </trkpt>
      <trkpt lat="45.38107" lon="6.74594">
        <ele>1739.64</ele>
        <time>2019-09-10T13:40:01Z</time>
      </trkpt>
      <trkpt lat="45.38098" lon="6.74582">
        <ele>1737.24</ele>
        <time>2019-09-10T13:40:15Z</time>
      </trkpt>
      <trkpt lat="45.38086" lon="6.7457">
        <ele>1737.24</ele>
        <time>2019-09-10T13:40:30Z</time>
      </trkpt>
      <trkpt lat="45.38083" lon="6.7456">
        <ele>1736.76</ele>
        <time>2019-09-10T13:40:39Z</time>
      </trkpt>
      <trkpt lat="45.38082" lon="6.74552">
        <ele>1735.32</ele>
        <time>2019-09-10T13:40:46Z</time>
      </trkpt>
      <trkpt lat="45.3808" lon="6.74541">
        <ele>1734.36</ele>
        <time>2019-09-10T13:40:54Z</time>
      </trkpt>
      <trkpt lat="45.38075" lon="6.74513">
        <ele>1731.95</ele>
        <time>2019-09-10T13:41:11Z</time>
      </trkpt>
      <trkpt lat="45.38073" lon="6.74491">
        <ele>1730.03</ele>
        <time>2019-09-10T13:41:26Z</time>
      </trkpt>
      <trkpt lat="45.38073" lon="6.74464">
        <ele>1729.07</ele>
        <time>2019-09-10T13:41:43Z</time>
      </trkpt>
      <trkpt lat="45.38075" lon="6.74441">
        <ele>1727.15</ele>
        <time>2019-09-10T13:42:00Z</time>
      </trkpt>
      <trkpt lat="45.38076" lon="6.74421">
        <ele>1724.74</ele>
        <time>2019-09-10T13:42:15Z</time>
      </trkpt>
      <trkpt lat="45.38081" lon="6.74405">
        <ele>1722.34</ele>
        <time>2019-09-10T13:42:28Z</time>
      </trkpt>
      <trkpt lat="45.38086" lon="6.7439">
        <ele>1718.97</ele>
        <time>2019-09-10T13:42:42Z</time>
      </trkpt>
      <trkpt lat="45.38084" lon="6.74372">
        <ele>1716.57</ele>
        <time>2019-09-10T13:42:56Z</time>
      </trkpt>
      <trkpt lat="45.3808" lon="6.74351">
        <ele>1714.65</ele>
        <time>2019-09-10T13:43:10Z</time>
      </trkpt>
      <trkpt lat="45.38075" lon="6.74328">
        <ele>1712.25</ele>
        <time>2019-09-10T13:43:25Z</time>
      </trkpt>
      <trkpt lat="45.38072" lon="6.74307">
        <ele>1710.32</ele>
        <time>2019-09-10T13:43:39Z</time>
      </trkpt>
      <trkpt lat="45.38066" lon="6.74276">
        <ele>1707.44</ele>
        <time>2019-09-10T13:43:59Z</time>
      </trkpt>
      <trkpt lat="45.38065" lon="6.74272">
        <ele>1706.48</ele>
        <time>2019-09-10T13:44:02Z</time>
      </trkpt>
      <trkpt lat="45.38063" lon="6.74265">
        <ele>1705.04</ele>
        <time>2019-09-10T13:44:09Z</time>
      </trkpt>
      <trkpt lat="45.38061" lon="6.74242">
        <ele>1702.63</ele>
        <time>2019-09-10T13:44:25Z</time>
      </trkpt>
      <trkpt lat="45.38057" lon="6.74217">
        <ele>1699.75</ele>
        <time>2019-09-10T13:44:42Z</time>
      </trkpt>
      <trkpt lat="45.38053" lon="6.74192">
        <ele>1697.34</ele>
        <time>2019-09-10T13:44:59Z</time>
      </trkpt>
      <trkpt lat="45.38051" lon="6.7417">
        <ele>1694.94</ele>
        <time>2019-09-10T13:45:17Z</time>
      </trkpt>
      <trkpt lat="45.3805" lon="6.74145">
        <ele>1692.06</ele>
        <time>2019-09-10T13:45:36Z</time>
      </trkpt>
      <trkpt lat="45.38047" lon="6.74123">
        <ele>1689.65</ele>
        <time>2019-09-10T13:45:52Z</time>
      </trkpt>
      <trkpt lat="45.38045" lon="6.74105">
        <ele>1687.73</ele>
        <time>2019-09-10T13:46:07Z</time>
      </trkpt>
      <trkpt lat="45.38045" lon="6.741">
        <ele>1686.77</ele>
        <time>2019-09-10T13:46:21Z</time>
      </trkpt>
      <trkpt lat="45.38051" lon="6.74086">
        <ele>1684.37</ele>
        <time>2019-09-10T13:46:35Z</time>
      </trkpt>
      <trkpt lat="45.3806" lon="6.74073">
        <ele>1681.48</ele>
        <time>2019-09-10T13:46:50Z</time>
      </trkpt>
      <trkpt lat="45.38062" lon="6.74068">
        <ele>1681.48</ele>
        <time>2019-09-10T13:46:54Z</time>
      </trkpt>
      <trkpt lat="45.38067" lon="6.74052">
        <ele>1681</ele>
        <time>2019-09-10T13:47:05Z</time>
      </trkpt>
      <trkpt lat="45.38066" lon="6.74021">
        <ele>1678.6</ele>
        <time>2019-09-10T13:47:24Z</time>
      </trkpt>
      <trkpt lat="45.38063" lon="6.74009">
        <ele>1677.64</ele>
        <time>2019-09-10T13:47:33Z</time>
      </trkpt>
      <trkpt lat="45.3806" lon="6.73997">
        <ele>1675.72</ele>
        <time>2019-09-10T13:47:43Z</time>
      </trkpt>
      <trkpt lat="45.3806" lon="6.73996">
        <ele>1679.56</ele>
        <time>2019-09-10T13:47:44Z</time>
      </trkpt>
      <trkpt lat="45.3806" lon="6.73995">
        <ele>1677.16</ele>
        <time>2019-09-10T13:47:45Z</time>
      </trkpt>
      <trkpt lat="45.38058" lon="6.73969">
        <ele>1675.72</ele>
        <time>2019-09-10T13:48:00Z</time>
      </trkpt>
      <trkpt lat="45.38058" lon="6.73946">
        <ele>1674.27</ele>
        <time>2019-09-10T13:48:16Z</time>
      </trkpt>
      <trkpt lat="45.38062" lon="6.73926">
        <ele>1672.83</ele>
        <time>2019-09-10T13:48:30Z</time>
      </trkpt>
      <trkpt lat="45.38066" lon="6.73909">
        <ele>1671.87</ele>
        <time>2019-09-10T13:48:42Z</time>
      </trkpt>
      <trkpt lat="45.38069" lon="6.73892">
        <ele>1670.91</ele>
        <time>2019-09-10T13:48:53Z</time>
      </trkpt>
      <trkpt lat="45.38069" lon="6.7387">
        <ele>1668.99</ele>
        <time>2019-09-10T13:49:07Z</time>
      </trkpt>
      <trkpt lat="45.3807" lon="6.73852">
        <ele>1668.02</ele>
        <time>2019-09-10T13:49:19Z</time>
      </trkpt>
      <trkpt lat="45.38069" lon="6.73826">
        <ele>1666.58</ele>
        <time>2019-09-10T13:49:34Z</time>
      </trkpt>
      <trkpt lat="45.3807" lon="6.73806">
        <ele>1666.1</ele>
        <time>2019-09-10T13:49:44Z</time>
      </trkpt>
      <trkpt lat="45.38075" lon="6.7378">
        <ele>1665.14</ele>
        <time>2019-09-10T13:50:00Z</time>
      </trkpt>
      <trkpt lat="45.38078" lon="6.73757">
        <ele>1664.18</ele>
        <time>2019-09-10T13:50:15Z</time>
      </trkpt>
      <trkpt lat="45.38077" lon="6.73736">
        <ele>1662.74</ele>
        <time>2019-09-10T13:50:30Z</time>
      </trkpt>
      <trkpt lat="45.38072" lon="6.73712">
        <ele>1662.26</ele>
        <time>2019-09-10T13:50:47Z</time>
      </trkpt>
      <trkpt lat="45.38062" lon="6.73682">
        <ele>1661.3</ele>
        <time>2019-09-10T13:51:05Z</time>
      </trkpt>
      <trkpt lat="45.38061" lon="6.7366">
        <ele>1660.33</ele>
        <time>2019-09-10T13:51:17Z</time>
      </trkpt>
      <trkpt lat="45.38062" lon="6.7365">
        <ele>1660.33</ele>
        <time>2019-09-10T13:51:22Z</time>
      </trkpt>
      <trkpt lat="45.38065" lon="6.73641">
        <ele>1659.85</ele>
        <time>2019-09-10T13:51:28Z</time>
      </trkpt>
      <trkpt lat="45.38067" lon="6.73638">
        <ele>1659.85</ele>
        <time>2019-09-10T13:51:30Z</time>
      </trkpt>
      <trkpt lat="45.3807" lon="6.73632">
        <ele>1659.85</ele>
        <time>2019-09-10T13:51:35Z</time>
      </trkpt>
      <trkpt lat="45.3808" lon="6.73617">
        <ele>1658.41</ele>
        <time>2019-09-10T13:51:48Z</time>
      </trkpt>
      <trkpt lat="45.3809" lon="6.73607">
        <ele>1657.93</ele>
        <time>2019-09-10T13:51:59Z</time>
      </trkpt>
      <trkpt lat="45.38092" lon="6.73605">
        <ele>1657.93</ele>
        <time>2019-09-10T13:52:01Z</time>
      </trkpt>
      <trkpt lat="45.38109" lon="6.73597">
        <ele>1657.45</ele>
        <time>2019-09-10T13:52:17Z</time>
      </trkpt>
      <trkpt lat="45.38117" lon="6.73597">
        <ele>1657.45</ele>
        <time>2019-09-10T13:52:24Z</time>
      </trkpt>
      <trkpt lat="45.38135" lon="6.73595">
        <ele>1657.45</ele>
        <time>2019-09-10T13:52:39Z</time>
      </trkpt>
      <trkpt lat="45.38158" lon="6.73595">
        <ele>1656.97</ele>
        <time>2019-09-10T13:52:58Z</time>
      </trkpt>
      <trkpt lat="45.38169" lon="6.73597">
        <ele>1658.41</ele>
        <time>2019-09-10T13:53:08Z</time>
      </trkpt>
      <trkpt lat="45.38175" lon="6.73601">
        <ele>1659.37</ele>
        <time>2019-09-10T13:53:16Z</time>
      </trkpt>
      <trkpt lat="45.38185" lon="6.7361">
        <ele>1660.33</ele>
        <time>2019-09-10T13:53:30Z</time>
      </trkpt>
      <trkpt lat="45.38191" lon="6.73612">
        <ele>1660.81</ele>
        <time>2019-09-10T13:53:47Z</time>
      </trkpt>
    </trkseg>
  </trk>
</gpx>